Provisional Data: North Branch Muddy Creek near Muddy Creek Forks, PA


Please select a monitoring station.
Please select start date.
Please select start date.

Toggle Unit: C/F Toggle Unit: C/F
Sample Time Temperature (C) Temperature (F) Specific Conductivity (mS/cm) pH   Turbidity (NTU+) DO (mg/L)
10/17/2022 12:00:00 AM 12.79 55.022 0.184 6.88 2.01 9.22
10/17/2022 12:15:00 AM 12.77 54.986 0.184 6.87 2.59 9.23
10/17/2022 12:30:00 AM 12.75 54.95 0.184 6.85 1.65 9.22
10/17/2022 12:45:00 AM 12.73 54.914 0.184 6.85 1.62 9.23
10/17/2022 1:00:00 AM 12.72 54.896 0.184 6.84 2.48 9.23
10/17/2022 1:15:00 AM 12.7 54.86 0.184 6.83 1.96 9.23
10/17/2022 1:30:00 AM 12.69 54.842 0.184 6.82 1.45 9.21
10/17/2022 1:45:00 AM 12.67 54.806 0.184 6.81 1.71 9.21
10/17/2022 2:00:00 AM 12.66 54.788 0.184 6.81 1.56 9.22
10/17/2022 2:15:00 AM 12.64 54.752 0.184 6.79 1.75 9.22
10/17/2022 2:30:00 AM 12.63 54.734 0.184 6.79 2.58 9.22
10/17/2022 2:45:00 AM 12.61 54.698 0.184 6.79 2.2 9.22
10/17/2022 3:00:00 AM 12.59 54.662 0.184 6.79 0.72 9.22
10/17/2022 3:15:00 AM 12.58 54.644 0.184 6.78 0.42 9.22
10/17/2022 3:30:00 AM 12.56 54.608 0.184 6.77 0.38 9.22
10/17/2022 3:45:00 AM 12.54 54.572 0.184 6.76 2.16 9.23
10/17/2022 4:00:00 AM 12.51 54.518 0.184 6.76 2.79 9.23
10/17/2022 4:15:00 AM 12.49 54.482 0.184 6.76 0.23 9.24
10/17/2022 4:30:00 AM 12.47 54.446 0.184 6.76 0.44 9.25
10/17/2022 4:45:00 AM 12.46 54.428 0.184 6.74 2.22 9.24
10/17/2022 5:00:00 AM 12.44 54.392 0.184 6.74 1.48 9.25
10/17/2022 5:15:00 AM 12.42 54.356 0.184 6.74 2.37 9.25
10/17/2022 5:30:00 AM 12.39 54.302 0.184 6.73 2.8 9.25
10/17/2022 5:45:00 AM 12.36 54.248 0.184 6.73 2.07 9.27
10/17/2022 6:00:00 AM 12.33 54.194 0.184 6.72 0.93 9.27
10/17/2022 6:15:00 AM 12.3 54.14 0.184 6.72 3.96 9.29
10/17/2022 6:30:00 AM 12.28 54.104 0.184 6.72 1.95 9.29
10/17/2022 6:45:00 AM 12.25 54.05 0.184 6.71 0.45 9.3
10/17/2022 7:00:00 AM 12.22 53.996 0.184 6.71 0.46 9.31
10/17/2022 7:15:00 AM 12.2 53.96 0.184 6.7 3.48 9.31
10/17/2022 7:30:00 AM 12.18 53.924 0.184 6.69 2.76 9.31
10/17/2022 7:45:00 AM 12.17 53.906 0.184 6.69 0.86 9.34
10/17/2022 8:00:00 AM 12.16 53.888 0.184 6.7 2.02 9.36
10/17/2022 8:15:00 AM 12.16 53.888 0.184 6.69 3.04 9.39
10/17/2022 8:30:00 AM 12.16 53.888 0.184 6.69 1.56 9.44
10/17/2022 8:45:00 AM 12.18 53.924 0.184 6.69 0.27 9.51
10/17/2022 9:00:00 AM 12.2 53.96 0.184 6.7 1.72 9.59
10/17/2022 9:15:00 AM 12.23 54.014 0.184 6.7 2.71 9.7
10/17/2022 9:30:00 AM 12.28 54.104 0.184 6.72 3.05 9.85
10/17/2022 9:45:00 AM 12.33 54.194 0.184 6.73 0.33 10.01
10/17/2022 10:00:00 AM 12.38 54.284 0.183 6.75 1.84 10.19
10/17/2022 10:15:00 AM 12.44 54.392 0.183 6.76 0.64 10.34
10/17/2022 10:30:00 AM 12.5 54.5 0.183 6.79 0.92 10.48
10/17/2022 10:45:00 AM 12.57 54.626 0.183 6.8 2.05 10.61
10/17/2022 11:00:00 AM 12.64 54.752 0.183 6.83 2.05 10.72
10/17/2022 11:15:00 AM 12.72 54.896 0.183 6.85 1.41 10.83
10/17/2022 11:30:00 AM 12.82 55.076 0.182 6.88 1.78 10.94
10/17/2022 11:45:00 AM 12.95 55.31 0.182 6.91 0.46 11.05
10/17/2022 12:00:00 PM 13.07 55.526 0.182 6.95 1.97 11.13
10/17/2022 12:15:00 PM 13.19 55.742 0.182 7 1.63 11.16
10/17/2022 12:30:00 PM 13.31 55.958 0.182 7.02 1.9 11.25
10/17/2022 12:45:00 PM 13.4 56.12 0.182 7.05 1.66 11.26
10/17/2022 1:00:00 PM 13.45 56.21 0.182 7.08 1.75 11.26
10/17/2022 1:15:00 PM 13.52 56.336 0.182 7.11 1.44 11.12
10/17/2022 1:30:00 PM 13.61 56.498 0.182 7.12 1.98 10.97
10/17/2022 1:45:00 PM 13.75 56.75 0.182 7.14 1.52 10.88
10/17/2022 2:00:00 PM 13.87 56.966 0.181 7.16 1.46 10.93
10/17/2022 2:15:00 PM 14 57.2 0.181 7.19 1.57 11.04
10/17/2022 2:30:00 PM 14.06 57.308 0.181 7.22 2.73 11.1
10/17/2022 2:45:00 PM 14.08 57.344 0.181 7.25 1.73 11.02
10/17/2022 3:00:00 PM 14.08 57.344 0.182 7.27 1.75 10.85
10/17/2022 3:15:00 PM 14.09 57.362 0.182 7.28 2.58 10.76
10/17/2022 3:30:00 PM 14.1 57.38 0.182 7.29 1.5 10.7
10/17/2022 3:45:00 PM 14.11 57.398 0.182 7.3 2 10.71
10/17/2022 4:00:00 PM 14.13 57.434 0.182 7.3 1.04 10.66
10/17/2022 4:15:00 PM 14.15 57.47 0.181 7.32 2.57 10.66
10/17/2022 4:30:00 PM 14.16 57.488 0.181 7.32 2.03 10.7
10/17/2022 4:45:00 PM 14.15 57.47 0.181 7.32 1.46 10.64
10/17/2022 5:00:00 PM 14.13 57.434 0.181 7.34 2.08 10.53
10/17/2022 5:15:00 PM 14.1 57.38 0.182 7.34 1.53 10.29
10/17/2022 5:30:00 PM 14.08 57.344 0.182 7.34 0.41 10.18
10/17/2022 5:45:00 PM 14.05 57.29 0.182 7.33 1.8 10.07
10/17/2022 6:00:00 PM 14 57.2 0.182 7.33 1.74 10.03
10/17/2022 6:15:00 PM 13.95 57.11 0.182 7.31 4.03 10.01
10/17/2022 6:30:00 PM 13.89 57.002 0.182 7.3 1.44 9.91
10/17/2022 6:45:00 PM 13.83 56.894 0.182 7.29 2.01 9.79
10/17/2022 7:00:00 PM 13.77 56.786 0.183 7.27 1.99 9.68
10/17/2022 7:15:00 PM 13.71 56.678 0.183 7.17 2 9.58
10/17/2022 7:30:00 PM 13.65 56.57 0.183 7.19 2.81 9.48
10/17/2022 7:45:00 PM 13.59 56.462 0.183 7.17 1.7 9.44
10/17/2022 8:00:00 PM 13.53 56.354 0.183 7.14 2.13 9.37
10/17/2022 8:15:00 PM 13.47 56.246 0.183 7.12 2.18 9.31
10/17/2022 8:30:00 PM 13.41 56.138 0.183 7.1 1.71 9.27
10/17/2022 8:45:00 PM 13.36 56.048 0.184 7.08 1.88 9.23
10/17/2022 9:00:00 PM 13.29 55.922 0.184 7.05 1.53 9.19
10/17/2022 9:15:00 PM 13.24 55.832 0.184 7.03 3.68 9.17
10/17/2022 9:30:00 PM 13.18 55.724 0.184 7.01 1.95 9.14
10/17/2022 9:45:00 PM 13.12 55.616 0.184 6.99 2.06 9.11
10/17/2022 10:00:00 PM 13.07 55.526 0.184 6.97 2.17 9.09
10/17/2022 10:15:00 PM 13.01 55.418 0.184 6.95 1.75 9.09
10/17/2022 10:30:00 PM 12.97 55.346 0.184 6.94 2.59 9.07
10/17/2022 10:45:00 PM 12.91 55.238 0.184 6.92 1.22 9.05
10/17/2022 11:00:00 PM 12.86 55.148 0.184 6.91 1.95 9.07
10/17/2022 11:15:00 PM 12.78 55.004 0.184 6.9 2.34 9.06
10/17/2022 11:30:00 PM 12.73 54.914 0.184 6.88 2.35 9.08
10/17/2022 11:45:00 PM 12.65 54.77 0.184 6.87 2.94 9.07
10/18/2022 12:00:00 AM 12.58 54.644 0.184 6.86 2.34 9.08
10/18/2022 12:15:00 AM 12.5 54.5 0.184 6.85 2.19 9.07
10/18/2022 12:30:00 AM 12.44 54.392 0.184 6.84 3.77 9.08
10/18/2022 12:45:00 AM 12.36 54.248 0.184 6.82 6.62 9.09
10/18/2022 1:00:00 AM 12.32 54.176 0.184 6.81 2.02 9.11
10/18/2022 1:15:00 AM 12.26 54.068 0.184 6.8 3.21 9.13
10/18/2022 1:30:00 AM 12.21 53.978 0.184 6.8 0.3 9.13
10/18/2022 1:45:00 AM 12.16 53.888 0.184 6.78 2.11 9.18
10/18/2022 2:00:00 AM 12.13 53.834 0.184 6.78 1.85 9.17
10/18/2022 2:15:00 AM 12.07 53.726 0.184 6.77 0.22 9.18
10/18/2022 2:30:00 AM 12.01 53.618 0.183 6.76 1.62 9.2
10/18/2022 2:45:00 AM 11.98 53.564 0.184 6.75 0.35 9.22
10/18/2022 3:00:00 AM 11.93 53.474 0.184 6.74 0.62 9.22
10/18/2022 3:15:00 AM 11.88 53.384 0.184 6.73 0.63 9.24
10/18/2022 3:30:00 AM 11.84 53.312 0.184 6.74 0.78 9.25
10/18/2022 3:45:00 AM 11.78 53.204 0.184 6.73 0.52 9.27
10/18/2022 4:00:00 AM 11.73 53.114 0.184 6.73 0.41 9.27
10/18/2022 4:15:00 AM 11.67 53.006 0.184 6.72 1.17 9.27
10/18/2022 4:30:00 AM 11.61 52.898 0.184 6.72 0.31 9.28
10/18/2022 4:45:00 AM 11.53 52.754 0.184 6.71 0.67 9.3
10/18/2022 5:00:00 AM 11.45 52.61 0.184 6.71 1.51 9.32
10/18/2022 5:15:00 AM 11.38 52.484 0.184 6.7 13.03 9.33
10/18/2022 5:30:00 AM 11.3 52.34 0.184 6.7 1.55 9.38
10/18/2022 5:45:00 AM 11.22 52.196 0.184 6.69 0.72 9.4
10/18/2022 6:00:00 AM 11.15 52.07 0.184 6.69 1.33 9.41
10/18/2022 6:15:00 AM 11.06 51.908 0.184 6.68 0.77 9.44
10/18/2022 6:30:00 AM 10.99 51.782 0.184 6.68 2.5 9.48
10/18/2022 6:45:00 AM 10.9 51.62 0.184 6.67 0.9 9.49
10/18/2022 7:00:00 AM 10.82 51.476 0.184 6.67 0.53 9.51
10/18/2022 7:15:00 AM 10.73 51.314 0.185 6.66 1.75 9.55
10/18/2022 7:30:00 AM 10.64 51.152 0.184 6.65 1.13 9.58
10/18/2022 7:45:00 AM 10.56 51.008 0.185 6.65 0.93 9.61
10/18/2022 8:00:00 AM 10.48 50.864 0.184 6.63 0.6 9.63
10/18/2022 8:15:00 AM 10.4 50.72 0.184 6.63 2.72 9.72
10/18/2022 8:30:00 AM 10.35 50.63 0.184 6.63 0.17 9.78
10/18/2022 8:45:00 AM 10.27 50.486 0.184 6.62 1.18 9.83
10/18/2022 9:00:00 AM 10.21 50.378 0.184 6.62 1.02 9.93
10/18/2022 9:15:00 AM 10.17 50.306 0.184 6.62 0.4 10
10/18/2022 9:30:00 AM 10.13 50.234 0.184 6.61 0.09 10.08
10/18/2022 9:45:00 AM 10.09 50.162 0.184 6.62 0.21 10.18
10/18/2022 10:00:00 AM 10.07 50.126 0.184 6.63 0.13 10.28
10/18/2022 10:15:00 AM 10.06 50.108 0.184 6.63 0.16 10.38
10/18/2022 10:30:00 AM 10.06 50.108 0.184 6.64 0.14 10.47
10/18/2022 10:45:00 AM 10.08 50.144 0.184 6.65 0.28 10.56
10/18/2022 11:00:00 AM 10.12 50.216 0.183 6.66 0.55 10.67
10/18/2022 11:15:00 AM 10.18 50.324 0.183 6.68 0.13 10.82
10/18/2022 11:30:00 AM 10.27 50.486 0.183 6.68 0.15 10.93
10/18/2022 11:45:00 AM 10.37 50.666 0.183 6.72 0.11 11.01
10/18/2022 12:00:00 PM 10.5 50.9 0.182 6.73 2 11.12
10/18/2022 12:15:00 PM 10.64 51.152 0.182 6.75 0.14 11.2
10/18/2022 12:30:00 PM 10.8 51.44 0.182 6.78 -0.04 11.33
10/18/2022 12:45:00 PM 10.99 51.782 0.182 6.83 -0.05 11.41
10/18/2022 1:00:00 PM 11.16 52.088 0.182 6.86 0.05 11.49
10/18/2022 1:15:00 PM 11.35 52.43 0.182 6.9 0.36 11.54
10/18/2022 1:30:00 PM 11.53 52.754 0.182 6.93 0.87 11.55
10/18/2022 1:45:00 PM 11.74 53.132 0.181 6.97 0.15 11.52
10/18/2022 2:00:00 PM 12.03 53.654 0.181 7 0.34 11.53
10/18/2022 2:15:00 PM 12.03 53.654 0.181 7.05 2.52 11.6
10/18/2022 2:30:00 PM 12.09 53.762 0.181 7.08 0.31 11.58
10/18/2022 2:45:00 PM 12.14 53.852 0.181 7.11 1.26 11.55
10/18/2022 3:00:00 PM 12.17 53.906 0.181 7.14 0.65 11.52
10/18/2022 3:15:00 PM 12.31 54.158 0.181 7.16 1.75 11.49
10/18/2022 3:30:00 PM 12.31 54.158 0.181 7.19 0.03 11.5
10/18/2022 3:45:00 PM 12.3 54.14 0.181 7.21 1.27 11.48
10/18/2022 4:00:00 PM 12.23 54.014 0.181 7.23 0.66 11.46
10/18/2022 4:15:00 PM 12.2 53.96 0.181 7.23 0.04 11.39
10/18/2022 4:30:00 PM 12.14 53.852 0.181 7.25 1.49 11.37
10/18/2022 4:45:00 PM 12.07 53.726 0.181 7.25 0.07 11.36
10/18/2022 5:00:00 PM 11.98 53.564 0.181 7.25 0.06 11.3
10/18/2022 5:15:00 PM 11.9 53.42 0.182 7.25 0.38 11.25
10/18/2022 5:30:00 PM 11.81 53.258 0.182 7.25 2.04 11.17
10/18/2022 5:45:00 PM 11.73 53.114 0.182 7.25 1.53 11.1
10/18/2022 6:00:00 PM 11.64 52.952 0.182 7.24 0.19 11.02
10/18/2022 6:15:00 PM 11.56 52.808 0.182 7.23 0.55 10.9
10/18/2022 6:30:00 PM 11.48 52.664 0.183 7.2 0.32 10.78
10/18/2022 6:45:00 PM 11.41 52.538 0.183 7.2 0.16 10.62
10/18/2022 7:00:00 PM 11.33 52.394 0.183 7.18 -0.1 10.51
10/18/2022 7:15:00 PM 11.26 52.268 0.183 7.16 0.63 10.4
10/18/2022 7:30:00 PM 11.17 52.106 0.184 7.15 0.63 10.3
10/18/2022 7:45:00 PM 11.09 51.962 0.184 7.12 0.3 10.25
10/18/2022 8:00:00 PM 11.01 51.818 0.184 7.1 0.6 10.19
10/18/2022 8:15:00 PM 10.93 51.674 0.184 7.07 6.66 10.12
10/18/2022 8:30:00 PM 10.85 51.53 0.184 7.05 1.06 10.09
10/18/2022 8:45:00 PM 10.78 51.404 0.184 7.02 1.54 10.05
10/18/2022 9:00:00 PM 10.69 51.242 0.185 7 0.86 10.01
10/18/2022 9:15:00 PM 10.63 51.134 0.185 6.96 0.09 10
10/18/2022 9:30:00 PM 10.56 51.008 0.185 6.94 0.17 9.97
10/18/2022 9:45:00 PM 10.49 50.882 0.185 6.92 0.17 9.94
10/18/2022 10:00:00 PM 10.42 50.756 0.185 6.89 0.48 9.93
10/18/2022 10:15:00 PM 10.35 50.63 0.185 6.88 0.23 9.94
10/18/2022 10:30:00 PM 10.27 50.486 0.185 6.86 0.19 9.93
10/18/2022 10:45:00 PM 10.19 50.342 0.185 6.83 0.48 9.92
10/18/2022 11:00:00 PM 10.12 50.216 0.185 6.82 4.18 9.91
10/18/2022 11:15:00 PM 10.04 50.072 0.185 6.81 0.1 9.93
10/18/2022 11:30:00 PM 9.97 49.946 0.185 6.79 0.19 9.92
10/18/2022 11:45:00 PM 9.9 49.82 0.185 6.76 2.55 9.93
10/19/2022 12:00:00 AM 9.82 49.676 0.185 6.76 0.49 9.95
10/19/2022 12:15:00 AM 9.75 49.55 0.185 6.74 0.1 9.93
10/19/2022 12:30:00 AM 9.68 49.424 0.185 6.73 6.61 9.97
10/19/2022 12:45:00 AM 9.6 49.28 0.184 6.72 0.52 9.99
10/19/2022 1:00:00 AM 9.53 49.154 0.185 6.72 -0.36 10.01
10/19/2022 1:15:00 AM 9.46 49.028 0.185 6.71 -0.24 10.04
10/19/2022 1:30:00 AM 9.4 48.92 0.185 6.69 -0.21 10.06
10/19/2022 1:45:00 AM 9.32 48.776 0.184 6.68 -0.25 10.08
10/19/2022 2:00:00 AM 9.25 48.65 0.184 6.67 -0.29 10.09
10/19/2022 2:15:00 AM 9.2 48.56 0.184 6.65 0.01 10.1
10/19/2022 2:30:00 AM 9.11 48.398 0.184 6.64 0.55 10.13
10/19/2022 2:45:00 AM 9.05 48.29 0.184 6.64 0.42 10.14
10/19/2022 3:00:00 AM 8.99 48.182 0.184 6.63 0.12 10.15
10/19/2022 3:15:00 AM 8.93 48.074 0.184 6.63 -0.26 10.2
10/19/2022 3:30:00 AM 8.85 47.93 0.184 6.6 0 10.22
10/19/2022 3:45:00 AM 8.79 47.822 0.184 6.61 -0.16 10.24
10/19/2022 4:00:00 AM 8.73 47.714 0.184 6.6 1.11 10.24
10/19/2022 4:15:00 AM 8.68 47.624 0.184 6.59 2.49 10.26
10/19/2022 4:30:00 AM 8.63 47.534 0.184 6.59 2.28 10.26
10/19/2022 4:45:00 AM 8.58 47.444 0.184 6.58 0.18 10.3
10/19/2022 5:00:00 AM 8.54 47.372 0.184 6.57 0.09 10.31
10/19/2022 5:15:00 AM 8.53 47.354 0.184 6.57 -0.42 10.31
10/19/2022 5:30:00 AM 8.49 47.282 0.184 6.56 0.55 10.35
10/19/2022 5:45:00 AM 8.45 47.21 0.184 6.55 0.24 10.38
10/19/2022 6:00:00 AM 8.42 47.156 0.184 6.52 0.1 10.39
10/19/2022 6:15:00 AM 8.4 47.12 0.184 6.51 0.25 10.41
10/19/2022 6:30:00 AM 8.38 47.084 0.184 6.52 0.69 10.41
10/19/2022 6:45:00 AM 8.35 47.03 0.184 6.52 -0.37 10.43
10/19/2022 7:00:00 AM 8.32 46.976 0.184 6.52 -0.11 10.44
10/19/2022 7:15:00 AM 8.3 46.94 0.184 6.51 -0.2 10.46
10/19/2022 7:30:00 AM 8.29 46.922 0.184 6.51 0.75 10.42
10/19/2022 7:45:00 AM 8.26 46.868 0.184 6.5 0.04 10.47
10/19/2022 8:00:00 AM 8.24 46.832 0.184 6.49 -0.38 10.5
10/19/2022 8:15:00 AM 8.23 46.814 0.184 6.49 -0.33 10.53
10/19/2022 8:30:00 AM 8.23 46.814 0.184 6.49 -0.32 10.6
10/19/2022 8:45:00 AM 8.24 46.832 0.184 6.48 -0.11 10.72
10/19/2022 9:00:00 AM 8.24 46.832 0.184 6.48 0.21 10.85
10/19/2022 9:15:00 AM 8.27 46.886 0.184 6.48 -0.3 10.97
10/19/2022 9:30:00 AM 8.31 46.958 0.184 6.49 -0.11 11.09
10/19/2022 9:45:00 AM 8.35 47.03 0.183 6.5 -0.39 11.23
10/19/2022 10:00:00 AM 8.36 47.048 0.183 6.51 0.12 11.38
10/19/2022 10:15:00 AM 8.38 47.084 0.183 6.53 4.2 11.46
10/19/2022 10:30:00 AM 8.4 47.12 0.183 6.53 -0.31 11.44
10/19/2022 10:45:00 AM 8.47 47.246 0.183 6.54 -0.13 11.46
10/19/2022 11:00:00 AM 8.56 47.408 0.183 6.54 -0.3 11.56
10/19/2022 11:15:00 AM 8.68 47.624 0.182 6.57 0.56 11.65
10/19/2022 11:30:00 AM 8.75 47.75 0.182 6.58 -0.04 11.77
10/19/2022 11:45:00 AM 8.79 47.822 0.182 6.61 -0.19 11.88
10/19/2022 12:00:00 PM 8.9 48.02 0.182 6.62 -0.23 11.92
10/19/2022 12:15:00 PM 9.05 48.29 0.181 6.65 -0.14 11.98
10/19/2022 12:30:00 PM 9.19 48.542 0.181 6.67 0.01 12.06
10/19/2022 12:45:00 PM 9.32 48.776 0.181 6.7 3.92 12.14
10/19/2022 1:00:00 PM 9.43 48.974 0.181 6.75 -0.07 12.14
10/19/2022 1:15:00 PM 9.63 49.334 0.181 6.77 -0.2 12.16
10/19/2022 1:30:00 PM 9.83 49.694 0.18 6.79 -0.04 12.18
10/19/2022 1:45:00 PM 10.02 50.036 0.181 6.83 -0.13 12.21
10/19/2022 2:00:00 PM 10.13 50.234 0.18 6.87 0.21 12.23
10/19/2022 2:15:00 PM 10.27 50.486 0.18 6.91 -0.1 12.23
10/19/2022 2:30:00 PM 10.27 50.486 0.181 6.95 -0.04 12.2
10/19/2022 2:45:00 PM 10.27 50.486 0.181 6.98 -0.34 12.17
10/19/2022 3:00:00 PM 10.25 50.45 0.181 7.01 1.57 12.14
10/19/2022 3:15:00 PM 10.24 50.432 0.181 7.02 0.2 12.04
10/19/2022 3:30:00 PM 10.26 50.468 0.181 7.03 -0.1 11.97
10/19/2022 3:45:00 PM 10.27 50.486 0.181 7.03 -0.02 11.91
10/19/2022 4:00:00 PM 10.28 50.504 0.181 7.05 0.32 11.84
10/19/2022 4:15:00 PM 10.3 50.54 0.181 7.05 -0.08 11.83
10/19/2022 4:30:00 PM 10.3 50.54 0.181 7.06 -0.18 11.83
10/19/2022 4:45:00 PM 10.29 50.522 0.181 7.08 -0.23 11.8
10/19/2022 5:00:00 PM 10.27 50.486 0.181 7.08 0.3 11.75
10/19/2022 5:15:00 PM 10.24 50.432 0.181 7.08 0.48 11.71
10/19/2022 5:30:00 PM 10.19 50.342 0.181 7.09 0.17 11.65
10/19/2022 5:45:00 PM 10.13 50.234 0.181 7.09 0.01 11.55
10/19/2022 6:00:00 PM 10.06 50.108 0.182 7.08 0.03 11.45
10/19/2022 6:15:00 PM 10 50 0.182 7.08 -0.25 11.32
10/19/2022 6:30:00 PM 9.94 49.892 0.182 7.06 0.02 11.19
10/19/2022 6:45:00 PM 9.87 49.766 0.182 7.05 -0.08 11.07
10/19/2022 7:00:00 PM 9.81 49.658 0.182 7.03 0.19 10.94
10/19/2022 7:15:00 PM 9.75 49.55 0.182 7 0.22 10.85
10/19/2022 7:30:00 PM 9.69 49.442 0.182 6.98 0.87 10.76
10/19/2022 7:45:00 PM 9.62 49.316 0.183 6.96 -0.2 10.7
10/19/2022 8:00:00 PM 9.56 49.208 0.183 6.94 0.19 10.64
10/19/2022 8:15:00 PM 9.48 49.064 0.183 6.93 0.33 10.59
10/19/2022 8:30:00 PM 9.43 48.974 0.183 6.91 0.32 10.54
10/19/2022 8:45:00 PM 9.35 48.83 0.183 6.88 -0.23 10.51
10/19/2022 9:00:00 PM 9.29 48.722 0.183 6.86 -0.08 10.48
10/19/2022 9:15:00 PM 9.22 48.596 0.183 6.83 0.34 10.45
10/19/2022 9:30:00 PM 9.16 48.488 0.184 6.81 0.21 10.41
10/19/2022 9:45:00 PM 9.1 48.38 0.184 6.78 -0.06 10.4
10/19/2022 10:00:00 PM 9.04 48.272 0.184 6.75 0.33 10.39
10/19/2022 10:15:00 PM 8.99 48.182 0.184 6.74 0.07 10.36
10/19/2022 10:30:00 PM 8.94 48.092 0.184 6.72 0 10.35
10/19/2022 10:45:00 PM 8.9 48.02 0.184 6.7 -0.07 10.36
10/19/2022 11:00:00 PM 8.84 47.912 0.184 6.69 0.87 10.36
10/19/2022 11:15:00 PM 8.8 47.84 0.184 6.67 0.61 10.36
10/19/2022 11:30:00 PM 8.76 47.768 0.184 6.65 1 10.37
10/19/2022 11:45:00 PM 8.7 47.66 0.184 6.64 -0.64 10.37
10/20/2022 12:00:00 AM 8.66 47.588 0.184 6.62 1.02 10.38
10/20/2022 12:15:00 AM 8.61 47.498 0.184 6.6 0.23 10.38
10/20/2022 12:30:00 AM 8.56 47.408 0.184 6.59 0 10.4
10/20/2022 12:45:00 AM 8.52 47.336 0.185 6.57 -0.24 10.4
10/20/2022 1:00:00 AM 8.47 47.246 0.184 6.57 -0.52 10.42
10/20/2022 1:15:00 AM 8.43 47.174 0.185 6.57 0.3 10.42
10/20/2022 1:30:00 AM 8.37 47.066 0.185 6.56 0.91 10.44
10/20/2022 1:45:00 AM 8.3 46.94 0.184 6.54 0.06 10.45
10/20/2022 2:00:00 AM 8.27 46.886 0.184 6.54 -0.5 10.43
10/20/2022 2:15:00 AM 8.21 46.778 0.184 6.53 -0.26 10.46
10/20/2022 2:30:00 AM 8.16 46.688 0.184 6.53 -0.32 10.5
10/20/2022 2:45:00 AM 8.13 46.634 0.184 6.52 -0.16 10.49
10/20/2022 3:00:00 AM 8.09 46.562 0.184 6.52 0.33 10.5
10/20/2022 3:15:00 AM 8.04 46.472 0.184 6.5 -0.05 10.52
10/20/2022 3:30:00 AM 7.99 46.382 0.184 6.51 -0.25 10.53
10/20/2022 3:45:00 AM 7.94 46.292 0.184 6.5 2.92 10.53
10/20/2022 4:00:00 AM 7.9 46.22 0.184 6.5 0.86 10.54
10/20/2022 4:15:00 AM 7.86 46.148 0.184 6.47 0.4 10.56
10/20/2022 4:30:00 AM 7.81 46.058 0.184 6.5 -0.12 10.57
10/20/2022 4:45:00 AM 7.75 45.95 0.184 6.48 -0.16 10.61
10/20/2022 5:00:00 AM 7.71 45.878 0.184 6.47 0.06 10.59
10/20/2022 5:15:00 AM 7.68 45.824 0.184 6.45 -0.01 10.64
10/20/2022 5:30:00 AM 7.62 45.716 0.184 6.43 -0.22 10.62
10/20/2022 5:45:00 AM 7.58 45.644 0.184 6.42 0.25 10.65
10/20/2022 6:00:00 AM 7.53 45.554 0.184 6.41 -0.15 10.67
10/20/2022 6:15:00 AM 7.48 45.464 0.184 6.4 6.3 10.67
10/20/2022 6:30:00 AM 7.43 45.374 0.184 6.41 2.09 10.69
10/20/2022 6:45:00 AM 7.38 45.284 0.184 6.4 0.14 10.68
10/20/2022 7:00:00 AM 7.33 45.194 0.184 6.4 0.47 10.73
10/20/2022 7:15:00 AM 7.29 45.122 0.184 6.39 -0.35 10.78
10/20/2022 7:30:00 AM 7.23 45.014 0.184 6.37 0.63 10.8
10/20/2022 7:45:00 AM 7.19 44.942 0.184 6.37 0.15 10.82
10/20/2022 8:00:00 AM 7.15 44.87 0.184 6.35 -0.36 10.82
10/20/2022 8:15:00 AM 7.12 44.816 0.184 6.35 -0.5 10.91
10/20/2022 8:30:00 AM 7.06 44.708 0.184 6.34 -0.24 10.94
10/20/2022 8:45:00 AM 7.03 44.654 0.184 6.34 -0.02 11.01
10/20/2022 9:00:00 AM 7.01 44.618 0.184 6.32 -0.33 11.1
10/20/2022 9:15:00 AM 6.99 44.582 0.184 6.33 -0.34 11.18
10/20/2022 9:30:00 AM 6.99 44.582 0.184 6.33 -0.59 11.26
10/20/2022 9:45:00 AM 7 44.6 0.184 6.31 -0.64 11.32
10/20/2022 10:00:00 AM 7.04 44.672 0.184 6.3 -0.7 11.38
10/20/2022 10:15:00 AM 7.08 44.744 0.184 6.3 -0.44 11.48
10/20/2022 10:30:00 AM 7.13 44.834 0.185 6.38 -0.37 11.56
10/20/2022 10:45:00 AM 7.2 44.96 0.185 6.38 -0.1 11.78
10/20/2022 11:00:00 AM 7.29 45.122 0.185 6.37 -0.57 11.86
10/20/2022 11:15:00 AM 7.42 45.356 0.184 6.38 -1.2 11.95
10/20/2022 11:30:00 AM 7.56 45.608 0.184 6.42 -1.65 12.04
10/20/2022 11:45:00 AM 7.73 45.914 0.184 6.46 -1.12 12.13
10/20/2022 12:00:00 PM 7.9 46.22 0.184 6.49 -1.1 12.18
10/20/2022 12:15:00 PM 8.08 46.544 0.184 6.54 -0.23 12.25
10/20/2022 12:30:00 PM 8.31 46.958 0.184 6.59 -0.92 12.29
10/20/2022 12:45:00 PM 8.53 47.354 0.183 6.66 -0.87 12.33
10/20/2022 1:00:00 PM 8.75 47.75 0.183 6.71 -0.38 12.35
10/20/2022 1:15:00 PM 9.01 48.218 0.183 6.77 -0.8 12.36
10/20/2022 1:30:00 PM 9.32 48.776 0.183 6.84 0.42 12.36
10/20/2022 1:45:00 PM 9.65 49.37 0.183 6.91 -0.87 12.37
10/20/2022 2:00:00 PM 9.94 49.892 0.183 6.97 -0.42 12.35
10/20/2022 2:15:00 PM 10.12 50.216 0.183 7.04 -0.72 12.34
10/20/2022 2:30:00 PM 10.25 50.45 0.183 7.13 0.47 12.3
10/20/2022 2:45:00 PM 10.32 50.576 0.183 7.18 -0.57 12.27
10/20/2022 3:00:00 PM 10.44 50.792 0.183 7.19 -0.44 12.2
10/20/2022 3:15:00 PM 10.53 50.954 0.183 7.25 -0.53 12.16
10/20/2022 3:30:00 PM 10.6 51.08 0.183 7.28 -0.46 12.11
10/20/2022 3:45:00 PM 10.65 51.17 0.183 7.31 -0.33 12.03
10/20/2022 4:00:00 PM 10.72 51.296 0.183 7.32 -0.51 12.02
10/20/2022 4:15:00 PM 10.66 51.188 0.183 7.36 -0.28 11.96
10/20/2022 4:30:00 PM 10.58 51.044 0.183 7.35 -0.22 11.88
10/20/2022 4:45:00 PM 10.51 50.918 0.183 7.33 -0.58 11.78
10/20/2022 5:00:00 PM 10.41 50.738 0.183 7.31 -0.77 11.7
10/20/2022 5:15:00 PM 10.33 50.594 0.183 7.29 -0.1 11.6
10/20/2022 5:30:00 PM 10.25 50.45 0.183 7.27 -0.33 11.51
10/20/2022 5:45:00 PM 10.16 50.288 0.183 7.22 -0.8 11.41
10/20/2022 6:00:00 PM 10.05 50.09 0.184 7.17 -0.53 11.34
10/20/2022 6:15:00 PM 9.96 49.928 0.184 7.13 -0.06 11.24
10/20/2022 6:30:00 PM 9.83 49.694 0.184 7.09 -0.05 11.15
10/20/2022 6:45:00 PM 9.73 49.514 0.184 7.06 0.16 11.07
10/20/2022 7:00:00 PM 9.62 49.316 0.184 7 0.35 10.97
10/20/2022 7:15:00 PM 9.51 49.118 0.184 6.94 -0.3 10.91
10/20/2022 7:30:00 PM 9.44 48.992 0.184 6.89 -0.69 10.83
10/20/2022 7:45:00 PM 9.3 48.74 0.184 6.86 0.12 10.8
10/20/2022 8:00:00 PM 9.19 48.542 0.184 6.82 -0.44 10.75
10/20/2022 8:15:00 PM 9.09 48.362 0.185 6.78 -0.19 10.73
10/20/2022 8:30:00 PM 9 48.2 0.185 6.75 -0.86 10.7
10/20/2022 8:45:00 PM 8.93 48.074 0.185 6.72 -0.84 10.64
10/20/2022 9:00:00 PM 8.86 47.948 0.185 6.69 -0.65 10.65
10/20/2022 9:15:00 PM 8.79 47.822 0.185 6.66 -0.77 10.63
10/20/2022 9:30:00 PM 8.71 47.678 0.185 6.64 -0.38 10.62
10/20/2022 9:45:00 PM 8.65 47.57 0.185 6.62 -0.53 10.61
10/20/2022 10:00:00 PM 8.59 47.462 0.185 6.6 -0.83 10.6
10/20/2022 10:15:00 PM 8.53 47.354 0.185 6.58 5.24 10.6
10/20/2022 10:30:00 PM 8.47 47.246 0.185 6.57 0.59 10.58
10/20/2022 10:45:00 PM 8.41 47.138 0.185 6.56 -0.25 10.58
10/20/2022 11:00:00 PM 8.35 47.03 0.185 6.55 -0.75 10.59
10/20/2022 11:15:00 PM 8.29 46.922 0.185 6.54 -0.96 10.59
10/20/2022 11:30:00 PM 8.25 46.85 0.185 6.52 -0.27 10.61
10/20/2022 11:45:00 PM 8.21 46.778 0.185 6.52 -0.84 10.61
10/21/2022 12:00:00 AM 8.18 46.724 0.185 6.5 4.62 10.59
10/21/2022 12:15:00 AM 8.16 46.688 0.185 6.49 -0.8 10.61
10/21/2022 12:30:00 AM 8.13 46.634 0.185 6.48 -0.49 10.63
10/21/2022 12:45:00 AM 8.11 46.598 0.185 6.48 -0.49 10.63
10/21/2022 1:00:00 AM 8.08 46.544 0.185 6.47 -0.36 10.64
10/21/2022 1:15:00 AM 8.06 46.508 0.185 6.46 -0.33 10.66
10/21/2022 1:30:00 AM 8.03 46.454 0.185 6.45 -0.48 10.66
10/21/2022 1:45:00 AM 7.99 46.382 0.185 6.44 0.79 10.7
10/21/2022 2:00:00 AM 7.94 46.292 0.185 6.43 0.28 10.69
10/21/2022 2:15:00 AM 7.9 46.22 0.185 6.44 -0.4 10.72
10/21/2022 2:30:00 AM 7.86 46.148 0.185 6.43 -0.86 10.71
10/21/2022 2:45:00 AM 7.81 46.058 0.185 6.42 0.63 10.73
10/21/2022 3:00:00 AM 7.78 46.004 0.185 6.41 -0.7 10.73
10/21/2022 3:15:00 AM 7.74 45.932 0.185 6.41 -0.61 10.74
10/21/2022 3:30:00 AM 7.7 45.86 0.185 6.4 0.51 10.77
10/21/2022 3:45:00 AM 7.67 45.806 0.185 6.38 -0.84 10.76
10/21/2022 4:00:00 AM 7.63 45.734 0.185 6.38 -0.45 10.79
10/21/2022 4:15:00 AM 7.58 45.644 0.185 6.39 0.64 10.8
10/21/2022 4:30:00 AM 7.54 45.572 0.185 6.38 -0.57 10.81
10/21/2022 4:45:00 AM 7.5 45.5 0.185 6.37 0.17 10.81
10/21/2022 5:00:00 AM 7.47 45.446 0.185 6.36 -0.95 10.82
10/21/2022 5:15:00 AM 7.43 45.374 0.185 6.36 -0.42 10.84
10/21/2022 5:30:00 AM 7.4 45.32 0.185 6.37 3.72 10.85
10/21/2022 5:45:00 AM 7.34 45.212 0.185 6.36 -0.96 10.85
10/21/2022 6:00:00 AM 7.31 45.158 0.185 6.35 -0.63 10.88
10/21/2022 6:15:00 AM 7.27 45.086 0.185 6.34 -0.91 10.88
10/21/2022 6:30:00 AM 7.23 45.014 0.185 6.34 -0.44 10.9
10/21/2022 6:45:00 AM 7.2 44.96 0.185 6.34 -1.09 10.92
10/21/2022 7:00:00 AM 7.15 44.87 0.185 6.32 -0.93 10.94
10/21/2022 7:15:00 AM 7.11 44.798 0.185 6.31 -0.88 10.94
10/21/2022 7:30:00 AM 7.07 44.726 0.185 6.32 -0.59 10.97
10/21/2022 7:45:00 AM 7.03 44.654 0.185 6.31 -0.75 11
10/21/2022 8:00:00 AM 6.99 44.582 0.185 6.3 0.21 11.05
10/21/2022 8:15:00 AM 6.96 44.528 0.185 6.3 -0.95 11.09
10/21/2022 8:30:00 AM 6.92 44.456 0.185 6.3 -0.98 11.18
10/21/2022 8:45:00 AM 6.89 44.402 0.185 6.3 -0.93 11.26
10/21/2022 9:00:00 AM 6.87 44.366 0.185 6.3 -0.83 11.31
10/21/2022 9:15:00 AM 6.86 44.348 0.185 6.3 -0.52 11.38
10/21/2022 9:30:00 AM 6.85 44.33 0.185 6.3 -0.82 11.47
10/21/2022 9:45:00 AM 6.86 44.348 0.185 6.3 -0.86 11.55
10/21/2022 10:00:00 AM 6.88 44.384 0.185 6.3 -0.94 11.62
10/21/2022 10:15:00 AM 6.92 44.456 0.185 6.31 -0.41 11.72
10/21/2022 10:30:00 AM 6.98 44.564 0.185 6.32 -0.5 11.8
10/21/2022 10:45:00 AM 7.06 44.708 0.184 6.32 -0.57 11.87
10/21/2022 11:00:00 AM 7.17 44.906 0.184 6.34 -0.88 11.97
10/21/2022 11:15:00 AM 7.3 45.14 0.184 6.37 -1.07 12.07
10/21/2022 11:30:00 AM 7.44 45.392 0.184 6.41 -1.05 12.15
10/21/2022 11:45:00 AM 7.65 45.77 0.184 6.44 -0.92 12.22
10/21/2022 12:00:00 PM 7.85 46.13 0.184 6.49 -1.1 12.26
10/21/2022 12:15:00 PM 8.06 46.508 0.183 6.54 -0.79 12.33
10/21/2022 12:30:00 PM 8.29 46.922 0.183 6.59 -0.46 12.39
10/21/2022 12:45:00 PM 8.52 47.336 0.183 6.63 -0.71 12.44
10/21/2022 1:00:00 PM 8.8 47.84 0.183 6.65 -0.46 12.43
10/21/2022 1:15:00 PM 9.08 48.344 0.183 6.72 -0.46 12.43
10/21/2022 1:30:00 PM 9.4 48.92 0.183 6.79 -0.7 12.44
10/21/2022 1:45:00 PM 9.76 49.568 0.182 6.84 -0.77 12.43
10/21/2022 2:00:00 PM 10.07 50.126 0.182 6.9 -0.58 12.43
10/21/2022 2:15:00 PM 10.27 50.486 0.182 6.98 -0.66 12.39
10/21/2022 2:30:00 PM 10.36 50.648 0.182 7.07 -0.62 12.38
10/21/2022 2:45:00 PM 10.46 50.828 0.182 7.14 -0.55 12.32
10/21/2022 3:00:00 PM 10.6 51.08 0.182 7.16 -0.1 12.29
10/21/2022 3:15:00 PM 10.7 51.26 0.182 7.2 -0.37 12.22
10/21/2022 3:30:00 PM 10.78 51.404 0.182 7.24 -0.83 12.15
10/21/2022 3:45:00 PM 10.87 51.566 0.182 7.27 -0.01 12.1
10/21/2022 4:00:00 PM 10.96 51.728 0.182 7.29 -0.57 12.06
10/21/2022 4:15:00 PM 10.92 51.656 0.182 7.33 -0.48 12
10/21/2022 4:30:00 PM 10.85 51.53 0.183 7.33 -0.51 11.91
10/21/2022 4:45:00 PM 10.79 51.422 0.183 7.33 -0.47 11.82
10/21/2022 5:00:00 PM 10.71 51.278 0.183 7.3 -0.49 11.73
10/21/2022 5:15:00 PM 10.63 51.134 0.183 7.27 -0.57 11.63
10/21/2022 5:30:00 PM 10.55 50.99 0.183 7.24 -0.02 11.54
10/21/2022 5:45:00 PM 10.48 50.864 0.183 7.21 -0.39 11.44
10/21/2022 6:00:00 PM 10.38 50.684 0.183 7.17 -0.66 11.35
10/21/2022 6:15:00 PM 10.28 50.504 0.183 7.13 -0.63 11.27
10/21/2022 6:30:00 PM 10.17 50.306 0.183 7.08 -0.53 11.16
10/21/2022 6:45:00 PM 10.06 50.108 0.184 7.03 -0.72 11.08
10/21/2022 7:00:00 PM 9.96 49.928 0.184 6.99 -0.41 10.99
10/21/2022 7:15:00 PM 9.86 49.748 0.184 6.93 -0.5 10.9
10/21/2022 7:30:00 PM 9.76 49.568 0.184 6.89 -0.4 10.83
10/21/2022 7:45:00 PM 9.66 49.388 0.184 6.85 0.16 10.79
10/21/2022 8:00:00 PM 9.56 49.208 0.184 6.82 -0.34 10.73
10/21/2022 8:15:00 PM 9.47 49.046 0.184 6.78 -0.24 10.71
10/21/2022 8:30:00 PM 9.39 48.902 0.184 6.76 -0.67 10.68
10/21/2022 8:45:00 PM 9.31 48.758 0.184 6.72 -0.13 10.66
10/21/2022 9:00:00 PM 9.23 48.614 0.184 6.69 -0.55 10.63
10/21/2022 9:15:00 PM 9.16 48.488 0.184 6.67 -0.57 10.61
10/21/2022 9:30:00 PM 9.09 48.362 0.184 6.64 -0.41 10.58
10/21/2022 9:45:00 PM 9.03 48.254 0.184 6.62 -0.81 10.58
10/21/2022 10:00:00 PM 8.97 48.146 0.184 6.6 -0.68 10.59
10/21/2022 10:15:00 PM 8.92 48.056 0.184 6.59 -0.41 10.56
10/21/2022 10:30:00 PM 8.86 47.948 0.184 6.58 -0.97 10.56
10/21/2022 10:45:00 PM 8.8 47.84 0.184 6.57 -0.09 10.54
10/21/2022 11:00:00 PM 8.74 47.732 0.184 6.56 0.44 10.57
10/21/2022 11:15:00 PM 8.69 47.642 0.185 6.55 -0.35 10.57
10/21/2022 11:30:00 PM 8.63 47.534 0.184 6.53 -0.75 10.55
10/21/2022 11:45:00 PM 8.59 47.462 0.184 6.52 -0.91 10.58
10/22/2022 12:00:00 AM 8.53 47.354 0.185 6.51 -0.71 10.6
10/22/2022 12:15:00 AM 8.48 47.264 0.185 6.5 0.95 10.6
10/22/2022 12:30:00 AM 8.43 47.174 0.185 6.48 -0.74 10.6
10/22/2022 12:45:00 AM 8.37 47.066 0.185 6.49 -0.22 10.62
10/22/2022 1:00:00 AM 8.32 46.976 0.185 6.46 -1.02 10.63
10/22/2022 1:15:00 AM 8.27 46.886 0.185 6.46 0.73 10.64
10/22/2022 1:30:00 AM 8.21 46.778 0.185 6.46 -0.82 10.67
10/22/2022 1:45:00 AM 8.15 46.67 0.185 6.45 -0.95 10.68
10/22/2022 2:00:00 AM 8.11 46.598 0.185 6.44 -0.56 10.69
10/22/2022 2:15:00 AM 8.06 46.508 0.185 6.43 -0.79 10.7
10/22/2022 2:30:00 AM 8.02 46.436 0.185 6.42 -1.25 10.72
10/22/2022 2:45:00 AM 7.97 46.346 0.185 6.41 -0.7 10.72
10/22/2022 3:00:00 AM 7.92 46.256 0.185 6.4 -0.18 10.74
10/22/2022 3:15:00 AM 7.88 46.184 0.184 6.4 -0.3 10.76
10/22/2022 3:30:00 AM 7.83 46.094 0.184 6.38 -0.49 10.77
10/22/2022 3:45:00 AM 7.79 46.022 0.184 6.37 0.61 10.79
10/22/2022 4:00:00 AM 7.75 45.95 0.184 6.35 -0.67 10.8
10/22/2022 4:15:00 AM 7.72 45.896 0.184 6.32 -0.05 10.82
10/22/2022 4:30:00 AM 7.68 45.824 0.184 6.32 -0.79 10.82
10/22/2022 4:45:00 AM 7.64 45.752 0.184 6.31 -0.47 10.82
10/22/2022 5:00:00 AM 7.6 45.68 0.184 6.29 -0.51 10.85
10/22/2022 5:15:00 AM 7.57 45.626 0.184 6.28 -0.88 10.88
10/22/2022 5:30:00 AM 7.53 45.554 0.184 6.26 -0.13 10.85
10/22/2022 5:45:00 AM 7.49 45.482 0.184 6.27 -0.97 10.89
10/22/2022 6:00:00 AM 7.46 45.428 0.184 6.26 -1.05 10.88
10/22/2022 6:15:00 AM 7.42 45.356 0.184 6.25 -0.7 10.92
10/22/2022 6:30:00 AM 7.39 45.302 0.184 6.25 1.54 10.94
10/22/2022 6:45:00 AM 7.35 45.23 0.184 6.24 0.12 10.94
10/22/2022 7:00:00 AM 7.31 45.158 0.184 6.23 0.07 10.96
10/22/2022 7:15:00 AM 7.28 45.104 0.184 6.23 -0.94 10.97
10/22/2022 7:30:00 AM 7.24 45.032 0.184 6.22 2.73 10.97
10/22/2022 7:45:00 AM 7.21 44.978 0.184 6.22 -1.01 11.01
10/22/2022 8:00:00 AM 7.18 44.924 0.184 6.22 -0.23 11.04
10/22/2022 8:15:00 AM 7.15 44.87 0.184 6.21 -0.93 11.09
10/22/2022 8:30:00 AM 7.13 44.834 0.184 6.2 -0.53 11.14
10/22/2022 8:45:00 AM 7.1 44.78 0.184 6.19 -0.43 11.2
10/22/2022 9:00:00 AM 7.08 44.744 0.184 6.17 -1.01 11.3
10/22/2022 9:15:00 AM 7.08 44.744 0.184 6.16 -0.97 11.38
10/22/2022 9:30:00 AM 7.08 44.744 0.184 6.17 -1.16 11.46
10/22/2022 9:45:00 AM 7.09 44.762 0.184 6.16 -1.15 11.54
10/22/2022 10:00:00 AM 7.13 44.834 0.184 6.16 -0.76 11.62
10/22/2022 10:15:00 AM 7.18 44.924 0.184 6.18 -0.89 11.69
10/22/2022 10:30:00 AM 7.24 45.032 0.184 6.17 -1.02 11.78
10/22/2022 10:45:00 AM 7.32 45.176 0.184 6.19 -0.43 11.87
10/22/2022 11:00:00 AM 7.43 45.374 0.184 6.2 -1.01 11.95
10/22/2022 11:15:00 AM 7.56 45.608 0.184 6.22 -0.96 12.04
10/22/2022 11:30:00 AM 7.73 45.914 0.184 6.24 -1.25 12.12
10/22/2022 11:45:00 AM 7.93 46.274 0.184 6.28 -0.85 12.2
10/22/2022 12:00:00 PM 8.14 46.652 0.183 6.31 -1.15 12.24
10/22/2022 12:15:00 PM 8.39 47.102 0.183 6.36 -1.04 12.3
10/22/2022 12:30:00 PM 8.64 47.552 0.183 6.41 -0.66 12.35
10/22/2022 12:45:00 PM 8.89 48.002 0.183 6.47 -0.86 12.37
10/22/2022 1:00:00 PM 9.16 48.488 0.183 6.55 -1.14 12.38
10/22/2022 1:15:00 PM 9.46 49.028 0.182 6.6 -0.94 12.39
10/22/2022 1:30:00 PM 9.8 49.64 0.182 6.69 -1.14 12.39
10/22/2022 1:45:00 PM 10.16 50.288 0.182 6.75 -0.93 12.38
10/22/2022 2:00:00 PM 10.49 50.882 0.182 6.83 -0.72 12.38
10/22/2022 2:15:00 PM 10.71 51.278 0.181 6.91 -0.78 12.35
10/22/2022 2:30:00 PM 10.84 51.512 0.181 7 -0.61 12.33
10/22/2022 2:45:00 PM 10.93 51.674 0.181 7.08 0.55 12.3
10/22/2022 3:00:00 PM 11.09 51.962 0.181 7.11 -0.52 12.24
10/22/2022 3:15:00 PM 11.2 52.16 0.181 7.15 -0.38 12.18
10/22/2022 3:30:00 PM 11.29 52.322 0.181 7.18 -0.83 12.11
10/22/2022 3:45:00 PM 11.38 52.484 0.182 7.24 -0.37 12.05
10/22/2022 4:00:00 PM 11.48 52.664 0.182 7.23 2.02 12
10/22/2022 4:15:00 PM 11.45 52.61 0.182 7.31 -0.13 11.92
10/22/2022 4:30:00 PM 11.4 52.52 0.182 7.33 -0.58 11.79
10/22/2022 4:45:00 PM 11.34 52.412 0.182 7.31 -0.35 11.71
10/22/2022 5:00:00 PM 11.28 52.304 0.182 7.3 -0.43 11.59
10/22/2022 5:15:00 PM 11.22 52.196 0.182 7.27 -0.7 11.53
10/22/2022 5:30:00 PM 11.16 52.088 0.182 7.23 -0.72 11.47
10/22/2022 5:45:00 PM 11.1 51.98 0.182 7.2 -0.19 11.44
10/22/2022 6:00:00 PM 11.03 51.854 0.183 7.18 -0.33 11.36
10/22/2022 6:15:00 PM 10.94 51.692 0.183 7.15 1.04 11.27
10/22/2022 6:30:00 PM 10.85 51.53 0.183 7.11 -0.15 11.15
10/22/2022 6:45:00 PM 10.75 51.35 0.183 7.07 -0.54 11.04
10/22/2022 7:00:00 PM 10.65 51.17 0.183 7.02 -0.02 10.91
10/22/2022 7:15:00 PM 10.55 50.99 0.183 6.97 -0.35 10.82
10/22/2022 7:30:00 PM 10.46 50.828 0.183 6.92 -0.4 10.73
10/22/2022 7:45:00 PM 10.36 50.648 0.184 6.88 -0.56 10.67
10/22/2022 8:00:00 PM 10.25 50.45 0.184 6.83 -0.68 10.64
10/22/2022 8:15:00 PM 10.17 50.306 0.184 6.8 -0.48 10.59
10/22/2022 8:30:00 PM 10.09 50.162 0.184 6.75 -0.33 10.56
10/22/2022 8:45:00 PM 10.01 50.018 0.184 6.73 -0.42 10.54
10/22/2022 9:00:00 PM 9.95 49.91 0.184 6.69 -0.44 10.51
10/22/2022 9:15:00 PM 9.88 49.784 0.184 6.67 -0.3 10.47
10/22/2022 9:30:00 PM 9.82 49.676 0.184 6.65 -0.14 10.45
10/22/2022 9:45:00 PM 9.76 49.568 0.184 6.62 -0.49 10.44
10/22/2022 10:00:00 PM 9.71 49.478 0.184 6.61 -0.24 10.43
10/22/2022 10:15:00 PM 9.66 49.388 0.184 6.59 -0.58 10.4
10/22/2022 10:30:00 PM 9.61 49.298 0.184 6.59 -0.76 10.41
10/22/2022 10:45:00 PM 9.56 49.208 0.184 6.56 -0.67 10.39
10/22/2022 11:00:00 PM 9.52 49.136 0.184 6.55 -0.48 10.39
10/22/2022 11:15:00 PM 9.47 49.046 0.184 6.53 -0.74 10.39
10/22/2022 11:30:00 PM 9.42 48.956 0.184 6.53 -0.61 10.39
10/22/2022 11:45:00 PM 9.38 48.884 0.184 6.53 -0.48 10.38
10/23/2022 12:00:00 AM 9.33 48.794 0.184 6.51 -0.34 10.38
10/23/2022 12:15:00 AM 9.29 48.722 0.184 6.5 -0.42 10.4
10/23/2022 12:30:00 AM 9.24 48.632 0.184 6.49 -0.97 10.4
10/23/2022 12:45:00 AM 9.2 48.56 0.184 6.48 -0.73 10.4
10/23/2022 1:00:00 AM 9.15 48.47 0.184 6.48 -0.62 10.42
10/23/2022 1:15:00 AM 9.1 48.38 0.184 6.47 -0.74 10.41
10/23/2022 1:30:00 AM 9.05 48.29 0.184 6.47 -0.64 10.43
10/23/2022 1:45:00 AM 9 48.2 0.184 6.47 -0.82 10.44
10/23/2022 2:00:00 AM 8.95 48.11 0.184 6.46 -0.44 10.44
10/23/2022 2:15:00 AM 8.9 48.02 0.184 6.45 8.16 10.46
10/23/2022 2:30:00 AM 8.85 47.93 0.184 6.44 -0.82 10.49
10/23/2022 2:45:00 AM 8.81 47.858 0.184 6.44 -0.24 10.49
10/23/2022 3:00:00 AM 8.76 47.768 0.184 6.44 -0.86 10.5
10/23/2022 3:15:00 AM 8.71 47.678 0.184 6.43 -0.58 10.53
10/23/2022 3:30:00 AM 8.67 47.606 0.184 6.43 -0.12 10.52
10/23/2022 3:45:00 AM 8.63 47.534 0.184 6.44 -0.45 10.55
10/23/2022 4:00:00 AM 8.59 47.462 0.184 6.43 -0.76 10.55
10/23/2022 4:15:00 AM 8.56 47.408 0.184 6.42 -0.54 10.58
10/23/2022 4:30:00 AM 8.52 47.336 0.184 6.43 -0.01 10.58
10/23/2022 4:45:00 AM 8.49 47.282 0.184 6.42 -0.09 10.58
10/23/2022 5:00:00 AM 8.46 47.228 0.184 6.41 -0.43 10.6
10/23/2022 5:15:00 AM 8.44 47.192 0.184 6.41 -0.59 10.6
10/23/2022 5:30:00 AM 8.41 47.138 0.184 6.4 -0.32 10.61
10/23/2022 5:45:00 AM 8.38 47.084 0.184 6.4 -0.4 10.62
10/23/2022 6:00:00 AM 8.37 47.066 0.184 6.39 -0.5 10.63
10/23/2022 6:15:00 AM 8.35 47.03 0.184 6.39 -0.48 10.63
10/23/2022 6:30:00 AM 8.33 46.994 0.184 6.39 -0.62 10.65
10/23/2022 6:45:00 AM 8.31 46.958 0.184 6.38 0.16 10.66
10/23/2022 7:00:00 AM 8.31 46.958 0.184 6.37 -0.49 10.66
10/23/2022 7:15:00 AM 8.3 46.94 0.184 6.37 2.91 10.67
10/23/2022 7:30:00 AM 8.3 46.94 0.184 6.36 -0.37 10.68
10/23/2022 7:45:00 AM 8.32 46.976 0.184 6.36 1.47 10.68
10/23/2022 8:00:00 AM 8.33 46.994 0.184 6.35 -0.84 10.7
10/23/2022 8:15:00 AM 8.34 47.012 0.184 6.35 -0.51 10.73
10/23/2022 8:30:00 AM 8.37 47.066 0.184 6.34 -0.16 10.8
10/23/2022 8:45:00 AM 8.41 47.138 0.184 6.35 -1 10.89
10/23/2022 9:00:00 AM 8.45 47.21 0.184 6.36 -0.63 11
10/23/2022 9:15:00 AM 8.5 47.3 0.184 6.36 -0.53 11.13
10/23/2022 9:30:00 AM 8.57 47.426 0.184 6.38 -0.64 11.24
10/23/2022 9:45:00 AM 8.66 47.588 0.184 6.43 -0.34 11.36
10/23/2022 10:00:00 AM 8.75 47.75 0.184 6.44 -1.04 11.51
10/23/2022 10:15:00 AM 8.85 47.93 0.183 6.48 -0.86 11.64
10/23/2022 10:30:00 AM 8.97 48.146 0.183 6.51 -0.68 11.77
10/23/2022 10:45:00 AM 9.11 48.398 0.183 6.52 -0.5 11.87
10/23/2022 11:00:00 AM 9.24 48.632 0.183 6.54 -0.85 11.96
10/23/2022 11:15:00 AM 9.34 48.812 0.183 6.61 -0.92 12.07
10/23/2022 11:30:00 AM 9.46 49.028 0.183 6.65 -0.75 12.11
10/23/2022 11:45:00 AM 9.56 49.208 0.183 6.67 -0.85 12.15
10/23/2022 12:00:00 PM 9.68 49.424 0.182 6.71 -0.2 12.19
10/23/2022 12:15:00 PM 9.79 49.622 0.182 6.75 -0.83 12.24
10/23/2022 12:30:00 PM 9.91 49.838 0.182 6.8 -0.73 12.27
10/23/2022 12:45:00 PM 10.01 50.018 0.182 6.87 -0.67 12.3
10/23/2022 1:00:00 PM 10.1 50.18 0.182 6.9 -0.46 12.34
10/23/2022 1:15:00 PM 10.18 50.324 0.182 6.95 -0.33 12.33
10/23/2022 1:30:00 PM 10.25 50.45 0.182 6.98 -0.35 12.31
10/23/2022 1:45:00 PM 10.32 50.576 0.182 7.02 -0.81 12.28
10/23/2022 2:00:00 PM 10.4 50.72 0.182 7.04 1.3 12.23
10/23/2022 2:15:00 PM 10.5 50.9 0.182 7.07 -0.44 12.2
10/23/2022 2:30:00 PM 10.59 51.062 0.182 7.12 0.1 12.18
10/23/2022 2:45:00 PM 10.69 51.242 0.182 7.15 -0.59 12.21
10/23/2022 3:00:00 PM 10.78 51.404 0.182 7.19 0.04 12.22
10/23/2022 3:15:00 PM 10.87 51.566 0.182 7.23 -0.32 12.21
10/23/2022 3:30:00 PM 10.94 51.692 0.181 7.27 -0.58 12.18
10/23/2022 3:45:00 PM 11.01 51.818 0.181 7.31 -0.72 12.16
10/23/2022 4:00:00 PM 11.07 51.926 0.181 7.34 0.19 12.13
10/23/2022 4:15:00 PM 11.11 51.998 0.181 7.37 -0.42 12.07
10/23/2022 4:30:00 PM 11.14 52.052 0.181 7.4 -0.22 12
10/23/2022 4:45:00 PM 11.14 52.052 0.182 7.41 1.7 11.88
10/23/2022 5:00:00 PM 11.15 52.07 0.182 7.41 -0.47 11.73
10/23/2022 5:15:00 PM 11.15 52.07 0.182 7.39 -0.09 11.55
10/23/2022 5:30:00 PM 11.14 52.052 0.182 7.35 -0.62 11.37
10/23/2022 5:45:00 PM 11.13 52.034 0.182 7.31 0 11.24
10/23/2022 6:00:00 PM 11.12 52.016 0.182 7.27 0.14 11.08
10/23/2022 6:15:00 PM 11.1 51.98 0.182 7.23 -0.15 10.96
10/23/2022 6:30:00 PM 11.08 51.944 0.182 7.18 -0.27 10.84
10/23/2022 6:45:00 PM 11.07 51.926 0.182 7.12 1.09 10.76
10/23/2022 7:00:00 PM 11.05 51.89 0.182 7.07 -0.32 10.66
10/23/2022 7:15:00 PM 11.03 51.854 0.182 7.02 -0.34 10.57
10/23/2022 7:30:00 PM 11.02 51.836 0.182 6.97 -0.43 10.49
10/23/2022 7:45:00 PM 11 51.8 0.182 6.92 2.13 10.41
10/23/2022 8:00:00 PM 10.99 51.782 0.182 6.88 1.48 10.36
10/23/2022 8:15:00 PM 10.97 51.746 0.182 6.85 1.81 10.3
10/23/2022 8:30:00 PM 10.96 51.728 0.182 6.8 0.33 10.26
10/23/2022 8:45:00 PM 10.95 51.71 0.182 6.77 -0.21 10.2
10/23/2022 9:00:00 PM 10.94 51.692 0.182 6.74 0.36 10.16
10/23/2022 9:15:00 PM 10.93 51.674 0.182 6.71 0.39 10.12
10/23/2022 9:30:00 PM 10.92 51.656 0.181 6.69 -0.26 10.08
10/23/2022 9:45:00 PM 10.91 51.638 0.18 6.67 1.28 10.05
10/23/2022 10:00:00 PM 10.93 51.674 0.176 6.66 1.39 10.05
10/23/2022 10:15:00 PM 10.94 51.692 0.173 6.64 1.39 10.05
10/23/2022 10:30:00 PM 10.94 51.692 0.173 6.63 1.95 10.05
10/23/2022 10:45:00 PM 10.94 51.692 0.172 6.6 1 10.01
10/23/2022 11:00:00 PM 10.94 51.692 0.172 6.6 2.06 9.99
10/23/2022 11:15:00 PM 10.95 51.71 0.171 6.59 2.64 9.97
10/23/2022 11:30:00 PM 10.96 51.728 0.17 6.58 4.5 9.95
10/23/2022 11:45:00 PM 10.97 51.746 0.17 6.57 4.03 9.95
10/24/2022 12:00:00 AM 10.98 51.764 0.169 6.56 5.75 9.89
10/24/2022 12:15:00 AM 10.99 51.782 0.169 6.56 4.26 9.88
10/24/2022 12:30:00 AM 11.02 51.836 0.164 6.55 7.59 9.92
10/24/2022 12:45:00 AM 11.04 51.872 0.162 6.55 5.65 9.94
10/24/2022 1:00:00 AM 11.07 51.926 0.161 6.55 7.28 9.91
10/24/2022 1:15:00 AM 11.08 51.944 0.16 6.54 10.09 9.87
10/24/2022 1:30:00 AM 11.1 51.98 0.159 6.53 14.12 9.86
10/24/2022 1:45:00 AM 11.13 52.034 0.157 6.52 16.87 9.84
10/24/2022 2:00:00 AM 11.16 52.088 0.155 6.51 32.46 9.81
10/24/2022 2:15:00 AM 11.18 52.124 0.155 6.5 33.38 9.8
10/24/2022 2:30:00 AM 11.2 52.16 0.154 6.49 23.12 9.78
10/24/2022 2:45:00 AM 11.23 52.214 0.154 6.49 30.96 9.76
10/24/2022 3:00:00 AM 11.25 52.25 0.154 6.45 30.15 9.76
10/24/2022 3:15:00 AM 11.28 52.304 0.153 6.39 50.9 9.76
10/24/2022 3:30:00 AM 11.3 52.34 0.154 6.42 120.2 9.74
10/24/2022 3:45:00 AM 11.32 52.376 0.155 6.43 95.61 9.74
10/24/2022 4:00:00 AM 11.34 52.412 0.156 6.37 146.3 9.76
10/24/2022 4:15:00 AM 11.36 52.448 0.156 6.4 70.84 9.78
10/24/2022 4:30:00 AM 11.4 52.52 0.157 6.43 57.23 9.79
10/24/2022 4:45:00 AM 11.43 52.574 0.157 6.46 133.6 9.8
10/24/2022 5:00:00 AM 11.46 52.628 0.158 6.48 80.42 9.81
10/24/2022 5:15:00 AM 11.49 52.682 0.157 6.5 95.97 9.81
10/24/2022 5:30:00 AM 11.52 52.736 0.157 6.5 82.54 9.81
10/24/2022 5:45:00 AM 11.55 52.79 0.156 6.52 77.7 9.8
10/24/2022 6:00:00 AM 11.58 52.844 0.155 6.52 85.6 9.8
10/24/2022 6:15:00 AM 11.61 52.898 0.155 6.53 93.04 9.78
10/24/2022 6:30:00 AM 11.63 52.934 0.155 6.54 60.31 9.78
10/24/2022 6:45:00 AM 11.64 52.952 0.154 6.54 91.08 9.77
10/24/2022 7:00:00 AM 11.66 52.988 0.154 6.54 105.4 9.76
10/24/2022 7:15:00 AM 11.67 53.006 0.153 6.55 109.6 9.75
10/24/2022 7:30:00 AM 11.67 53.006 0.153 6.54 71.17 9.76
10/24/2022 7:45:00 AM 11.68 53.024 0.152 6.54 91.57 9.75
10/24/2022 8:00:00 AM 11.69 53.042 0.151 6.54 63.1 9.77
10/24/2022 8:15:00 AM 11.71 53.078 0.151 6.54 53.23 9.76
10/24/2022 8:30:00 AM 11.73 53.114 0.151 6.54 66.8 9.78
10/24/2022 8:45:00 AM 11.75 53.15 0.152 6.54 53.59 9.78
10/24/2022 9:00:00 AM 11.78 53.204 0.153 6.55 60.88 9.79
10/24/2022 9:15:00 AM 11.81 53.258 0.154 6.55 52.52 9.8
10/24/2022 9:30:00 AM 11.85 53.33 0.153 6.55 55.86 9.82
10/24/2022 9:45:00 AM 11.9 53.42 0.153 6.56 67.3 9.84
10/24/2022 10:00:00 AM 11.95 53.51 0.152 6.55 64.59 9.88
10/24/2022 10:15:00 AM 12.01 53.618 0.151 6.57 51.64 9.91
10/24/2022 10:30:00 AM 12.07 53.726 0.15 6.58 64.27 9.92
10/24/2022 10:45:00 AM 12.14 53.852 0.149 6.58 40.74 9.95
10/24/2022 11:00:00 AM 12.2 53.96 0.148 6.6 44.91 9.99
10/24/2022 11:15:00 AM 12.26 54.068 0.147 6.62 39.88 10
10/24/2022 11:30:00 AM 12.31 54.158 0.147 6.63 37.32 10.02
10/24/2022 11:45:00 AM 12.34 54.212 0.147 6.64 47.48 10.01
10/24/2022 12:00:00 PM 12.37 54.266 0.147 6.66 51.21 10
10/24/2022 12:15:00 PM 12.41 54.338 0.147 6.66 43.24 10
10/24/2022 12:30:00 PM 12.45 54.41 0.147 6.66 39.43 10.02
10/24/2022 12:45:00 PM 12.5 54.5 0.147 6.67 38.52 10.02
10/24/2022 1:00:00 PM 12.54 54.572 0.147 6.68 33.06 10.03
10/24/2022 1:15:00 PM 12.58 54.644 0.147 6.69 57.26 10.02
10/24/2022 1:30:00 PM 12.63 54.734 0.148 6.7 44.99 10.02
10/24/2022 1:45:00 PM 12.67 54.806 0.148 6.71 24.17 10.01
10/24/2022 2:00:00 PM 12.73 54.914 0.149 6.71 43.69 9.99
10/24/2022 2:15:00 PM 12.79 55.022 0.149 6.72 35.94 10.03
10/24/2022 2:30:00 PM 12.84 55.112 0.149 6.73 23.52 10.03
10/24/2022 2:45:00 PM 12.89 55.202 0.149 6.74 32.81 10.03
10/24/2022 3:00:00 PM 12.94 55.292 0.149 6.75 32.86 10.02
10/24/2022 3:15:00 PM 13 55.4 0.15 6.76 28.53 10.05
10/24/2022 3:30:00 PM 13.03 55.454 0.15 6.77 39.08 10.01
10/24/2022 3:45:00 PM 13.06 55.508 0.15 6.78 33.44 9.99
10/24/2022 4:00:00 PM 13.1 55.58 0.15 6.77 29.14 9.97
10/24/2022 4:15:00 PM 13.13 55.634 0.151 6.73 35.99 9.93
10/24/2022 4:30:00 PM 13.15 55.67 0.151 6.74 33.24 9.88
10/24/2022 4:45:00 PM 13.16 55.688 0.151 6.75 47.74 9.84
10/24/2022 5:00:00 PM 13.16 55.688 0.152 6.68 26.22 9.8
10/24/2022 5:15:00 PM 13.17 55.706 0.152 6.74 46.48 9.76
10/24/2022 5:30:00 PM 13.17 55.706 0.152 6.74 21.82 9.72
10/24/2022 5:45:00 PM 13.16 55.688 0.152 6.75 19.45 9.68
10/24/2022 6:00:00 PM 13.15 55.67 0.153 6.75 39.88 9.63
10/24/2022 6:15:00 PM 13.13 55.634 0.153 6.74 24 9.58
10/24/2022 6:30:00 PM 13.12 55.616 0.153 6.73 21.9 9.54
10/24/2022 6:45:00 PM 13.1 55.58 0.153 6.72 24.31 9.5
10/24/2022 7:00:00 PM 13.09 55.562 0.154 6.71 26.09 9.48
10/24/2022 7:15:00 PM 13.07 55.526 0.154 6.7 24.87 9.45
10/24/2022 7:30:00 PM 13.06 55.508 0.154 6.7 23.09 9.44
10/24/2022 7:45:00 PM 13.05 55.49 0.154 6.68 23.61 9.44
10/24/2022 8:00:00 PM 13.04 55.472 0.155 6.68 11.61 9.41
10/24/2022 8:15:00 PM 13.04 55.472 0.155 6.66 26.45 9.39
10/24/2022 8:30:00 PM 13.03 55.454 0.155 6.65 18.65 9.4
10/24/2022 8:45:00 PM 13.03 55.454 0.156 6.66 16.21 9.38
10/24/2022 9:00:00 PM 13.03 55.454 0.156 6.64 18.18 9.39
10/24/2022 9:15:00 PM 13.03 55.454 0.157 6.65 18.09 9.38
10/24/2022 9:30:00 PM 13.03 55.454 0.157 6.66 17.9 9.38
10/24/2022 9:45:00 PM 13.02 55.436 0.158 6.66 21.95 9.37
10/24/2022 10:00:00 PM 13.03 55.454 0.158 6.65 14.69 9.37
10/24/2022 10:15:00 PM 13.03 55.454 0.159 6.65 18.58 9.38
10/24/2022 10:30:00 PM 13.03 55.454 0.159 6.64 21.04 9.37
10/24/2022 10:45:00 PM 13.03 55.454 0.159 6.63 16.12 9.38
10/24/2022 11:00:00 PM 13.03 55.454 0.16 6.63 15.87 9.38
10/24/2022 11:15:00 PM 13.03 55.454 0.16 6.63 15.69 9.38
10/24/2022 11:30:00 PM 13.02 55.436 0.16 6.63 20.25 9.36
10/24/2022 11:45:00 PM 13.02 55.436 0.16 6.64 13.39 9.38
10/25/2022 12:00:00 AM 13.02 55.436 0.161 6.63 14.83 9.38
10/25/2022 12:15:00 AM 13.02 55.436 0.161 6.64 14.98 9.39
10/25/2022 12:30:00 AM 13.02 55.436 0.161 6.64 18.14 9.38
10/25/2022 12:45:00 AM 13.02 55.436 0.161 6.64 34.33 9.37
10/25/2022 1:00:00 AM 13.01 55.418 0.162 6.63 12.94 9.39
10/25/2022 1:15:00 AM 13.01 55.418 0.162 6.63 10.42 9.38
10/25/2022 1:30:00 AM 13 55.4 0.162 6.64 21.44 9.39
10/25/2022 1:45:00 AM 13 55.4 0.162 6.62 14.18 9.39
10/25/2022 2:00:00 AM 13 55.4 0.162 6.62 14.83 9.39
10/25/2022 2:15:00 AM 12.99 55.382 0.163 6.63 15.08 9.41
10/25/2022 2:30:00 AM 12.99 55.382 0.163 6.63 38.84 9.39
10/25/2022 2:45:00 AM 12.98 55.364 0.163 6.63 16.99 9.4
10/25/2022 3:00:00 AM 12.98 55.364 0.163 6.63 12.22 9.4
10/25/2022 3:15:00 AM 12.98 55.364 0.163 6.62 14.7 9.41
10/25/2022 3:30:00 AM 12.97 55.346 0.163 6.62 12.28 9.41
10/25/2022 3:45:00 AM 12.97 55.346 0.164 6.63 14.72 9.4
10/25/2022 4:00:00 AM 12.96 55.328 0.164 6.63 12.99 9.41
10/25/2022 4:15:00 AM 12.96 55.328 0.164 6.62 13.82 9.41
10/25/2022 4:30:00 AM 12.96 55.328 0.164 6.61 11.92 9.41
10/25/2022 4:45:00 AM 12.95 55.31 0.164 6.61 23.91 9.41
10/25/2022 5:00:00 AM 12.95 55.31 0.164 6.61 12.34 9.41
10/25/2022 5:15:00 AM 12.95 55.31 0.165 6.61 8.63 9.4
10/25/2022 5:30:00 AM 12.95 55.31 0.165 6.57 6.78 9.42
10/25/2022 5:45:00 AM 12.94 55.292 0.165 6.52 19.42 9.42
10/25/2022 6:00:00 AM 12.94 55.292 0.165 6.56 8.57 9.41
10/25/2022 6:15:00 AM 12.94 55.292 0.165 6.57 12.12 9.4
10/25/2022 6:30:00 AM 12.93 55.274 0.166 6.59 7.82 9.44
10/25/2022 6:45:00 AM 12.93 55.274 0.166 6.59 8.26 9.43
10/25/2022 7:00:00 AM 12.93 55.274 0.166 6.58 22.53 9.44
10/25/2022 7:15:00 AM 12.92 55.256 0.166 6.58 9.24 9.42
10/25/2022 7:30:00 AM 12.92 55.256 0.167 6.59 9.33 9.43
10/25/2022 7:45:00 AM 12.91 55.238 0.167 6.58 8.07 9.45
10/25/2022 8:00:00 AM 12.91 55.238 0.167 6.57 5.49 9.44
10/25/2022 8:15:00 AM 12.91 55.238 0.167 6.58 5.57 9.48
10/25/2022 8:30:00 AM 12.92 55.256 0.167 6.56 8.45 9.51
10/25/2022 8:45:00 AM 12.94 55.292 0.167 6.56 6.75 9.56
10/25/2022 9:00:00 AM 12.96 55.328 0.167 6.58 7.56 9.6
10/25/2022 9:15:00 AM 12.99 55.382 0.167 6.58 3.31 9.69
10/25/2022 9:30:00 AM 13.03 55.454 0.168 6.6 7.84 9.69
10/25/2022 9:45:00 AM 13.07 55.526 0.168 6.59 4.39 9.84
10/25/2022 10:00:00 AM 13.11 55.598 0.168 6.61 5.09 9.94
10/25/2022 10:15:00 AM 13.16 55.688 0.168 6.64 5.87 9.98
10/25/2022 10:30:00 AM 13.2 55.76 0.168 6.67 5.46 10.04
10/25/2022 10:45:00 AM 13.25 55.85 0.168 6.7 6.06 10.1
10/25/2022 11:00:00 AM 13.3 55.94 0.168 6.72 4.95 10.15
10/25/2022 11:15:00 AM 13.36 56.048 0.168 6.75 4.83 10.21
10/25/2022 11:30:00 AM 13.42 56.156 0.168 6.78 5.43 10.28
10/25/2022 11:45:00 AM 13.46 56.228 0.169 6.79 5.89 10.23
10/25/2022 12:00:00 PM 13.49 56.282 0.169 6.82 4.75 10.28
10/25/2022 12:15:00 PM 13.53 56.354 0.169 6.83 4.93 10.29
10/25/2022 12:30:00 PM 13.59 56.462 0.169 6.86 4.91 10.28
10/25/2022 12:45:00 PM 13.66 56.588 0.169 6.88 5.81 10.34
10/25/2022 1:00:00 PM 13.73 56.714 0.169 6.92 4.48 10.38
10/25/2022 1:15:00 PM 13.79 56.822 0.169 6.95 5.65 10.37
10/25/2022 1:30:00 PM 13.86 56.948 0.169 6.97 6.35 10.42
10/25/2022 1:45:00 PM 13.93 57.074 0.169 6.98 4.13 10.44
10/25/2022 2:00:00 PM 14 57.2 0.169 7 4.46 10.45
10/25/2022 2:15:00 PM 14.06 57.308 0.169 7.02 4.05 10.44
10/25/2022 2:30:00 PM 14.11 57.398 0.17 7.03 4.27 10.43
10/25/2022 2:45:00 PM 14.14 57.452 0.17 7.05 3.77 10.39
10/25/2022 3:00:00 PM 14.16 57.488 0.17 7.06 4.31 10.35
10/25/2022 3:15:00 PM 14.17 57.506 0.17 7.06 3.59 10.28
10/25/2022 3:30:00 PM 14.18 57.524 0.17 7.05 4.54 10.27
10/25/2022 3:45:00 PM 14.17 57.506 0.17 7.07 3.93 10.22
10/25/2022 4:00:00 PM 14.17 57.506 0.17 7.06 4.51 10.14
10/25/2022 4:15:00 PM 14.17 57.506 0.171 7.05 5.28 10.07
10/25/2022 4:30:00 PM 14.17 57.506 0.171 7.02 6.73 9.96
10/25/2022 4:45:00 PM 14.18 57.524 0.171 6.94 4.4 9.91
10/25/2022 5:00:00 PM 14.18 57.524 0.171 6.98 4.3 9.9
10/25/2022 5:15:00 PM 14.18 57.524 0.171 6.97 5.02 9.85
10/25/2022 5:30:00 PM 14.18 57.524 0.171 6.97 3.1 9.78
10/25/2022 5:45:00 PM 14.17 57.506 0.171 6.97 4.33 9.71
10/25/2022 6:00:00 PM 14.16 57.488 0.172 6.96 4.44 9.63
10/25/2022 6:15:00 PM 14.15 57.47 0.172 6.96 3.72 9.54
10/25/2022 6:30:00 PM 14.14 57.452 0.172 6.95 4.97 9.48
10/25/2022 6:45:00 PM 14.13 57.434 0.172 6.94 3.69 9.43
10/25/2022 7:00:00 PM 14.12 57.416 0.172 6.92 2.97 9.38
10/25/2022 7:15:00 PM 14.1 57.38 0.172 6.9 4.31 9.25
10/25/2022 7:30:00 PM 14.09 57.362 0.172 6.88 6.91 9.28
10/25/2022 7:45:00 PM 14.08 57.344 0.172 6.84 5.6 9.21
10/25/2022 8:00:00 PM 14.07 57.326 0.173 6.85 5.11 9.24
10/25/2022 8:15:00 PM 14.07 57.326 0.173 6.85 5.29 9.24
10/25/2022 8:30:00 PM 14.06 57.308 0.173 6.85 4.5 9.2
10/25/2022 8:45:00 PM 14.06 57.308 0.173 6.82 6.21 9.19
10/25/2022 9:00:00 PM 14.05 57.29 0.173 6.82 8.94 9.18
10/25/2022 9:15:00 PM 14.05 57.29 0.173 6.82 5.03 9.16
10/25/2022 9:30:00 PM 14.04 57.272 0.173 6.82 8.7 9.13
10/25/2022 9:45:00 PM 14.04 57.272 0.173 6.81 4.47 9.14
10/25/2022 10:00:00 PM 14.03 57.254 0.173 6.82 8.57 9.13
10/25/2022 10:15:00 PM 14.03 57.254 0.173 6.82 5.43 9.1
10/25/2022 10:30:00 PM 14.02 57.236 0.173 6.82 4.37 9.12
10/25/2022 10:45:00 PM 14.02 57.236 0.173 6.82 5.31 9.1
10/25/2022 11:00:00 PM 14.02 57.236 0.173 6.81 5.35 9.12
10/25/2022 11:15:00 PM 14.01 57.218 0.173 6.8 7.94 9.12
10/25/2022 11:30:00 PM 14.01 57.218 0.173 6.79 3.36 9.12
10/25/2022 11:45:00 PM 14.01 57.218 0.173 6.8 5.39 9.11
10/26/2022 12:00:00 AM 14 57.2 0.173 6.79 6.18 9.11
10/26/2022 12:15:00 AM 14 57.2 0.173 6.79 5.05 9.11
10/26/2022 12:30:00 AM 14 57.2 0.173 6.78 4.91 9.1
10/26/2022 12:45:00 AM 13.99 57.182 0.174 6.78 8.3 9.1
10/26/2022 1:00:00 AM 13.99 57.182 0.174 6.78 4.81 9.1
10/26/2022 1:15:00 AM 13.98 57.164 0.174 6.63 6.01 9.1
10/26/2022 1:30:00 AM 13.98 57.164 0.174 6.62 6.1 9.12
10/26/2022 1:45:00 AM 13.97 57.146 0.174 6.66 5.46 9.11
10/26/2022 2:00:00 AM 13.97 57.146 0.174 6.63 4.54 9.11
10/26/2022 2:15:00 AM 13.96 57.128 0.174 6.66 7.31 9.12
10/26/2022 2:30:00 AM 13.95 57.11 0.174 6.66 4.44 9.12
10/26/2022 2:45:00 AM 13.94 57.092 0.174 6.65 13.32 9.11
10/26/2022 3:00:00 AM 13.94 57.092 0.174 6.63 4.84 9.11
10/26/2022 3:15:00 AM 13.93 57.074 0.174 6.58 8.63 9.12
10/26/2022 3:30:00 AM 13.92 57.056 0.174 6.63 9.08 9.12
10/26/2022 3:45:00 AM 13.91 57.038 0.174 6.66 7.04 9.12
10/26/2022 4:00:00 AM 13.9 57.02 0.174 6.69 4.62 9.12
10/26/2022 4:15:00 AM 13.9 57.02 0.174 6.7 7.18 9.11
10/26/2022 4:30:00 AM 13.89 57.002 0.174 6.69 6.03 9.12
10/26/2022 4:45:00 AM 13.88 56.984 0.174 6.7 6.42 9.11
10/26/2022 5:00:00 AM 13.87 56.966 0.174 6.67 7.58 9.1
10/26/2022 5:15:00 AM 13.86 56.948 0.174 6.7 5.06 9.12
10/26/2022 5:30:00 AM 13.85 56.93 0.174 6.72 5.79 9.12
10/26/2022 5:45:00 AM 13.84 56.912 0.174 6.72 3.7 9.12
10/26/2022 6:00:00 AM 13.84 56.912 0.174 6.71 12.14 9.08
10/26/2022 6:15:00 AM 13.83 56.894 0.174 6.71 6.21 9.12
10/26/2022 6:30:00 AM 13.82 56.876 0.174 6.72 5.38 9.13
10/26/2022 6:45:00 AM 13.81 56.858 0.174 6.71 6.86 9.1
10/26/2022 7:00:00 AM 13.81 56.858 0.174 6.7 10.99 9.14
10/26/2022 7:15:00 AM 13.8 56.84 0.174 6.7 5.93 9.13
10/26/2022 7:30:00 AM 13.79 56.822 0.174 6.71 5.39 9.14
10/26/2022 7:45:00 AM 13.79 56.822 0.174 6.73 5.53 9.15
10/26/2022 8:00:00 AM 13.78 56.804 0.174 6.74 4.95 9.15
10/26/2022 8:15:00 AM 13.78 56.804 0.174 6.74 4.53 9.17
10/26/2022 8:30:00 AM 13.79 56.822 0.174 6.74 5.8 9.23
10/26/2022 8:45:00 AM 13.79 56.822 0.174 6.74 8.21 9.28
10/26/2022 9:00:00 AM 13.8 56.84 0.174 6.75 4.19 9.31
10/26/2022 9:15:00 AM 13.82 56.876 0.174 6.76 3.94 9.36
10/26/2022 9:30:00 AM 13.85 56.93 0.174 6.76 3.9 9.48
10/26/2022 9:45:00 AM 13.89 57.002 0.174 6.77 75.65 9.46
10/26/2022 10:00:00 AM 13.92 57.056 0.174 6.79 5.1 9.7
10/26/2022 10:15:00 AM 13.95 57.11 0.174 6.81 5.58 9.78
10/26/2022 10:30:00 AM 13.98 57.164 0.174 6.82 4.45 9.85
10/26/2022 10:45:00 AM 14.01 57.218 0.174 6.85 2.97 9.91
10/26/2022 11:00:00 AM 14.04 57.272 0.174 6.87 3.71 9.95
10/26/2022 11:15:00 AM 14.13 57.434 0.174 6.9 1.67 10.08
10/26/2022 11:30:00 AM 14.2 57.56 0.174 6.93 2.71 10.19
10/26/2022 11:45:00 AM 14.3 57.74 0.174 6.94 2.58 10.3
10/26/2022 12:00:00 PM 14.43 57.974 0.174 6.98 2.91 10.4
10/26/2022 12:15:00 PM 14.54 58.172 0.173 7.02 4.38 10.48
10/26/2022 12:30:00 PM 14.63 58.334 0.173 7.07 2.01 10.53
10/26/2022 12:45:00 PM 14.74 58.532 0.173 7.09 2.61 10.57
10/26/2022 1:00:00 PM 14.84 58.712 0.173 7.11 2.04 10.61
10/26/2022 1:15:00 PM 14.92 58.856 0.173 7.11 2.96 10.62
10/26/2022 1:30:00 PM 15.02 59.036 0.173 7.17 3.38 10.63
10/26/2022 1:45:00 PM 15.06 59.108 0.173 7.19 2.23 10.61
10/26/2022 2:00:00 PM 15.12 59.216 0.173 7.2 2.61 10.57
10/26/2022 2:15:00 PM 15.14 59.252 0.173 7.22 1.46 10.55
10/26/2022 2:30:00 PM 15.18 59.324 0.173 7.21 2.01 10.54
10/26/2022 2:45:00 PM 15.21 59.378 0.173 7.24 6.16 10.51
10/26/2022 3:00:00 PM 15.24 59.432 0.173 7.25 2.26 10.53
10/26/2022 3:15:00 PM 15.27 59.486 0.173 7.27 3.17 10.5
10/26/2022 3:30:00 PM 15.28 59.504 0.173 7.28 1.87 10.42
10/26/2022 3:45:00 PM 15.29 59.522 0.173 7.28 2.87 10.33
10/26/2022 4:00:00 PM 15.28 59.504 0.174 7.28 3.43 10.26
10/26/2022 4:15:00 PM 15.26 59.468 0.174 7.27 2.5 10.18
10/26/2022 4:30:00 PM 15.25 59.45 0.174 7.25 2.69 10.09
10/26/2022 4:45:00 PM 15.25 59.45 0.174 7.24 3.89 10.11
10/26/2022 5:00:00 PM 15.24 59.432 0.174 7.24 1.19 10.07
10/26/2022 5:15:00 PM 15.21 59.378 0.174 7.23 2.38 9.99
10/26/2022 5:30:00 PM 15.18 59.324 0.174 7.2 1.97 9.88
10/26/2022 5:45:00 PM 15.15 59.27 0.175 7.19 1.89 9.76
10/26/2022 6:00:00 PM 15.11 59.198 0.175 7.04 3.5 9.63
10/26/2022 6:15:00 PM 15.08 59.144 0.175 7.01 2.24 9.54
10/26/2022 6:30:00 PM 15.04 59.072 0.175 7.05 2.61 9.44
10/26/2022 6:45:00 PM 15 59 0.175 7.04 3.24 9.35
10/26/2022 7:00:00 PM 14.97 58.946 0.175 7.03 2.72 9.28
10/26/2022 7:15:00 PM 14.94 58.892 0.175 7 4.43 9.21
10/26/2022 7:30:00 PM 14.91 58.838 0.175 6.98 2.8 9.17
10/26/2022 7:45:00 PM 14.88 58.784 0.175 6.95 3.15 9.11
10/26/2022 8:00:00 PM 14.86 58.748 0.175 6.94 6.53 9.05
10/26/2022 8:15:00 PM 14.84 58.712 0.175 6.91 2.25 9.01
10/26/2022 8:30:00 PM 14.82 58.676 0.175 6.91 3.26 8.98
10/26/2022 8:45:00 PM 14.8 58.64 0.175 6.88 3.21 8.97
10/26/2022 9:00:00 PM 14.78 58.604 0.176 6.9 5.02 8.95
10/26/2022 9:15:00 PM 14.76 58.568 0.176 6.86 2.37 8.91
10/26/2022 9:30:00 PM 14.73 58.514 0.176 6.87 3.02 8.91
10/26/2022 9:45:00 PM 14.69 58.442 0.176 6.83 1.88 8.9
10/26/2022 10:00:00 PM 14.66 58.388 0.176 6.84 2.78 8.88
10/26/2022 10:15:00 PM 14.62 58.316 0.176 6.84 3.63 8.89
10/26/2022 10:30:00 PM 14.57 58.226 0.176 6.84 2.41 8.89
10/26/2022 10:45:00 PM 14.53 58.154 0.176 6.83 4.08 8.88
10/26/2022 11:00:00 PM 14.48 58.064 0.176 6.79 2.91 8.87
10/26/2022 11:15:00 PM 14.44 57.992 0.176 6.81 3.36 8.89
10/26/2022 11:30:00 PM 14.38 57.884 0.176 6.79 3.5 8.91
10/26/2022 11:45:00 PM 14.33 57.794 0.176 6.8 2.61 8.9
10/27/2022 12:00:00 AM 14.27 57.686 0.176 6.79 2.08 8.92
10/27/2022 12:15:00 AM 14.22 57.596 0.176 6.79 3.22 8.92
10/27/2022 12:30:00 AM 14.16 57.488 0.176 6.8 3.57 8.93
10/27/2022 12:45:00 AM 14.1 57.38 0.176 6.78 6.2 8.94
10/27/2022 1:00:00 AM 14.04 57.272 0.176 6.79 3.14 8.98
10/27/2022 1:15:00 AM 13.99 57.182 0.176 6.77 12.15 8.98
10/27/2022 1:30:00 AM 13.92 57.056 0.176 6.75 3.54 8.98
10/27/2022 1:45:00 AM 13.85 56.93 0.176 6.76 4.7 9.04
10/27/2022 2:00:00 AM 13.79 56.822 0.176 6.75 4.6 9.03
10/27/2022 2:15:00 AM 13.73 56.714 0.176 6.74 2.85 9.06
10/27/2022 2:30:00 AM 13.68 56.624 0.176 6.74 3.77 9.08
10/27/2022 2:45:00 AM 13.63 56.534 0.176 6.73 8.68 9.11
10/27/2022 3:00:00 AM 13.58 56.444 0.176 6.73 7.62 9.12
10/27/2022 3:15:00 AM 13.52 56.336 0.176 6.72 12.28 9.13
10/27/2022 3:30:00 AM 13.46 56.228 0.176 6.72 7.15 9.15
10/27/2022 3:45:00 AM 13.4 56.12 0.176 6.72 2.02 9.16
10/27/2022 4:00:00 AM 13.35 56.03 0.176 6.71 3.82 9.19
10/27/2022 4:15:00 AM 13.3 55.94 0.176 6.71 3.4 9.2
10/27/2022 4:30:00 AM 13.25 55.85 0.176 6.7 6.45 9.21
10/27/2022 4:45:00 AM 13.2 55.76 0.176 6.7 3.58 9.24
10/27/2022 5:00:00 AM 13.16 55.688 0.177 6.7 6.24 9.25
10/27/2022 5:15:00 AM 13.11 55.598 0.177 6.69 3.88 9.27
10/27/2022 5:30:00 AM 13.07 55.526 0.177 6.7 7.17 9.29
10/27/2022 5:45:00 AM 13.02 55.436 0.177 6.7 2.7 9.29
10/27/2022 6:00:00 AM 12.97 55.346 0.177 6.7 4.28 9.31
10/27/2022 6:15:00 AM 12.93 55.274 0.177 6.68 4.49 9.32
10/27/2022 6:30:00 AM 12.87 55.166 0.177 6.68 5.37 9.33
10/27/2022 6:45:00 AM 12.83 55.094 0.177 6.68 4.33 9.36
10/27/2022 7:00:00 AM 12.8 55.04 0.177 6.68 5.22 9.38
10/27/2022 7:15:00 AM 12.77 54.986 0.177 6.67 4.62 9.38
10/27/2022 7:30:00 AM 12.75 54.95 0.177 6.7 2.69 9.39
10/27/2022 7:45:00 AM 12.73 54.914 0.177 6.69 2.62 9.38
10/27/2022 8:00:00 AM 12.69 54.842 0.177 6.68 0.68 9.43
10/27/2022 8:15:00 AM 12.67 54.806 0.177 6.69 2.39 9.51
10/27/2022 8:30:00 AM 12.66 54.788 0.177 6.7 2.86 9.55
10/27/2022 8:45:00 AM 12.66 54.788 0.177 6.71 3.69 9.67
10/27/2022 9:00:00 AM 12.68 54.824 0.177 6.72 3.98 9.78
10/27/2022 9:15:00 AM 12.69 54.842 0.176 6.71 3.94 9.9
10/27/2022 9:30:00 AM 12.71 54.878 0.176 6.72 2.08 10.05
10/27/2022 9:45:00 AM 12.71 54.878 0.176 6.76 2.55 10.17
10/27/2022 10:00:00 AM 12.69 54.842 0.176 6.76 2.76 10.26
10/27/2022 10:15:00 AM 12.67 54.806 0.176 6.79 3.08 10.24
10/27/2022 10:30:00 AM 12.65 54.77 0.176 6.79 1.36 10.25
10/27/2022 10:45:00 AM 12.66 54.788 0.176 6.79 2.29 10.33
10/27/2022 11:00:00 AM 12.68 54.824 0.176 6.8 0.36 10.4
10/27/2022 11:15:00 AM 12.74 54.932 0.176 6.81 4.06 10.51
10/27/2022 11:30:00 AM 12.83 55.094 0.176 6.84 2.5 10.62
10/27/2022 11:45:00 AM 12.93 55.274 0.176 6.85 1.86 10.72
10/27/2022 12:00:00 PM 13.06 55.508 0.176 6.89 2.04 10.81
10/27/2022 12:15:00 PM 13.2 55.76 0.176 6.91 2.3 10.89
10/27/2022 12:30:00 PM 13.35 56.03 0.176 6.96 3.12 10.94
10/27/2022 12:45:00 PM 13.52 56.336 0.176 7 2.87 10.98
10/27/2022 1:00:00 PM 13.69 56.642 0.176 7.04 2.19 11
10/27/2022 1:15:00 PM 13.87 56.966 0.175 7.09 2.72 11.05
10/27/2022 1:30:00 PM 14.13 57.434 0.175 7.11 2.01 11.1
10/27/2022 1:45:00 PM 14.32 57.776 0.175 7.14 2.11 11.1
10/27/2022 2:00:00 PM 14.52 58.136 0.175 7.18 2.23 11.14
10/27/2022 2:15:00 PM 14.58 58.244 0.175 7.21 2.04 11.16
10/27/2022 2:30:00 PM 14.63 58.334 0.175 7.24 3.1 11.13
10/27/2022 2:45:00 PM 14.64 58.352 0.175 7.28 1.2 11.13
10/27/2022 3:00:00 PM 14.66 58.388 0.175 7.3 3.04 11.1
10/27/2022 3:15:00 PM 14.63 58.334 0.175 7.31 0.8 11.05
10/27/2022 3:30:00 PM 14.61 58.298 0.175 7.32 1.74 10.99
10/27/2022 3:45:00 PM 14.58 58.244 0.175 7.31 2.15 10.98
10/27/2022 4:00:00 PM 14.55 58.19 0.175 7.32 2.02 10.94
10/27/2022 4:15:00 PM 14.41 57.938 0.176 7.33 2.07 10.84
10/27/2022 4:30:00 PM 14.29 57.722 0.176 7.33 1.31 10.71
10/27/2022 4:45:00 PM 14.17 57.506 0.176 7.31 0.56 10.6
10/27/2022 5:00:00 PM 14.04 57.272 0.176 7.28 0.97 10.51
10/27/2022 5:15:00 PM 13.94 57.092 0.176 7.24 3.07 10.4
10/27/2022 5:30:00 PM 13.83 56.894 0.176 7.21 2 10.32
10/27/2022 5:45:00 PM 13.71 56.678 0.177 7.16 1.59 10.21
10/27/2022 6:00:00 PM 13.6 56.48 0.177 7.15 1.94 10.12
10/27/2022 6:15:00 PM 13.49 56.282 0.177 7.1 1.66 10.03
10/27/2022 6:30:00 PM 13.37 56.066 0.177 7.07 6.56 9.96
10/27/2022 6:45:00 PM 13.27 55.886 0.177 7.03 2.02 9.88
10/27/2022 7:00:00 PM 13.15 55.67 0.178 7 3.38 9.81
10/27/2022 7:15:00 PM 13.05 55.49 0.178 6.96 3.13 9.75
10/27/2022 7:30:00 PM 12.95 55.31 0.178 6.92 1.79 9.71
10/27/2022 7:45:00 PM 12.85 55.13 0.178 6.89 1.81 9.68
10/27/2022 8:00:00 PM 12.76 54.968 0.178 6.87 3.43 9.65
10/27/2022 8:15:00 PM 12.68 54.824 0.178 6.84 3.62 9.64
10/27/2022 8:30:00 PM 12.6 54.68 0.178 6.81 3.6 9.61
10/27/2022 8:45:00 PM 12.53 54.554 0.178 6.79 1.33 9.59
10/27/2022 9:00:00 PM 12.45 54.41 0.178 6.77 1.94 9.62
10/27/2022 9:15:00 PM 12.38 54.284 0.178 6.75 2.87 9.61
10/27/2022 9:30:00 PM 12.31 54.158 0.178 6.73 2.76 9.61
10/27/2022 9:45:00 PM 12.24 54.032 0.178 6.73 3.32 9.6
10/27/2022 10:00:00 PM 12.16 53.888 0.178 6.71 2.01 9.61
10/27/2022 10:15:00 PM 12.08 53.744 0.178 6.71 2.35 9.63
10/27/2022 10:30:00 PM 12 53.6 0.178 6.68 2.56 9.64
10/27/2022 10:45:00 PM 11.93 53.474 0.178 6.67 1.09 9.66
10/27/2022 11:00:00 PM 11.85 53.33 0.178 6.66 0.82 9.66
10/27/2022 11:15:00 PM 11.78 53.204 0.178 6.64 1.49 9.66
10/27/2022 11:30:00 PM 11.71 53.078 0.178 6.64 1.53 9.7
10/27/2022 11:45:00 PM 11.64 52.952 0.178 6.62 1.35 9.72
10/28/2022 12:00:00 AM 11.58 52.844 0.178 6.63 1.27 9.74
10/28/2022 12:15:00 AM 11.49 52.682 0.178 6.62 0.8 9.78
10/28/2022 12:30:00 AM 11.43 52.574 0.178 6.61 0.53 9.8
10/28/2022 12:45:00 AM 11.36 52.448 0.178 6.61 1.91 9.81
10/28/2022 1:00:00 AM 11.29 52.322 0.178 6.59 0.22 9.84
10/28/2022 1:15:00 AM 11.22 52.196 0.178 6.58 0.35 9.86
10/28/2022 1:30:00 AM 11.15 52.07 0.178 6.58 4.04 9.88
10/28/2022 1:45:00 AM 11.09 51.962 0.178 6.57 0.96 9.9
10/28/2022 2:00:00 AM 11.02 51.836 0.178 6.56 0.22 9.9
10/28/2022 2:15:00 AM 10.95 51.71 0.178 6.55 2.2 9.92
10/28/2022 2:30:00 AM 10.89 51.602 0.178 6.54 2.1 9.94
10/28/2022 2:45:00 AM 10.82 51.476 0.178 6.52 6.08 9.95
10/28/2022 3:00:00 AM 10.75 51.35 0.178 6.5 1.7 9.98
10/28/2022 3:15:00 AM 10.69 51.242 0.178 6.52 0.03 10.01
10/28/2022 3:30:00 AM 10.64 51.152 0.178 6.51 0.3 10.01
10/28/2022 3:45:00 AM 10.57 51.026 0.178 6.52 0.46 10.02
10/28/2022 4:00:00 AM 10.51 50.918 0.178 6.5 1.58 10.06
10/28/2022 4:15:00 AM 10.45 50.81 0.178 6.5 0.85 10.09
10/28/2022 4:30:00 AM 10.38 50.684 0.178 6.5 -0.02 10.12
10/28/2022 4:45:00 AM 10.31 50.558 0.178 6.49 0.53 10.11
10/28/2022 5:00:00 AM 10.26 50.468 0.178 6.5 0.85 10.14
10/28/2022 5:15:00 AM 10.19 50.342 0.178 6.49 0.36 10.16
10/28/2022 5:30:00 AM 10.13 50.234 0.178 6.45 2.51 10.18
10/28/2022 5:45:00 AM 10.06 50.108 0.178 6.47 1.51 10.2
10/28/2022 6:00:00 AM 10 50 0.178 6.48 3.27 10.22
10/28/2022 6:15:00 AM 9.94 49.892 0.178 6.47 1.55 10.26
10/28/2022 6:30:00 AM 9.88 49.784 0.178 6.45 4.49 10.28
10/28/2022 6:45:00 AM 9.81 49.658 0.178 6.45 0.77 10.29
10/28/2022 7:00:00 AM 9.74 49.532 0.178 6.44 1.8 10.31
10/28/2022 7:15:00 AM 9.68 49.424 0.178 6.42 0.56 10.33
10/28/2022 7:30:00 AM 9.61 49.298 0.178 6.42 0.02 10.35
10/28/2022 7:45:00 AM 9.56 49.208 0.178 6.41 0.58 10.38
10/28/2022 8:00:00 AM 9.49 49.082 0.178 6.42 -0.09 10.42
10/28/2022 8:15:00 AM 9.44 48.992 0.178 6.42 -0.16 10.51
10/28/2022 8:30:00 AM 9.39 48.902 0.178 6.42 0.31 10.57
10/28/2022 8:45:00 AM 9.35 48.83 0.178 6.42 -0.35 10.66
10/28/2022 9:00:00 AM 9.31 48.758 0.178 6.42 0.68 10.75
10/28/2022 9:15:00 AM 9.28 48.704 0.178 6.43 -0.58 10.83
10/28/2022 9:30:00 AM 9.26 48.668 0.178 6.43 -0.08 10.93
10/28/2022 9:45:00 AM 9.28 48.704 0.178 6.43 -0.09 11.07
10/28/2022 10:00:00 AM 9.31 48.758 0.178 6.45 -0.01 11.22
10/28/2022 10:15:00 AM 9.35 48.83 0.177 6.46 -0.5 11.37
10/28/2022 10:30:00 AM 9.42 48.956 0.177 6.47 -0.45 11.54
10/28/2022 10:45:00 AM 9.49 49.082 0.177 6.5 0.03 11.65
10/28/2022 11:00:00 AM 9.56 49.208 0.177 6.53 -0.18 11.81
10/28/2022 11:15:00 AM 9.65 49.37 0.177 6.58 -0.38 11.92
10/28/2022 11:30:00 AM 9.76 49.568 0.177 6.61 0.05 12.04
10/28/2022 11:45:00 AM 9.86 49.748 0.176 6.52 0.89 12.1
10/28/2022 12:00:00 PM 9.99 49.982 0.176 6.52 0.12 12.19
10/28/2022 12:15:00 PM 10.17 50.306 0.176 6.66 -0.01 12.26
10/28/2022 12:30:00 PM 10.33 50.594 0.176 6.74 -0.22 12.34
10/28/2022 12:45:00 PM 10.45 50.81 0.176 6.79 -0.1 12.36
10/28/2022 1:00:00 PM 10.59 51.062 0.176 6.84 -0.08 12.38
10/28/2022 1:15:00 PM 10.7 51.26 0.176 6.91 0.02 12.4
10/28/2022 1:30:00 PM 10.8 51.44 0.175 6.96 2.01 12.39
10/28/2022 1:45:00 PM 10.98 51.764 0.175 6.99 -0.08 12.44
10/28/2022 2:00:00 PM 11.1 51.98 0.175 7.04 0.04 12.43
10/28/2022 2:15:00 PM 11.22 52.196 0.175 7.08 0.72 12.44
10/28/2022 2:30:00 PM 11.33 52.394 0.175 7.12 -0.13 12.41
10/28/2022 2:45:00 PM 11.39 52.502 0.175 7.15 0.03 12.39
10/28/2022 3:00:00 PM 11.45 52.61 0.175 7.19 0.24 12.38
10/28/2022 3:15:00 PM 11.48 52.664 0.175 7.22 0.31 12.36
10/28/2022 3:30:00 PM 11.51 52.718 0.175 7.24 0.48 12.32
10/28/2022 3:45:00 PM 11.53 52.754 0.175 7.26 0.11 12.28
10/28/2022 4:00:00 PM 11.53 52.754 0.175 7.28 -0.02 12.22
10/28/2022 4:15:00 PM 11.51 52.718 0.175 7.3 -0.16 12.15
10/28/2022 4:30:00 PM 11.47 52.646 0.175 7.3 0.03 12.07
10/28/2022 4:45:00 PM 11.45 52.61 0.175 7.31 0.15 12.01
10/28/2022 5:00:00 PM 11.42 52.556 0.175 7.31 0.27 11.95
10/28/2022 5:15:00 PM 11.38 52.484 0.175 7.32 0.68 11.85
10/28/2022 5:30:00 PM 11.32 52.376 0.176 7.3 0.39 11.7
10/28/2022 5:45:00 PM 11.25 52.25 0.176 7.29 0.74 11.54
10/28/2022 6:00:00 PM 11.17 52.106 0.176 7.26 1.32 11.4
10/28/2022 6:15:00 PM 11.11 51.998 0.176 7.22 2.13 11.27
10/28/2022 6:30:00 PM 11.04 51.872 0.177 7.2 0.34 11.13
10/28/2022 6:45:00 PM 10.96 51.728 0.177 7.16 0.59 10.99
10/28/2022 7:00:00 PM 10.88 51.584 0.177 7.11 0.61 10.87
10/28/2022 7:15:00 PM 10.8 51.44 0.177 7.06 0.34 10.8
10/28/2022 7:30:00 PM 10.72 51.296 0.177 7.02 1.07 10.73
10/28/2022 7:45:00 PM 10.64 51.152 0.178 6.97 0.17 10.67
10/28/2022 8:00:00 PM 10.57 51.026 0.178 6.93 2.39 10.6
10/28/2022 8:15:00 PM 10.51 50.918 0.178 6.89 -0.17 10.56
10/28/2022 8:30:00 PM 10.44 50.792 0.178 6.85 0.64 10.49
10/28/2022 8:45:00 PM 10.38 50.684 0.178 6.56 0.22 10.49
10/28/2022 9:00:00 PM 10.31 50.558 0.178 6.62 -0.17 10.45
10/28/2022 9:15:00 PM 10.25 50.45 0.178 6.65 0.11 10.45
10/28/2022 9:30:00 PM 10.19 50.342 0.178 6.65 0.19 10.42
10/28/2022 9:45:00 PM 10.13 50.234 0.178 6.63 0.09 10.39
10/28/2022 10:00:00 PM 10.08 50.144 0.178 6.62 -0.06 10.39
10/28/2022 10:15:00 PM 10.02 50.036 0.178 6.62 0.14 10.38
10/28/2022 10:30:00 PM 9.95 49.91 0.178 6.61 0.07 10.38
10/28/2022 10:45:00 PM 9.9 49.82 0.178 6.6 0.75 10.4
10/28/2022 11:00:00 PM 9.83 49.694 0.178 6.58 0.11 10.41
10/28/2022 11:15:00 PM 9.78 49.604 0.178 6.56 0.42 10.39
10/28/2022 11:30:00 PM 9.72 49.496 0.178 6.54 0.54 10.39
10/28/2022 11:45:00 PM 9.66 49.388 0.178 6.54 0.04 10.42
10/29/2022 12:00:00 AM 9.59 49.262 0.178 6.52 0.13 10.43
10/29/2022 12:15:00 AM 9.55 49.19 0.178 6.52 -0.29 10.43
10/29/2022 12:30:00 AM 9.48 49.064 0.178 6.47 0.45 10.43
10/29/2022 12:45:00 AM 9.43 48.974 0.178 6.46 -0.07 10.45
10/29/2022 1:00:00 AM 9.38 48.884 0.178 6.43 -0.16 10.48
10/29/2022 1:15:00 AM 9.32 48.776 0.178 6.41 -0.16 10.51
10/29/2022 1:30:00 AM 9.28 48.704 0.178 6.41 0.23 10.52
10/29/2022 1:45:00 AM 9.22 48.596 0.178 6.42 0 10.52
10/29/2022 2:00:00 AM 9.16 48.488 0.178 6.39 0.08 10.52
10/29/2022 2:15:00 AM 9.12 48.416 0.178 6.4 -0.01 10.55
10/29/2022 2:30:00 AM 9.07 48.326 0.178 6.4 0.3 10.54
10/29/2022 2:45:00 AM 9.04 48.272 0.178 6.39 0.72 10.6
10/29/2022 3:00:00 AM 9.01 48.218 0.178 6.39 0.3 10.6
10/29/2022 3:15:00 AM 8.99 48.182 0.178 6.37 0.08 10.6
10/29/2022 3:30:00 AM 8.95 48.11 0.178 6.37 0.39 10.62
10/29/2022 3:45:00 AM 8.92 48.056 0.178 6.36 0.2 10.62
10/29/2022 4:00:00 AM 8.89 48.002 0.178 6.37 0.46 10.63
10/29/2022 4:15:00 AM 8.86 47.948 0.178 6.36 0.92 10.64
10/29/2022 4:30:00 AM 8.84 47.912 0.178 6.36 0.01 10.66
10/29/2022 4:45:00 AM 8.82 47.876 0.178 6.37 0.19 10.65
10/29/2022 5:00:00 AM 8.8 47.84 0.178 6.36 -0.28 10.65
10/29/2022 5:15:00 AM 8.78 47.804 0.178 6.36 -0.34 10.67
10/29/2022 5:30:00 AM 8.74 47.732 0.178 6.36 -0.15 10.67
10/29/2022 5:45:00 AM 8.72 47.696 0.178 6.35 -0.15 10.72
10/29/2022 6:00:00 AM 8.68 47.624 0.178 6.36 0.4 10.72
10/29/2022 6:15:00 AM 8.64 47.552 0.178 6.36 0.96 10.73
10/29/2022 6:30:00 AM 8.61 47.498 0.178 6.35 0.76 10.75
10/29/2022 6:45:00 AM 8.57 47.426 0.178 6.35 0.09 10.76
10/29/2022 7:00:00 AM 8.51 47.318 0.178 6.34 -0.02 10.75
10/29/2022 7:15:00 AM 8.46 47.228 0.178 6.34 0.02 10.79
10/29/2022 7:30:00 AM 8.41 47.138 0.178 6.33 0.9 10.81
10/29/2022 7:45:00 AM 8.37 47.066 0.178 6.33 1.69 10.82
10/29/2022 8:00:00 AM 8.32 46.976 0.178 6.33 -0.19 10.87
10/29/2022 8:15:00 AM 8.28 46.904 0.178 6.33 0.04 10.9
10/29/2022 8:30:00 AM 8.24 46.832 0.178 6.33 -0.15 10.96
10/29/2022 8:45:00 AM 8.2 46.76 0.178 6.33 0.09 11.04
10/29/2022 9:00:00 AM 8.17 46.706 0.178 6.32 0 11.13
10/29/2022 9:15:00 AM 8.14 46.652 0.178 6.32 0.88 11.22
10/29/2022 9:30:00 AM 8.12 46.616 0.178 6.32 -0.5 11.3
10/29/2022 9:45:00 AM 8.11 46.598 0.178 6.33 -0.16 11.38
10/29/2022 10:00:00 AM 8.11 46.598 0.178 6.34 -0.22 11.45
10/29/2022 10:15:00 AM 8.13 46.634 0.178 6.35 -0.31 11.56
10/29/2022 10:30:00 AM 8.17 46.706 0.178 6.35 -0.41 11.62
10/29/2022 10:45:00 AM 8.23 46.814 0.178 6.35 -0.39 11.75
10/29/2022 11:00:00 AM 8.32 46.976 0.178 6.38 -0.52 11.84
10/29/2022 11:15:00 AM 8.44 47.192 0.177 6.38 0.76 11.97
10/29/2022 11:30:00 AM 8.57 47.426 0.177 6.42 0.13 12.08
10/29/2022 11:45:00 AM 8.73 47.714 0.177 6.45 -0.67 12.17
10/29/2022 12:00:00 PM 8.9 48.02 0.177 6.5 0.13 12.24
10/29/2022 12:15:00 PM 9.08 48.344 0.176 6.54 -0.48 12.34
10/29/2022 12:30:00 PM 9.29 48.722 0.176 6.58 0.42 12.38
10/29/2022 12:45:00 PM 9.48 49.064 0.176 6.63 -0.03 12.43
10/29/2022 1:00:00 PM 9.7 49.46 0.176 6.67 -0.12 12.43
10/29/2022 1:15:00 PM 9.94 49.892 0.176 6.72 -0.5 12.46
10/29/2022 1:30:00 PM 10.27 50.486 0.175 6.76 0.04 12.45
10/29/2022 1:45:00 PM 10.47 50.846 0.175 6.82 -0.03 12.47
10/29/2022 2:00:00 PM 10.71 51.278 0.175 6.87 0.2 12.47
10/29/2022 2:15:00 PM 10.85 51.53 0.175 6.92 -0.15 12.47
10/29/2022 2:30:00 PM 10.97 51.746 0.175 6.97 0.51 12.45
10/29/2022 2:45:00 PM 10.99 51.782 0.175 7.02 -0.19 12.41
10/29/2022 3:00:00 PM 11.06 51.908 0.175 7.04 0.46 12.39
10/29/2022 3:15:00 PM 11.1 51.98 0.175 7.06 -0.2 12.34
10/29/2022 3:30:00 PM 11.13 52.034 0.175 7.07 -0.24 12.28
10/29/2022 3:45:00 PM 11.16 52.088 0.176 7.09 -0.16 12.21
10/29/2022 4:00:00 PM 11.15 52.07 0.176 7.1 -0.16 12.18
10/29/2022 4:15:00 PM 11.06 51.908 0.176 7.12 0.82 12.07
10/29/2022 4:30:00 PM 10.97 51.746 0.176 7.13 0.09 11.98
10/29/2022 4:45:00 PM 10.88 51.584 0.176 7.12 -0.53 11.86
10/29/2022 5:00:00 PM 10.79 51.422 0.176 7.12 -0.28 11.78
10/29/2022 5:15:00 PM 10.69 51.242 0.176 7.1 -0.16 11.69
10/29/2022 5:30:00 PM 10.6 51.08 0.177 7.08 -0.04 11.61
10/29/2022 5:45:00 PM 10.49 50.882 0.177 7.06 0.25 11.51
10/29/2022 6:00:00 PM 10.39 50.702 0.177 7.03 -0.29 11.4
10/29/2022 6:15:00 PM 10.29 50.522 0.177 7.01 0.11 11.28
10/29/2022 6:30:00 PM 10.18 50.324 0.177 6.97 0.4 11.19
10/29/2022 6:45:00 PM 10.08 50.144 0.177 6.93 0.82 11.1
10/29/2022 7:00:00 PM 9.97 49.946 0.178 6.88 -0.05 11.02
10/29/2022 7:15:00 PM 9.88 49.784 0.178 6.84 -0.19 10.95
10/29/2022 7:30:00 PM 9.78 49.604 0.178 6.8 -0.05 10.88
10/29/2022 7:45:00 PM 9.7 49.46 0.178 6.76 1.79 10.85
10/29/2022 8:00:00 PM 9.63 49.334 0.178 6.74 0.29 10.79
10/29/2022 8:15:00 PM 9.56 49.208 0.178 6.72 0.8 10.76
10/29/2022 8:30:00 PM 9.48 49.064 0.178 6.68 -0.52 10.74
10/29/2022 8:45:00 PM 9.42 48.956 0.178 6.65 0.33 10.7
10/29/2022 9:00:00 PM 9.36 48.848 0.178 6.62 0.66 10.69
10/29/2022 9:15:00 PM 9.3 48.74 0.178 6.61 0.24 10.67
10/29/2022 9:30:00 PM 9.23 48.614 0.178 6.59 0.4 10.67
10/29/2022 9:45:00 PM 9.18 48.524 0.178 6.58 0.72 10.63
10/29/2022 10:00:00 PM 9.12 48.416 0.179 6.55 0.36 10.64
10/29/2022 10:15:00 PM 9.06 48.308 0.179 6.54 -0.18 10.62
10/29/2022 10:30:00 PM 9 48.2 0.179 6.52 0.4 10.64
10/29/2022 10:45:00 PM 8.93 48.074 0.179 6.5 -0.53 10.63
10/29/2022 11:00:00 PM 8.87 47.966 0.179 6.5 -0.03 10.64
10/29/2022 11:15:00 PM 8.81 47.858 0.179 6.46 -0.18 10.65
10/29/2022 11:30:00 PM 8.75 47.75 0.179 6.47 0.4 10.66
10/29/2022 11:45:00 PM 8.67 47.606 0.179 6.45 0.18 10.7
10/30/2022 12:00:00 AM 8.62 47.516 0.179 6.44 -0.32 10.7
10/30/2022 12:15:00 AM 8.55 47.39 0.179 6.43 0.46 10.71
10/30/2022 12:30:00 AM 8.48 47.264 0.179 6.41 0.43 10.72
10/30/2022 12:45:00 AM 8.41 47.138 0.179 6.39 -0.19 10.77
10/30/2022 1:00:00 AM 8.35 47.03 0.179 6.38 0.76 10.79
10/30/2022 1:15:00 AM 8.29 46.922 0.179 6.37 0.38 10.78
10/30/2022 1:30:00 AM 8.24 46.832 0.179 6.36 -0.05 10.81
10/30/2022 1:45:00 AM 8.19 46.742 0.179 6.34 0.94 10.81
10/30/2022 2:00:00 AM 8.13 46.634 0.179 6.33 -0.56 10.83
10/30/2022 2:15:00 AM 8.07 46.526 0.179 6.31 -0.29 10.84
10/30/2022 2:30:00 AM 8.02 46.436 0.179 6.32 -0.4 10.86
10/30/2022 2:45:00 AM 7.97 46.346 0.178 6.32 -0.3 10.9
10/30/2022 3:00:00 AM 7.93 46.274 0.178 6.31 -0.06 10.9
10/30/2022 3:15:00 AM 7.88 46.184 0.178 6.29 0.22 10.92
10/30/2022 3:30:00 AM 7.84 46.112 0.178 6.27 0.18 10.93
10/30/2022 3:45:00 AM 7.8 46.04 0.178 6.29 0.62 10.94
10/30/2022 4:00:00 AM 7.76 45.968 0.178 6.29 0.08 10.93
10/30/2022 4:15:00 AM 7.72 45.896 0.178 6.28 -0.45 10.96
10/30/2022 4:30:00 AM 7.68 45.824 0.178 6.27 -0.25 10.97
10/30/2022 4:45:00 AM 7.64 45.752 0.178 6.27 1.31 10.98
10/30/2022 5:00:00 AM 7.61 45.698 0.178 6.26 0 10.99
10/30/2022 5:15:00 AM 7.56 45.608 0.178 6.26 -0.27 11
10/30/2022 5:30:00 AM 7.52 45.536 0.178 6.25 0.39 11.02
10/30/2022 5:45:00 AM 7.48 45.464 0.179 6.25 -0.72 11.04
10/30/2022 6:00:00 AM 7.45 45.41 0.179 6.25 -0.24 11.05
10/30/2022 6:15:00 AM 7.43 45.374 0.179 6.24 0.84 11.07
10/30/2022 6:30:00 AM 7.42 45.356 0.179 6.22 0.89 11.06
10/30/2022 6:45:00 AM 7.41 45.338 0.179 6.23 0.13 11.1
10/30/2022 7:00:00 AM 7.4 45.32 0.179 6.22 0.17 11.1
10/30/2022 7:15:00 AM 7.39 45.302 0.179 6.22 -0.39 11.1
10/30/2022 7:30:00 AM 7.38 45.284 0.179 6.2 -0.38 11.13
10/30/2022 7:45:00 AM 7.37 45.266 0.179 6.21 -0.35 11.13
10/30/2022 8:00:00 AM 7.38 45.284 0.179 6.21 -0.21 11.15
10/30/2022 8:15:00 AM 7.38 45.284 0.179 6.2 -0.67 11.21
10/30/2022 8:30:00 AM 7.39 45.302 0.179 6.2 -0.25 11.28
10/30/2022 8:45:00 AM 7.41 45.338 0.178 6.19 -0.95 11.37
10/30/2022 9:00:00 AM 7.43 45.374 0.178 6.19 -0.54 11.44
10/30/2022 9:15:00 AM 7.47 45.446 0.178 6.19 -0.66 11.59
10/30/2022 9:30:00 AM 7.52 45.536 0.178 6.19 -0.68 11.74
10/30/2022 9:45:00 AM 7.58 45.644 0.178 6.19 -0.69 11.89
10/30/2022 10:00:00 AM 7.65 45.77 0.178 6.2 -0.58 12.05
10/30/2022 10:15:00 AM 7.73 45.914 0.177 6.24 -0.84 12.18
10/30/2022 10:30:00 AM 7.82 46.076 0.177 6.27 -0.43 12.33
10/30/2022 10:45:00 AM 7.93 46.274 0.177 6.32 0.32 12.44
10/30/2022 11:00:00 AM 8.04 46.472 0.177 6.36 -0.63 12.54
10/30/2022 11:15:00 AM 8.16 46.688 0.177 6.41 -0.59 12.6
10/30/2022 11:30:00 AM 8.28 46.904 0.177 6.45 -0.71 12.62
10/30/2022 11:45:00 AM 8.4 47.12 0.177 6.49 -0.45 12.73
10/30/2022 12:00:00 PM 8.52 47.336 0.176 6.52 -0.44 12.79
10/30/2022 12:15:00 PM 8.63 47.534 0.176 6.54 -0.42 12.82
10/30/2022 12:30:00 PM 8.75 47.75 0.176 6.61 -0.54 12.84
10/30/2022 12:45:00 PM 8.87 47.966 0.176 6.66 -0.32 12.9
10/30/2022 1:00:00 PM 8.99 48.182 0.176 6.71 -0.58 12.92
10/30/2022 1:15:00 PM 9.16 48.488 0.175 6.74 -0.28 12.86
10/30/2022 1:30:00 PM 9.34 48.812 0.175 6.79 -0.5 12.95
10/30/2022 1:45:00 PM 9.62 49.316 0.175 6.83 -0.29 12.97
10/30/2022 2:00:00 PM 9.77 49.586 0.175 6.9 -0.83 12.98
10/30/2022 2:15:00 PM 9.99 49.982 0.175 6.94 -0.56 12.93
10/30/2022 2:30:00 PM 10.14 50.252 0.175 6.97 -0.1 12.9
10/30/2022 2:45:00 PM 10.2 50.36 0.174 7.02 -0.18 12.86
10/30/2022 3:00:00 PM 10.29 50.522 0.174 7.06 -0.21 12.82
10/30/2022 3:15:00 PM 10.33 50.594 0.174 7.1 -0.24 12.74
10/30/2022 3:30:00 PM 10.39 50.702 0.174 7.11 -0.28 12.67
10/30/2022 3:45:00 PM 10.43 50.774 0.175 7.13 0.07 12.61
10/30/2022 4:00:00 PM 10.48 50.864 0.175 7.16 -0.37 12.51
10/30/2022 4:15:00 PM 10.46 50.828 0.175 7.17 0.11 12.42
10/30/2022 4:30:00 PM 10.46 50.828 0.175 7.19 -0.17 12.3
10/30/2022 4:45:00 PM 10.44 50.792 0.175 7.19 0.04 12.21
10/30/2022 5:00:00 PM 10.42 50.756 0.175 7.18 -0.31 12.1
10/30/2022 5:15:00 PM 10.39 50.702 0.175 7.2 -0.24 12
10/30/2022 5:30:00 PM 10.35 50.63 0.176 7.2 0.13 11.96
10/30/2022 5:45:00 PM 10.28 50.504 0.176 7.19 0.17 11.82
10/30/2022 6:00:00 PM 10.21 50.378 0.176 7.17 -0.4 11.7
10/30/2022 6:15:00 PM 10.14 50.252 0.176 7.16 -0.09 11.53
10/30/2022 6:30:00 PM 10.07 50.126 0.177 7.13 -0.35 11.38
10/30/2022 6:45:00 PM 10 50 0.177 7.09 -0.32 11.25
10/30/2022 7:00:00 PM 9.92 49.856 0.177 7.05 0.14 11.11
10/30/2022 7:15:00 PM 9.86 49.748 0.178 7.01 0.1 11.03
10/30/2022 7:30:00 PM 9.81 49.658 0.178 6.97 -0.04 10.94
10/30/2022 7:45:00 PM 9.76 49.568 0.178 6.91 0.06 10.87
10/30/2022 8:00:00 PM 9.72 49.496 0.178 6.86 -0.07 10.81
10/30/2022 8:15:00 PM 9.68 49.424 0.178 6.83 0.44 10.77
10/30/2022 8:30:00 PM 9.65 49.37 0.178 6.79 -0.22 10.72
10/30/2022 8:45:00 PM 9.61 49.298 0.178 6.75 0.24 10.68
10/30/2022 9:00:00 PM 9.58 49.244 0.178 6.73 0.38 10.63
10/30/2022 9:15:00 PM 9.53 49.154 0.178 6.69 -0.43 10.62
10/30/2022 9:30:00 PM 9.49 49.082 0.178 6.67 0.27 10.59
10/30/2022 9:45:00 PM 9.45 49.01 0.178 6.65 -0.12 10.57
10/30/2022 10:00:00 PM 9.41 48.938 0.178 6.62 -0.52 10.54
10/30/2022 10:15:00 PM 9.38 48.884 0.178 6.6 0 10.52
10/30/2022 10:30:00 PM 9.34 48.812 0.178 6.58 -0.02 10.53
10/30/2022 10:45:00 PM 9.31 48.758 0.178 6.55 -0.08 10.51
10/30/2022 11:00:00 PM 9.27 48.686 0.178 6.53 0.73 10.51
10/30/2022 11:15:00 PM 9.23 48.614 0.178 6.52 -0.26 10.49
10/30/2022 11:30:00 PM 9.2 48.56 0.178 6.48 -0.44 10.49
10/30/2022 11:45:00 PM 9.16 48.488 0.178 6.48 0.09 10.5
10/31/2022 12:00:00 AM 9.12 48.416 0.178 6.45 1.62 10.52
10/31/2022 12:15:00 AM 9.07 48.326 0.178 6.44 0.59 10.52
10/31/2022 12:30:00 AM 9.03 48.254 0.178 6.45 1.32 10.5
10/31/2022 12:45:00 AM 8.99 48.182 0.178 6.43 1.06 10.52
10/31/2022 1:00:00 AM 8.95 48.11 0.178 6.42 0.73 10.52
10/31/2022 1:15:00 AM 8.92 48.056 0.178 6.4 1.37 10.55
10/31/2022 1:30:00 AM 8.88 47.984 0.178 6.38 0.15 10.56
10/31/2022 1:45:00 AM 8.84 47.912 0.178 6.11 1.32 10.55
10/31/2022 2:00:00 AM 8.82 47.876 0.178 6.3 -0.17 10.54
10/31/2022 2:15:00 AM 8.79 47.822 0.178 6.32 -0.52 10.55
10/31/2022 2:30:00 AM 8.77 47.786 0.178 6.33 -0.2 10.55
10/31/2022 2:45:00 AM 8.76 47.768 0.178 6.31 0.92 10.58
10/31/2022 3:00:00 AM 8.74 47.732 0.179 6.32 0.62 10.57
10/31/2022 3:15:00 AM 8.73 47.714 0.179 6.32 -0.08 10.58
10/31/2022 3:30:00 AM 8.71 47.678 0.179 6.3 -0.1 10.56
10/31/2022 3:45:00 AM 8.7 47.66 0.179 6.31 -0.35 10.58
10/31/2022 4:00:00 AM 8.69 47.642 0.179 6.3 0.49 10.59
10/31/2022 4:15:00 AM 8.68 47.624 0.179 6.31 0.31 10.59
10/31/2022 4:30:00 AM 8.69 47.642 0.179 6.32 -0.33 10.59
10/31/2022 4:45:00 AM 8.69 47.642 0.178 6.3 0.99 10.61
10/31/2022 5:00:00 AM 8.7 47.66 0.179 6.28 0.25 10.59
10/31/2022 5:15:00 AM 8.7 47.66 0.178 6.29 -0.09 10.6
10/31/2022 5:30:00 AM 8.71 47.678 0.179 6.23 0.29 10.6
10/31/2022 5:45:00 AM 8.73 47.714 0.179 6.29 0.11 10.59
10/31/2022 6:00:00 AM 8.72 47.696 0.179 6.29 0.78 10.6
10/31/2022 6:15:00 AM 8.72 47.696 0.179 6.28 1.25 10.61
10/31/2022 6:30:00 AM 8.72 47.696 0.178 6.29 0.09 10.61
10/31/2022 6:45:00 AM 8.73 47.714 0.178 6.29 -0.15 10.61
10/31/2022 7:00:00 AM 8.74 47.732 0.178 6.28 0.12 10.6
10/31/2022 7:15:00 AM 8.75 47.75 0.178 6.24 -0.12 10.61
10/31/2022 7:30:00 AM 8.76 47.768 0.178 6.26 -0.07 10.61
10/31/2022 7:45:00 AM 8.77 47.786 0.178 6.24 -0.26 10.6
10/31/2022 8:00:00 AM 8.78 47.804 0.179 5.86 -0.19 10.63
10/31/2022 8:15:00 AM 8.8 47.84 0.179 6.11 -0.21 10.67
10/31/2022 8:30:00 AM 8.83 47.894 0.179 6.15 0.09 10.75
10/31/2022 8:45:00 AM 8.86 47.948 0.179 6.2 -0.07 10.83
10/31/2022 9:00:00 AM 8.89 48.002 0.178 6.24 -0.61 10.92
10/31/2022 9:15:00 AM 8.92 48.056 0.178 6.25 -0.29 11.04
10/31/2022 9:30:00 AM 8.96 48.128 0.178 6.27 -0.03 11.12
10/31/2022 9:45:00 AM 9 48.2 0.178 6.26 -0.47 11.21
10/31/2022 10:00:00 AM 9.06 48.308 0.178 6.3 -0.05 11.34
10/31/2022 10:15:00 AM 9.13 48.434 0.178 6.31 -0.53 11.5
10/31/2022 10:30:00 AM 9.21 48.578 0.178 6.34 -0.31 11.63
10/31/2022 10:45:00 AM 9.3 48.74 0.178 6.36 -0.39 11.79
10/31/2022 11:00:00 AM 9.41 48.938 0.177 6.41 -0.52 11.93
10/31/2022 11:15:00 AM 9.52 49.136 0.177 6.44 -0.57 12.08
10/31/2022 11:30:00 AM 9.62 49.316 0.177 6.43 -0.43 12.17
10/31/2022 11:45:00 AM 9.77 49.586 0.176 6.49 -0.26 12.25
10/31/2022 12:00:00 PM 9.93 49.874 0.176 6.54 -0.13 12.32
10/31/2022 12:15:00 PM 10.08 50.144 0.176 6.59 -0.05 12.4
10/31/2022 12:30:00 PM 10.2 50.36 0.176 6.63 -0.34 12.44
10/31/2022 12:45:00 PM 10.27 50.486 0.176 6.69 -0.1 12.42
10/31/2022 1:00:00 PM 10.38 50.684 0.175 6.75 -0.54 12.42
10/31/2022 1:15:00 PM 10.51 50.918 0.175 6.81 -0.13 12.45
10/31/2022 1:30:00 PM 10.63 51.134 0.175 6.85 -0.21 12.48
10/31/2022 1:45:00 PM 10.74 51.332 0.175 6.88 0.02 12.49
10/31/2022 2:00:00 PM 10.83 51.494 0.175 6.64 1.61 12.45
10/31/2022 2:15:00 PM 10.9 51.62 0.175 6.84 0.55 12.41
10/31/2022 2:30:00 PM 10.96 51.728 0.175 6.94 -0.25 12.35
10/31/2022 2:45:00 PM 11.01 51.818 0.175 7 0.13 12.26
10/31/2022 3:00:00 PM 11.05 51.89 0.175 7.03 -0.1 12.16
10/31/2022 3:15:00 PM 11.1 51.98 0.175 7.07 0.14 12.05
10/31/2022 3:30:00 PM 11.14 52.052 0.175 7.07 0.83 11.95
10/31/2022 3:45:00 PM 11.17 52.106 0.175 7.1 0.26 11.87
10/31/2022 4:00:00 PM 11.2 52.16 0.175 7.1 0.19 11.81
10/31/2022 4:15:00 PM 11.21 52.178 0.175 7.13 1.88 11.74
10/31/2022 4:30:00 PM 11.22 52.196 0.175 7.13 -0.24 11.65
10/31/2022 4:45:00 PM 11.22 52.196 0.175 7.1 0.44 11.55
10/31/2022 5:00:00 PM 11.21 52.178 0.175 7.11 0.01 11.39
10/31/2022 5:15:00 PM 11.2 52.16 0.175 7.09 0.02 11.2
10/31/2022 5:30:00 PM 11.19 52.142 0.176 7.08 0.15 11.07
10/31/2022 5:45:00 PM 11.19 52.142 0.175 7.03 1.56 10.93
10/31/2022 6:00:00 PM 11.18 52.124 0.175 7 -0.07 10.81
10/31/2022 6:15:00 PM 11.17 52.106 0.176 6.95 0.24 10.7
10/31/2022 6:30:00 PM 11.16 52.088 0.176 6.93 0.01 10.58
10/31/2022 6:45:00 PM 11.15 52.07 0.176 6.9 -0.1 10.5
10/31/2022 7:00:00 PM 11.15 52.07 0.176 6.87 1.1 10.41
10/31/2022 7:15:00 PM 11.14 52.052 0.176 6.85 0.59 10.35
10/31/2022 7:30:00 PM 11.14 52.052 0.177 6.8 0.42 10.27
10/31/2022 7:45:00 PM 11.13 52.034 0.177 6.77 0.86 10.21
10/31/2022 8:00:00 PM 11.13 52.034 0.177 6.76 0.6 10.15
10/31/2022 8:15:00 PM 11.13 52.034 0.177 6.72 -0.1 10.13
10/31/2022 8:30:00 PM 11.14 52.052 0.177 6.7 0.12 10.09
10/31/2022 8:45:00 PM 11.14 52.052 0.177 6.67 0.77 10.05
10/31/2022 9:00:00 PM 11.15 52.07 0.177 6.65 -0.2 10.02
10/31/2022 9:15:00 PM 11.16 52.088 0.177 6.63 1.77 9.98
10/31/2022 9:30:00 PM 11.18 52.124 0.177 6.6 1.39 9.94
10/31/2022 9:45:00 PM 11.19 52.142 0.177 6.59 0.38 9.92
10/31/2022 10:00:00 PM 11.21 52.178 0.177 6.57 1.34 9.87
10/31/2022 10:15:00 PM 11.23 52.214 0.177 6.57 0.12 9.86
10/31/2022 10:30:00 PM 11.25 52.25 0.177 6.56 0.32 9.84
10/31/2022 10:45:00 PM 11.27 52.286 0.177 6.55 2.96 9.79
10/31/2022 11:00:00 PM 11.28 52.304 0.177 6.53 0.2 9.82
10/31/2022 11:15:00 PM 11.3 52.34 0.177 6.53 0.85 9.81
10/31/2022 11:30:00 PM 11.32 52.376 0.177 6.52 2.67 9.8
10/31/2022 11:45:00 PM 11.34 52.412 0.177 6.5 0.83 9.78
11/1/2022 12:00:00 AM 11.36 52.448 0.177 6.43 1.46 9.76
11/1/2022 12:15:00 AM 11.38 52.484 0.177 6.49 1.22 9.76
11/1/2022 12:30:00 AM 11.41 52.538 0.177 6.48 7.35 9.75
11/1/2022 12:45:00 AM 11.43 52.574 0.177 6.48 1.48 9.73
11/1/2022 1:00:00 AM 11.45 52.61 0.177 6.48 0.54 9.72
11/1/2022 1:15:00 AM 11.48 52.664 0.177 6.46 7.63 9.72
11/1/2022 1:30:00 AM 11.49 52.682 0.177 6.48 1.72 9.72
11/1/2022 1:45:00 AM 11.52 52.736 0.177 6.46 -0.11 9.71
11/1/2022 2:00:00 AM 11.54 52.772 0.177 6.47 3.94 9.7
11/1/2022 2:15:00 AM 11.56 52.808 0.176 6.48 1.6 9.7
11/1/2022 2:30:00 AM 11.58 52.844 0.177 6.47 3.14 9.69
11/1/2022 2:45:00 AM 11.6 52.88 0.176 6.48 1.34 9.67
11/1/2022 3:00:00 AM 11.62 52.916 0.176 6.45 2.74 9.64
11/1/2022 3:15:00 AM 11.63 52.934 0.176 6.46 0.78 9.66
11/1/2022 3:30:00 AM 11.66 52.988 0.176 6.46 0.81 9.67
11/1/2022 3:45:00 AM 11.68 53.024 0.176 6.44 4.7 9.68
11/1/2022 4:00:00 AM 11.69 53.042 0.176 6.41 0.27 9.67
11/1/2022 4:15:00 AM 11.71 53.078 0.176 6.25 0.23 9.67
11/1/2022 4:30:00 AM 11.73 53.114 0.176 6.41 0.36 9.65
11/1/2022 4:45:00 AM 11.75 53.15 0.176 6.43 0.73 9.66
11/1/2022 5:00:00 AM 11.76 53.168 0.177 6.44 4.35 9.66
11/1/2022 5:15:00 AM 11.78 53.204 0.177 6.42 0.46 9.64
11/1/2022 5:30:00 AM 11.79 53.222 0.177 6.2 1.88 9.65
11/1/2022 5:45:00 AM 11.8 53.24 0.177 6.38 2.03 9.63
11/1/2022 6:00:00 AM 11.81 53.258 0.177 6.4 1.58 9.64
11/1/2022 6:15:00 AM 11.82 53.276 0.177 6.41 0.88 9.62
11/1/2022 6:30:00 AM 11.82 53.276 0.177 6.42 0.64 9.61
11/1/2022 6:45:00 AM 11.83 53.294 0.177 6.42 4.14 9.63
11/1/2022 7:00:00 AM 11.83 53.294 0.177 6.43 0.49 9.63
11/1/2022 7:15:00 AM 11.84 53.312 0.177 6.42 1.44 9.62
11/1/2022 7:30:00 AM 11.84 53.312 0.177 6.34 2.21 9.62
11/1/2022 7:45:00 AM 11.85 53.33 0.177 5.95 0.37 9.62
11/1/2022 8:00:00 AM 11.86 53.348 0.177 6.38 0.61 9.64
11/1/2022 8:15:00 AM 11.87 53.366 0.177 6.41 0.68 9.66
11/1/2022 8:30:00 AM 11.88 53.384 0.177 6.42 0.25 9.73
11/1/2022 8:45:00 AM 11.9 53.42 0.177 6.43 0.62 9.81
11/1/2022 9:00:00 AM 11.93 53.474 0.177 6.45 0.6 9.88
11/1/2022 9:15:00 AM 11.96 53.528 0.176 6.47 1.79 10.09
11/1/2022 9:30:00 AM 12 53.6 0.176 6.48 0.33 10.28
11/1/2022 9:45:00 AM 12.03 53.654 0.176 6.51 9.16 10.44
11/1/2022 10:00:00 AM 12.08 53.744 0.176 6.53 0.35 10.62
11/1/2022 10:15:00 AM 12.12 53.816 0.176 6.55 1.13 10.79
11/1/2022 10:30:00 AM 12.15 53.87 0.176 6.58 0.21 10.88
11/1/2022 10:45:00 AM 12.18 53.924 0.176 6.6 0.13 10.92
11/1/2022 11:00:00 AM 12.27 54.086 0.176 6.6 0.01 11.02
11/1/2022 11:15:00 AM 12.43 54.374 0.176 6.58 0.61 11.12
11/1/2022 11:30:00 AM 12.57 54.626 0.175 6.63 1.71 11.3
11/1/2022 11:45:00 AM 12.66 54.788 0.175 6.62 1.73 11.43
11/1/2022 12:00:00 PM 12.78 55.004 0.175 6.75 2.01 11.59
11/1/2022 12:15:00 PM 12.97 55.346 0.174 6.81 0.88 11.69
11/1/2022 12:30:00 PM 13.26 55.868 0.174 6.87 0.38 11.76
11/1/2022 12:45:00 PM 13.43 56.174 0.174 6.94 1.5 11.79
11/1/2022 1:00:00 PM 13.63 56.534 0.174 7.02 1.31 11.83
11/1/2022 1:15:00 PM 13.74 56.732 0.174 7.08 2.35 11.89
11/1/2022 1:30:00 PM 13.89 57.002 0.173 7.15 2.75 11.89
11/1/2022 1:45:00 PM 14.11 57.398 0.173 7.21 1.93 11.92
11/1/2022 2:00:00 PM 14.36 57.848 0.173 7.27 2.41 11.92
11/1/2022 2:15:00 PM 14.52 58.136 0.173 7.29 1.9 11.91
11/1/2022 2:30:00 PM 14.54 58.172 0.173 7.4 0.62 11.85
11/1/2022 2:45:00 PM 14.64 58.352 0.173 7.44 0.78 11.73
11/1/2022 3:00:00 PM 14.75 58.55 0.173 7.47 1.74 11.7
11/1/2022 3:15:00 PM 14.82 58.676 0.173 7.51 0.62 11.64
11/1/2022 3:30:00 PM 14.82 58.676 0.173 7.57 1.74 11.56
11/1/2022 3:45:00 PM 14.77 58.586 0.173 7.61 0.68 11.47
11/1/2022 4:00:00 PM 14.79 58.622 0.173 7.63 2 11.38
11/1/2022 4:15:00 PM 14.8 58.64 0.173 7.65 1.24 11.31
11/1/2022 4:30:00 PM 14.81 58.658 0.174 7.67 2.41 11.24
11/1/2022 4:45:00 PM 14.76 58.568 0.174 7.68 0.61 11.15
11/1/2022 5:00:00 PM 14.72 58.496 0.174 7.69 2.46 11.02
11/1/2022 5:15:00 PM 14.7 58.46 0.174 7.7 0.47 10.87
11/1/2022 5:30:00 PM 14.64 58.352 0.175 7.69 0.42 10.69
11/1/2022 5:45:00 PM 14.56 58.208 0.175 7.67 0.77 10.48
11/1/2022 6:00:00 PM 14.48 58.064 0.176 7.65 0.57 10.32
11/1/2022 6:15:00 PM 14.4 57.92 0.176 7.62 3.4 10.19
11/1/2022 6:30:00 PM 14.32 57.776 0.176 7.55 0.86 10.04
11/1/2022 6:45:00 PM 14.24 57.632 0.177 7.51 0.75 9.88
11/1/2022 7:00:00 PM 14.17 57.506 0.177 7.47 0.44 9.78
11/1/2022 7:15:00 PM 14.09 57.362 0.178 7.42 2.09 9.69
11/1/2022 7:30:00 PM 14.02 57.236 0.178 7.36 1.9 9.59
11/1/2022 7:45:00 PM 13.94 57.092 0.178 7.25 2.28 9.53
11/1/2022 8:00:00 PM 13.88 56.984 0.178 7.2 2.54 9.46
11/1/2022 8:15:00 PM 13.81 56.858 0.178 7.19 2.69 9.41
11/1/2022 8:30:00 PM 13.74 56.732 0.178 7.15 3.22 9.35
11/1/2022 8:45:00 PM 13.69 56.642 0.178 7.1 2.17 9.31
11/1/2022 9:00:00 PM 13.63 56.534 0.179 7.06 2.13 9.28
11/1/2022 9:15:00 PM 13.58 56.444 0.179 7.02 2.86 9.26
11/1/2022 9:30:00 PM 13.52 56.336 0.179 6.98 2.43 9.24
11/1/2022 9:45:00 PM 13.47 56.246 0.179 6.95 2.31 9.2
11/1/2022 10:00:00 PM 13.41 56.138 0.179 6.91 1.42 9.19
11/1/2022 10:15:00 PM 13.36 56.048 0.179 6.89 2.51 9.19
11/1/2022 10:30:00 PM 13.31 55.958 0.179 6.86 1.95 9.18
11/1/2022 10:45:00 PM 13.25 55.85 0.179 6.83 2.11 9.18
11/1/2022 11:00:00 PM 13.19 55.742 0.179 6.8 1.8 9.19
11/1/2022 11:15:00 PM 13.14 55.652 0.179 6.78 2.72 9.2
11/1/2022 11:30:00 PM 13.08 55.544 0.179 6.76 5.83 9.2
11/1/2022 11:45:00 PM 13.03 55.454 0.179 6.75 2.31 9.22
11/2/2022 12:00:00 AM 12.97 55.346 0.179 6.74 2.9 9.24
11/2/2022 12:15:00 AM 12.92 55.256 0.179 6.72 2.82 9.24
11/2/2022 12:30:00 AM 12.87 55.166 0.179 6.71 8.9 9.25
11/2/2022 12:45:00 AM 12.82 55.076 0.179 6.69 5.14 9.27
11/2/2022 1:00:00 AM 12.77 54.986 0.179 6.68 7.33 9.26
11/2/2022 1:15:00 AM 12.73 54.914 0.179 6.66 2.21 9.29
11/2/2022 1:30:00 AM 12.68 54.824 0.179 6.66 2.33 9.28
11/2/2022 1:45:00 AM 12.63 54.734 0.179 6.64 0.67 9.32
11/2/2022 2:00:00 AM 12.58 54.644 0.179 6.65 2.3 9.32
11/2/2022 2:15:00 AM 12.53 54.554 0.179 6.64 1.69 9.35
11/2/2022 2:30:00 AM 12.5 54.5 0.179 6.63 1.24 9.37
11/2/2022 2:45:00 AM 12.45 54.41 0.179 6.62 7.33 9.36
11/2/2022 3:00:00 AM 12.4 54.32 0.179 6.62 2.17 9.38
11/2/2022 3:15:00 AM 12.37 54.266 0.179 6.61 3.77 9.38
11/2/2022 3:30:00 AM 12.32 54.176 0.179 6.6 1.93 9.41
11/2/2022 3:45:00 AM 12.28 54.104 0.179 6.58 3.3 9.41
11/2/2022 4:00:00 AM 12.23 54.014 0.179 6.58 4.69 9.43
11/2/2022 4:15:00 AM 12.19 53.942 0.179 6.56 0.43 9.42
11/2/2022 4:30:00 AM 12.14 53.852 0.179 6.56 0.29 9.46
11/2/2022 4:45:00 AM 12.1 53.78 0.179 6.44 2.82 9.44
11/2/2022 5:00:00 AM 12.05 53.69 0.179 6.5 5.08 9.45
11/2/2022 5:15:00 AM 11.99 53.582 0.18 6.55 1.42 9.47
11/2/2022 5:30:00 AM 11.95 53.51 0.18 6.54 4.17 9.51
11/2/2022 5:45:00 AM 11.9 53.42 0.18 6.54 3.06 9.54
11/2/2022 6:00:00 AM 11.85 53.33 0.18 6.53 3.42 9.55
11/2/2022 6:15:00 AM 11.79 53.222 0.18 6.44 2.48 9.58
11/2/2022 6:30:00 AM 11.73 53.114 0.18 6.44 1.01 9.59
11/2/2022 6:45:00 AM 11.68 53.024 0.18 6.47 0.69 9.61
11/2/2022 7:00:00 AM 11.63 52.934 0.18 6.48 1.33 9.63
11/2/2022 7:15:00 AM 11.58 52.844 0.18 6.5 0.58 9.65
11/2/2022 7:30:00 AM 11.52 52.736 0.18 6.5 0.12 9.67
11/2/2022 7:45:00 AM 11.47 52.646 0.18 6.5 3.5 9.69
11/2/2022 8:00:00 AM 11.42 52.556 0.18 6.5 0.33 9.71
11/2/2022 8:15:00 AM 11.38 52.484 0.18 6.5 0.98 9.77
11/2/2022 8:30:00 AM 11.34 52.412 0.18 6.48 0.92 9.83
11/2/2022 8:45:00 AM 11.3 52.34 0.18 6.49 0.68 9.93
11/2/2022 9:00:00 AM 11.26 52.268 0.18 6.47 0.64 10.04
11/2/2022 9:15:00 AM 11.24 52.232 0.179 6.48 0.89 10.15
11/2/2022 9:30:00 AM 11.23 52.214 0.179 6.47 0.27 10.24
11/2/2022 9:45:00 AM 11.23 52.214 0.179 6.49 0.08 10.39
11/2/2022 10:00:00 AM 11.25 52.25 0.179 6.51 0.69 10.51
11/2/2022 10:15:00 AM 11.28 52.304 0.179 6.52 0.51 10.66
11/2/2022 10:30:00 AM 11.33 52.394 0.179 6.54 0.26 10.77
11/2/2022 10:45:00 AM 11.4 52.52 0.178 6.56 2.02 10.96
11/2/2022 11:00:00 AM 11.49 52.682 0.178 6.57 0.29 11.11
11/2/2022 11:15:00 AM 11.6 52.88 0.178 6.6 0.82 11.24
11/2/2022 11:30:00 AM 11.73 53.114 0.177 6.63 0.12 11.41
11/2/2022 11:45:00 AM 11.87 53.366 0.177 6.68 0.24 11.56
11/2/2022 12:00:00 PM 12.05 53.69 0.177 6.71 1.7 11.68
11/2/2022 12:15:00 PM 12.27 54.086 0.176 6.73 0.54 11.79
11/2/2022 12:30:00 PM 12.47 54.446 0.176 6.75 0.13 11.92
11/2/2022 12:45:00 PM 12.68 54.824 0.176 6.83 1.8 11.97
11/2/2022 1:00:00 PM 12.84 55.112 0.176 6.9 0.09 12.05
11/2/2022 1:15:00 PM 13.04 55.472 0.175 6.97 1.47 12.09
11/2/2022 1:30:00 PM 13.27 55.886 0.175 7.01 1.08 12.14
11/2/2022 1:45:00 PM 13.54 56.372 0.175 6.88 1.52 12.13
11/2/2022 2:00:00 PM 13.72 56.696 0.175 6.85 0.87 12.15
11/2/2022 2:15:00 PM 13.87 56.966 0.175 6.9 1.83 12.17
11/2/2022 2:30:00 PM 13.95 57.11 0.175 7.1 1.96 12.16
11/2/2022 2:45:00 PM 13.97 57.146 0.174 7.25 1.17 12.13
11/2/2022 3:00:00 PM 13.99 57.182 0.174 7.07 1.78 12.06
11/2/2022 3:15:00 PM 14 57.2 0.175 7.07 1.47 12.01
11/2/2022 3:30:00 PM 13.99 57.182 0.174 7.11 1.72 11.9
11/2/2022 3:45:00 PM 14.01 57.218 0.174 7.2 2.32 11.89
11/2/2022 4:00:00 PM 14.02 57.236 0.175 7.25 1.67 11.83
11/2/2022 4:15:00 PM 14.01 57.218 0.174 7.29 2.02 11.82
11/2/2022 4:30:00 PM 13.97 57.146 0.175 7.35 2.55 11.76
11/2/2022 4:45:00 PM 13.9 57.02 0.175 7.4 1.2 11.67
11/2/2022 5:00:00 PM 13.83 56.894 0.175 7.43 2.01 11.54
11/2/2022 5:15:00 PM 13.76 56.768 0.175 7.47 1.46 11.43
11/2/2022 5:30:00 PM 13.69 56.642 0.176 7.53 1.31 11.29
11/2/2022 5:45:00 PM 13.59 56.462 0.176 7.55 2.11 11.11
11/2/2022 6:00:00 PM 13.48 56.264 0.176 7.54 1.89 10.92
11/2/2022 6:15:00 PM 13.39 56.102 0.177 7.49 1.37 10.7
11/2/2022 6:30:00 PM 13.29 55.922 0.177 7.47 2.02 10.54
11/2/2022 6:45:00 PM 13.21 55.778 0.178 7.46 1.55 10.39
11/2/2022 7:00:00 PM 13.12 55.616 0.178 7.42 1.98 10.26
11/2/2022 7:15:00 PM 13.03 55.454 0.178 7.38 3.36 10.15
11/2/2022 7:30:00 PM 12.94 55.292 0.179 7.33 2.11 10.06
11/2/2022 7:45:00 PM 12.85 55.13 0.179 7.28 1.57 9.99
11/2/2022 8:00:00 PM 12.77 54.986 0.179 7.24 1.47 9.92
11/2/2022 8:15:00 PM 12.68 54.824 0.179 7.2 1.54 9.86
11/2/2022 8:30:00 PM 12.6 54.68 0.18 7.15 1.88 9.8
11/2/2022 8:45:00 PM 12.52 54.536 0.18 7.1 2.38 9.76
11/2/2022 9:00:00 PM 12.44 54.392 0.18 7.05 0.48 9.75
11/2/2022 9:15:00 PM 12.38 54.284 0.18 7 1.7 9.71
11/2/2022 9:30:00 PM 12.3 54.14 0.18 6.97 1.42 9.7
11/2/2022 9:45:00 PM 12.24 54.032 0.18 6.94 1.73 9.65
11/2/2022 10:00:00 PM 12.18 53.924 0.18 6.89 0.96 9.65
11/2/2022 10:15:00 PM 12.11 53.798 0.18 6.86 1.67 9.65
11/2/2022 10:30:00 PM 12.04 53.672 0.18 6.82 0.43 9.64
11/2/2022 10:45:00 PM 11.97 53.546 0.18 6.79 0.35 9.62
11/2/2022 11:00:00 PM 11.92 53.456 0.18 6.76 1.16 9.62
11/2/2022 11:15:00 PM 11.86 53.348 0.18 6.74 0.6 9.63
11/2/2022 11:30:00 PM 11.79 53.222 0.18 6.72 0.05 9.63
11/2/2022 11:45:00 PM 11.72 53.096 0.18 6.7 0.16 9.63
11/3/2022 12:00:00 AM 11.65 52.97 0.18 6.67 0.62 9.65
11/3/2022 12:15:00 AM 11.58 52.844 0.18 6.65 1.88 9.7
11/3/2022 12:30:00 AM 11.52 52.736 0.18 6.63 1.39 9.71
11/3/2022 12:45:00 AM 11.47 52.646 0.18 6.61 0.41 9.72
11/3/2022 1:00:00 AM 11.4 52.52 0.18 6.61 0.66 9.74
11/3/2022 1:15:00 AM 11.35 52.43 0.18 6.56 0.29 9.72
11/3/2022 1:30:00 AM 11.29 52.322 0.18 6.5 1.37 9.77
11/3/2022 1:45:00 AM 11.24 52.232 0.18 6.52 2.09 9.79
11/3/2022 2:00:00 AM 11.19 52.142 0.18 6.52 1.01 9.8
11/3/2022 2:15:00 AM 11.13 52.034 0.18 6.53 0.67 9.82
11/3/2022 2:30:00 AM 11.08 51.944 0.18 6.53 1.15 9.79
11/3/2022 2:45:00 AM 11.03 51.854 0.18 6.52 0.1 9.83
11/3/2022 3:00:00 AM 10.97 51.746 0.18 6.52 0.57 9.85
11/3/2022 3:15:00 AM 10.93 51.674 0.18 6.53 0.12 9.87
11/3/2022 3:30:00 AM 10.86 51.548 0.18 6.5 0.64 9.88
11/3/2022 3:45:00 AM 10.82 51.476 0.18 6.5 2.54 9.89
11/3/2022 4:00:00 AM 10.77 51.386 0.18 6.49 1.5 9.89
11/3/2022 4:15:00 AM 10.73 51.314 0.18 6.46 0.53 9.9
11/3/2022 4:30:00 AM 10.67 51.206 0.179 6.46 0.21 9.92
11/3/2022 4:45:00 AM 10.62 51.116 0.179 6.47 0.43 9.95
11/3/2022 5:00:00 AM 10.56 51.008 0.179 6.46 1.79 9.94
11/3/2022 5:15:00 AM 10.5 50.9 0.179 6.44 0.86 9.99
11/3/2022 5:30:00 AM 10.45 50.81 0.179 6.44 0.83 9.99
11/3/2022 5:45:00 AM 10.38 50.684 0.179 6.43 0.33 10.03
11/3/2022 6:00:00 AM 10.33 50.594 0.179 6.4 0.06 10.05
11/3/2022 6:15:00 AM 10.29 50.522 0.18 6.4 3.18 10.06
11/3/2022 6:30:00 AM 10.22 50.396 0.18 6.41 1.02 10.1
11/3/2022 6:45:00 AM 10.17 50.306 0.18 6.41 0.49 10.08
11/3/2022 7:00:00 AM 10.1 50.18 0.18 6.4 -0.12 10.1
11/3/2022 7:15:00 AM 10.03 50.054 0.18 6.41 0.45 10.13
11/3/2022 7:30:00 AM 9.97 49.946 0.18 6.42 -0.02 10.17
11/3/2022 7:45:00 AM 9.9 49.82 0.18 6.42 0.02 10.19
11/3/2022 8:00:00 AM 9.85 49.73 0.18 6.41 0.06 10.22
11/3/2022 8:15:00 AM 9.8 49.64 0.18 6.39 0.89 10.26
11/3/2022 8:30:00 AM 9.74 49.532 0.18 6.38 -0.47 10.38
11/3/2022 8:45:00 AM 9.7 49.46 0.18 6.39 0.36 10.46
11/3/2022 9:00:00 AM 9.65 49.37 0.18 6.39 0.08 10.56
11/3/2022 9:15:00 AM 9.6 49.28 0.18 6.4 0.54 10.69
11/3/2022 9:30:00 AM 9.58 49.244 0.179 6.38 -0.02 10.76
11/3/2022 9:45:00 AM 9.56 49.208 0.179 6.39 -0.2 10.89
11/3/2022 10:00:00 AM 9.56 49.208 0.179 6.4 -0.29 11.02
11/3/2022 10:15:00 AM 9.56 49.208 0.179 6.4 0.45 11.13
11/3/2022 10:30:00 AM 9.6 49.28 0.179 6.41 -0.08 11.25
11/3/2022 10:45:00 AM 9.65 49.37 0.179 6.43 -0.15 11.39
11/3/2022 11:00:00 AM 9.74 49.532 0.178 6.43 -0.3 11.54
11/3/2022 11:15:00 AM 9.87 49.766 0.178 6.46 0.24 11.67
11/3/2022 11:30:00 AM 10.02 50.036 0.178 6.48 0.13 11.84
11/3/2022 11:45:00 AM 10.19 50.342 0.177 6.51 -0.31 11.96
11/3/2022 12:00:00 PM 10.38 50.684 0.177 6.56 -0.38 12.06
11/3/2022 12:15:00 PM 10.59 51.062 0.177 6.59 0.45 12.19
11/3/2022 12:30:00 PM 10.9 51.62 0.176 6.62 -0.36 12.27
11/3/2022 12:45:00 PM 11.13 52.034 0.176 6.68 -0.1 12.3
11/3/2022 1:00:00 PM 11.29 52.322 0.176 6.74 0.18 12.4
11/3/2022 1:15:00 PM 11.56 52.808 0.176 6.8 -0.04 12.42
11/3/2022 1:30:00 PM 11.8 53.24 0.175 6.86 1.76 12.43
11/3/2022 1:45:00 PM 12.1 53.78 0.175 6.92 0.42 12.44
11/3/2022 2:00:00 PM 12.31 54.158 0.175 6.97 0.04 12.47
11/3/2022 2:15:00 PM 12.45 54.41 0.175 7.04 0.05 12.46
11/3/2022 2:30:00 PM 12.61 54.698 0.175 7.09 0.34 12.42
11/3/2022 2:45:00 PM 12.61 54.698 0.175 7.15 0.74 12.38
11/3/2022 3:00:00 PM 12.69 54.842 0.175 7.17 0.48 12.32
11/3/2022 3:15:00 PM 12.73 54.914 0.175 7.2 0.14 12.28
11/3/2022 3:30:00 PM 12.78 55.004 0.175 7.24 1.38 12.22
11/3/2022 3:45:00 PM 12.8 55.04 0.175 7.27 1.16 12.14
11/3/2022 4:00:00 PM 12.81 55.058 0.175 7.3 1.72 12.05
11/3/2022 4:15:00 PM 12.75 54.95 0.175 7.33 0.03 11.98
11/3/2022 4:30:00 PM 12.68 54.824 0.175 7.34 2.15 11.87
11/3/2022 4:45:00 PM 12.6 54.68 0.175 7.35 1.59 11.7
11/3/2022 5:00:00 PM 12.52 54.536 0.176 7.37 1.26 11.59
11/3/2022 5:15:00 PM 12.44 54.392 0.176 7.38 1.25 11.46
11/3/2022 5:30:00 PM 12.35 54.23 0.176 7.37 1.01 11.36
11/3/2022 5:45:00 PM 12.25 54.05 0.176 7.34 0.22 11.24
11/3/2022 6:00:00 PM 12.16 53.888 0.177 7.34 2.08 11.09
11/3/2022 6:15:00 PM 12.05 53.69 0.177 7.33 0.19 10.94
11/3/2022 6:30:00 PM 11.95 53.51 0.177 7.31 0.4 10.82
11/3/2022 6:45:00 PM 11.85 53.33 0.178 7.27 1.05 10.69
11/3/2022 7:00:00 PM 11.74 53.132 0.178 7.23 3.77 10.58
11/3/2022 7:15:00 PM 11.65 52.97 0.178 7.2 0.55 10.47
11/3/2022 7:30:00 PM 11.55 52.79 0.179 7.16 0.15 10.4
11/3/2022 7:45:00 PM 11.45 52.61 0.179 7.12 -0.1 10.34
11/3/2022 8:00:00 PM 11.37 52.466 0.179 7.06 0 10.28
11/3/2022 8:15:00 PM 11.29 52.322 0.179 7.04 0.55 10.24
11/3/2022 8:30:00 PM 11.21 52.178 0.179 6.99 -0.13 10.18
11/3/2022 8:45:00 PM 11.14 52.052 0.18 6.95 0.48 10.17
11/3/2022 9:00:00 PM 11.08 51.944 0.18 6.92 -0.17 10.11
11/3/2022 9:15:00 PM 11.02 51.836 0.18 6.88 0.01 10.11
11/3/2022 9:30:00 PM 10.94 51.692 0.18 6.84 -0.32 10.11
11/3/2022 9:45:00 PM 10.89 51.602 0.18 6.81 0.53 10.09
11/3/2022 10:00:00 PM 10.83 51.494 0.18 6.77 -0.11 10.07
11/3/2022 10:15:00 PM 10.77 51.386 0.18 6.73 0.09 10.04
11/3/2022 10:30:00 PM 10.72 51.296 0.18 6.69 0.4 10.07
11/3/2022 10:45:00 PM 10.67 51.206 0.18 6.68 0.06 10.05
11/3/2022 11:00:00 PM 10.63 51.134 0.18 6.66 0.99 10.04
11/3/2022 11:15:00 PM 10.58 51.044 0.18 6.64 0.14 10.05
11/3/2022 11:30:00 PM 10.52 50.936 0.18 6.6 -0.01 10.07
11/3/2022 11:45:00 PM 10.48 50.864 0.18 6.6 0.32 10.07
11/4/2022 12:00:00 AM 10.45 50.81 0.18 6.59 1.23 10.08
11/4/2022 12:15:00 AM 10.4 50.72 0.18 6.58 3.91 10.08
11/4/2022 12:30:00 AM 10.38 50.684 0.18 6.56 1.15 10.07
11/4/2022 12:45:00 AM 10.34 50.612 0.18 6.54 0.03 10.11
11/4/2022 1:00:00 AM 10.3 50.54 0.18 6.53 0.14 10.11
11/4/2022 1:15:00 AM 10.26 50.468 0.179 6.52 -0.02 10.13
11/4/2022 1:30:00 AM 10.23 50.414 0.18 6.52 -0.26 10.12
11/4/2022 1:45:00 AM 10.17 50.306 0.179 6.5 1.68 10.13
11/4/2022 2:00:00 AM 10.12 50.216 0.179 6.49 0.03 10.16
11/4/2022 2:15:00 AM 10.1 50.18 0.179 6.49 -0.16 10.16
11/4/2022 2:30:00 AM 10.07 50.126 0.179 6.48 0.19 10.15
11/4/2022 2:45:00 AM 10.02 50.036 0.179 6.47 -0.14 10.19
11/4/2022 3:00:00 AM 10 50 0.179 6.48 -0.35 10.19
11/4/2022 3:15:00 AM 9.96 49.928 0.179 6.45 0.79 10.19
11/4/2022 3:30:00 AM 9.92 49.856 0.179 6.46 0.65 10.19
11/4/2022 3:45:00 AM 9.9 49.82 0.179 6.45 1.39 10.22
11/4/2022 4:00:00 AM 9.86 49.748 0.179 6.45 0.37 10.22
11/4/2022 4:15:00 AM 9.83 49.694 0.179 6.43 -0.28 10.21
11/4/2022 4:30:00 AM 9.79 49.622 0.179 6.41 1.91 10.21
11/4/2022 4:45:00 AM 9.75 49.55 0.179 6.42 0.42 10.24
11/4/2022 5:00:00 AM 9.72 49.496 0.179 6.41 0.25 10.26
11/4/2022 5:15:00 AM 9.71 49.478 0.179 6.41 0.41 10.27
11/4/2022 5:30:00 AM 9.65 49.37 0.179 6.4 0.15 10.26
11/4/2022 5:45:00 AM 9.63 49.334 0.179 6.4 -0.13 10.27
11/4/2022 6:00:00 AM 9.59 49.262 0.179 6.4 -0.04 10.26
11/4/2022 6:15:00 AM 9.54 49.172 0.179 6.39 0.14 10.3
11/4/2022 6:30:00 AM 9.52 49.136 0.179 6.39 0.09 10.3
11/4/2022 6:45:00 AM 9.48 49.064 0.179 6.38 -0.03 10.3
11/4/2022 7:00:00 AM 9.44 48.992 0.179 6.38 -0.11 10.32
11/4/2022 7:15:00 AM 9.41 48.938 0.179 6.33 1.08 10.33
11/4/2022 7:30:00 AM 9.39 48.902 0.179 6.37 0.03 10.37
11/4/2022 7:45:00 AM 9.38 48.884 0.179 6.37 0.87 10.36
11/4/2022 8:00:00 AM 9.37 48.866 0.179 6.36 -0.18 10.39
11/4/2022 8:15:00 AM 9.36 48.848 0.179 6.37 -0.43 10.44
11/4/2022 8:30:00 AM 9.36 48.848 0.179 6.36 -0.46 10.55
11/4/2022 8:45:00 AM 9.37 48.866 0.179 6.38 -0.01 10.71
11/4/2022 9:00:00 AM 9.4 48.92 0.179 6.37 -0.01 10.87
11/4/2022 9:15:00 AM 9.43 48.974 0.179 6.38 0.03 11.08
11/4/2022 9:30:00 AM 9.48 49.064 0.178 6.41 0.32 11.25
11/4/2022 9:45:00 AM 9.54 49.172 0.178 6.41 -0.24 11.46
11/4/2022 10:00:00 AM 9.6 49.28 0.178 6.4 -0.26 11.63
11/4/2022 10:15:00 AM 9.66 49.388 0.178 6.46 -0.37 11.82
11/4/2022 10:30:00 AM 9.73 49.514 0.177 6.49 -0.3 11.98
11/4/2022 10:45:00 AM 9.79 49.622 0.177 6.51 -0.22 12.05
11/4/2022 11:00:00 AM 9.88 49.784 0.177 6.54 0 12.15
11/4/2022 11:15:00 AM 9.99 49.982 0.177 6.58 -0.21 12.2
11/4/2022 11:30:00 AM 10.11 50.198 0.176 6.61 -0.07 12.3
11/4/2022 11:45:00 AM 10.25 50.45 0.176 6.63 0.27 12.37
11/4/2022 12:00:00 PM 10.45 50.81 0.176 6.66 -0.37 12.39
11/4/2022 12:15:00 PM 10.65 51.17 0.176 6.68 0.02 12.42
11/4/2022 12:30:00 PM 10.91 51.638 0.175 6.73 -0.39 12.46
11/4/2022 12:45:00 PM 11.14 52.052 0.175 6.78 -0.52 12.48
11/4/2022 1:00:00 PM 11.35 52.43 0.175 6.84 0.01 12.51
11/4/2022 1:15:00 PM 11.57 52.826 0.175 6.9 0.16 12.46
11/4/2022 1:30:00 PM 11.88 53.384 0.174 6.94 -0.05 12.51
11/4/2022 1:45:00 PM 12.26 54.068 0.174 7 0.55 12.51
11/4/2022 2:00:00 PM 12.45 54.41 0.174 7.05 0.33 12.48
11/4/2022 2:15:00 PM 12.65 54.77 0.174 7.12 0.29 12.48
11/4/2022 2:30:00 PM 12.79 55.022 0.174 7.18 1.49 12.45
11/4/2022 2:45:00 PM 12.88 55.184 0.173 7.23 2.19 12.37
11/4/2022 3:00:00 PM 13 55.4 0.173 7.25 1.04 12.34
11/4/2022 3:15:00 PM 13.04 55.472 0.173 7.27 1.46 12.23
11/4/2022 3:30:00 PM 13.16 55.688 0.173 7.35 1.22 12.16
11/4/2022 3:45:00 PM 13.23 55.814 0.173 7.41 1.34 12.1
11/4/2022 4:00:00 PM 13.26 55.868 0.173 7.46 1.78 12.03
11/4/2022 4:15:00 PM 13.25 55.85 0.174 7.48 1.1 11.93
11/4/2022 4:30:00 PM 13.2 55.76 0.174 7.52 1.46 11.81
11/4/2022 4:45:00 PM 13.16 55.688 0.174 7.54 1.14 11.69
11/4/2022 5:00:00 PM 13.11 55.598 0.174 7.55 0.95 11.53
11/4/2022 5:15:00 PM 13.05 55.49 0.175 7.57 1.39 11.37
11/4/2022 5:30:00 PM 12.99 55.382 0.175 7.56 1.73 11.26
11/4/2022 5:45:00 PM 12.92 55.256 0.175 7.56 1.04 11.12
11/4/2022 6:00:00 PM 12.85 55.13 0.176 7.56 1.55 10.98
11/4/2022 6:15:00 PM 12.78 55.004 0.176 7.54 1.71 10.82
11/4/2022 6:30:00 PM 12.7 54.86 0.176 7.51 2.45 10.64
11/4/2022 6:45:00 PM 12.62 54.716 0.177 7.49 1.4 10.48
11/4/2022 7:00:00 PM 12.53 54.554 0.177 7.46 1.79 10.35
11/4/2022 7:15:00 PM 12.45 54.41 0.178 7.42 1.61 10.26
11/4/2022 7:30:00 PM 12.37 54.266 0.178 7.38 0.59 10.14
11/4/2022 7:45:00 PM 12.3 54.14 0.178 7.33 0.45 10.07
11/4/2022 8:00:00 PM 12.23 54.014 0.178 7.29 0.14 10.01
11/4/2022 8:15:00 PM 12.17 53.906 0.179 7.24 1.49 9.98
11/4/2022 8:30:00 PM 12.11 53.798 0.179 7.2 1.96 9.89
11/4/2022 8:45:00 PM 12.05 53.69 0.179 7.15 1.67 9.89
11/4/2022 9:00:00 PM 12 53.6 0.179 7.11 1.27 9.83
11/4/2022 9:15:00 PM 11.96 53.528 0.179 7.07 0.39 9.79
11/4/2022 9:30:00 PM 11.91 53.438 0.179 7.03 -0.23 9.77
11/4/2022 9:45:00 PM 11.86 53.348 0.179 6.98 0.31 9.74
11/4/2022 10:00:00 PM 11.82 53.276 0.179 6.94 0.56 9.71
11/4/2022 10:15:00 PM 11.79 53.222 0.179 6.92 0.12 9.71
11/4/2022 10:30:00 PM 11.75 53.15 0.179 6.88 0.49 9.7
11/4/2022 10:45:00 PM 11.72 53.096 0.179 6.84 1.34 9.7
11/4/2022 11:00:00 PM 11.69 53.042 0.179 6.82 2.11 9.66
11/4/2022 11:15:00 PM 11.66 52.988 0.179 6.79 0.25 9.65
11/4/2022 11:30:00 PM 11.63 52.934 0.179 6.77 0.12 9.66
11/4/2022 11:45:00 PM 11.6 52.88 0.179 6.76 1.74 9.67
11/5/2022 12:00:00 AM 11.57 52.826 0.179 6.74 0.2 9.68
11/5/2022 12:15:00 AM 11.54 52.772 0.179 6.72 0.15 9.68
11/5/2022 12:30:00 AM 11.51 52.718 0.179 6.7 0.6 9.66
11/5/2022 12:45:00 AM 11.49 52.682 0.179 6.68 0.24 9.68
11/5/2022 1:00:00 AM 11.47 52.646 0.179 6.67 0.83 9.67
11/5/2022 1:15:00 AM 11.46 52.628 0.179 6.66 -0.27 9.68
11/5/2022 1:30:00 AM 11.45 52.61 0.179 6.63 1.2 9.68
11/5/2022 1:45:00 AM 11.44 52.592 0.179 6.65 0.41 9.68
11/5/2022 2:00:00 AM 11.44 52.592 0.179 6.63 0.13 9.65
11/5/2022 2:15:00 AM 11.43 52.574 0.179 6.62 0.66 9.65
11/5/2022 2:30:00 AM 11.43 52.574 0.179 6.6 0.29 9.69
11/5/2022 2:45:00 AM 11.43 52.574 0.179 6.59 -0.21 9.72
11/5/2022 3:00:00 AM 11.43 52.574 0.179 6.59 0.94 9.71
11/5/2022 3:15:00 AM 11.43 52.574 0.179 6.58 -0.05 9.71
11/5/2022 3:30:00 AM 11.44 52.592 0.179 6.57 0.07 9.71
11/5/2022 3:45:00 AM 11.45 52.61 0.179 6.57 0.58 9.69
11/5/2022 4:00:00 AM 11.46 52.628 0.179 6.56 0.3 9.71
11/5/2022 4:15:00 AM 11.47 52.646 0.179 6.54 1.37 9.7
11/5/2022 4:30:00 AM 11.49 52.682 0.179 6.19 3.98 9.71
11/5/2022 4:45:00 AM 11.51 52.718 0.179 6.23 0.35 9.7
11/5/2022 5:00:00 AM 11.53 52.754 0.179 6.34 1.14 9.7
11/5/2022 5:15:00 AM 11.55 52.79 0.179 6.39 0.24 9.69
11/5/2022 5:30:00 AM 11.57 52.826 0.179 6.4 2.59 9.68
11/5/2022 5:45:00 AM 11.58 52.844 0.179 6.4 0.82 9.68
11/5/2022 6:00:00 AM 11.6 52.88 0.179 6.37 2.27 9.66
11/5/2022 6:15:00 AM 11.62 52.916 0.179 6.36 0.01 9.66
11/5/2022 6:30:00 AM 11.63 52.934 0.179 6.39 1.19 9.68
11/5/2022 6:45:00 AM 11.65 52.97 0.179 6.4 0.48 9.67
11/5/2022 7:00:00 AM 11.66 52.988 0.179 6.42 0.66 9.67
11/5/2022 7:15:00 AM 11.68 53.024 0.179 6.45 2.31 9.64
11/5/2022 7:30:00 AM 11.69 53.042 0.179 6.47 0.85 9.65
11/5/2022 7:45:00 AM 11.7 53.06 0.179 6.49 0.72 9.67
11/5/2022 8:00:00 AM 11.72 53.096 0.179 6.5 1.05 9.68
11/5/2022 8:15:00 AM 11.73 53.114 0.179 6.5 0.13 9.72
11/5/2022 8:30:00 AM 11.75 53.15 0.179 6.51 0.31 9.77
11/5/2022 8:45:00 AM 11.77 53.186 0.179 6.52 0.29 9.94
11/5/2022 9:00:00 AM 11.8 53.24 0.179 6.52 0.14 10.08
11/5/2022 9:15:00 AM 11.84 53.312 0.179 6.53 0.16 10.24
11/5/2022 9:30:00 AM 11.88 53.384 0.179 6.55 0.22 10.45
11/5/2022 9:45:00 AM 11.95 53.51 0.179 6.56 1.46 10.6
11/5/2022 10:00:00 AM 12.01 53.618 0.178 6.59 0.28 10.74
11/5/2022 10:15:00 AM 12.1 53.78 0.178 6.61 0.16 10.88
11/5/2022 10:30:00 AM 12.2 53.96 0.178 6.62 0.44 11.07
11/5/2022 10:45:00 AM 12.32 54.176 0.177 6.66 -0.09 11.17
11/5/2022 11:00:00 AM 12.46 54.428 0.177 6.69 1.41 11.33
11/5/2022 11:15:00 AM 12.63 54.734 0.177 6.73 0.5 11.51
11/5/2022 11:30:00 AM 12.81 55.058 0.176 6.77 3.26 11.66
11/5/2022 11:45:00 AM 13.01 55.418 0.176 6.82 1.43 11.76
11/5/2022 12:00:00 PM 13.21 55.778 0.176 6.83 1.03 11.89
11/5/2022 12:15:00 PM 13.48 56.264 0.175 6.94 1.18 11.99
11/5/2022 12:30:00 PM 13.74 56.732 0.175 6.99 1.01 12.06
11/5/2022 12:45:00 PM 13.93 57.074 0.175 7.06 2.86 12.09
11/5/2022 1:00:00 PM 14.13 57.434 0.174 7.12 2.01 12.12
11/5/2022 1:15:00 PM 14.3 57.74 0.174 7.19 1.2 12.13
11/5/2022 1:30:00 PM 14.44 57.992 0.174 7.24 2.02 12.11
11/5/2022 1:45:00 PM 14.61 58.298 0.174 7.3 1.44 12.09
11/5/2022 2:00:00 PM 14.75 58.55 0.174 7.37 0.91 12.06
11/5/2022 2:15:00 PM 14.9 58.82 0.174 7.44 0.59 12.02
11/5/2022 2:30:00 PM 15.04 59.072 0.174 7.51 1.51 11.97
11/5/2022 2:45:00 PM 15.07 59.126 0.174 7.56 0.8 11.95
11/5/2022 3:00:00 PM 15.08 59.144 0.174 7.6 1.85 11.87
11/5/2022 3:15:00 PM 15.12 59.216 0.174 7.66 0.86 11.75
11/5/2022 3:30:00 PM 15.2 59.36 0.174 7.69 2.18 11.63
11/5/2022 3:45:00 PM 15.32 59.576 0.174 7.73 1.84 11.57
11/5/2022 4:00:00 PM 15.42 59.756 0.174 7.77 0.55 11.57
11/5/2022 4:15:00 PM 15.45 59.81 0.174 7.82 0.39 11.52
11/5/2022 4:30:00 PM 15.45 59.81 0.174 7.87 1.21 11.39
11/5/2022 4:45:00 PM 15.4 59.72 0.174 7.89 0.7 11.28
11/5/2022 5:00:00 PM 15.37 59.666 0.175 7.91 2.31 11.08
11/5/2022 5:15:00 PM 15.33 59.594 0.175 7.92 1.69 10.95
11/5/2022 5:30:00 PM 15.3 59.54 0.175 7.92 3.39 10.75
11/5/2022 5:45:00 PM 15.25 59.45 0.175 7.91 0.77 10.56
11/5/2022 6:00:00 PM 15.2 59.36 0.176 7.91 2.09 10.38
11/5/2022 6:15:00 PM 15.16 59.288 0.176 7.89 0.85 10.17
11/5/2022 6:30:00 PM 15.11 59.198 0.176 7.82 2.33 9.98
11/5/2022 6:45:00 PM 15.07 59.126 0.177 7.78 0.99 9.82
11/5/2022 7:00:00 PM 15.04 59.072 0.177 7.75 2.73 9.66
11/5/2022 7:15:00 PM 15 59 0.177 7.72 3.04 9.54
11/5/2022 7:30:00 PM 14.97 58.946 0.178 7.68 0.48 9.45
11/5/2022 7:45:00 PM 14.93 58.874 0.178 7.65 0.86 9.34
11/5/2022 8:00:00 PM 14.91 58.838 0.178 7.62 1.46 9.27
11/5/2022 8:15:00 PM 14.88 58.784 0.178 7.58 1.53 9.2
11/5/2022 8:30:00 PM 14.85 58.73 0.179 7.53 1.75 9.14
11/5/2022 8:45:00 PM 14.83 58.694 0.179 7.49 1.56 9.1
11/5/2022 9:00:00 PM 14.8 58.64 0.179 7.44 1.24 9.02
11/5/2022 9:15:00 PM 14.79 58.622 0.179 7.4 1.83 8.98
11/5/2022 9:30:00 PM 14.77 58.586 0.179 7.35 0.61 8.94
11/5/2022 9:45:00 PM 14.75 58.55 0.179 7.31 0.57 8.91
11/5/2022 10:00:00 PM 14.74 58.532 0.18 7.26 1.24 8.87
11/5/2022 10:15:00 PM 14.72 58.496 0.18 7.23 0.77 8.87
11/5/2022 10:30:00 PM 14.71 58.478 0.18 7.18 2.04 8.85
11/5/2022 10:45:00 PM 14.69 58.442 0.18 7.15 0.31 8.8
11/5/2022 11:00:00 PM 14.69 58.442 0.18 7.12 1.64 8.79
11/5/2022 11:15:00 PM 14.68 58.424 0.18 7.09 1.21 8.78
11/5/2022 11:30:00 PM 14.68 58.424 0.18 7.07 0.79 8.76
11/5/2022 11:45:00 PM 14.69 58.442 0.18 7.04 1.71 8.75
11/6/2022 12:00:00 AM 14.68 58.424 0.18 7.01 1.93 8.77
11/6/2022 12:15:00 AM 14.68 58.424 0.179 6.98 2.17 8.73
11/6/2022 12:30:00 AM 14.66 58.388 0.179 6.96 0.99 8.75
11/6/2022 12:45:00 AM 14.65 58.37 0.179 6.95 1.14 8.74
11/6/2022 1:00:00 AM 14.65 58.37 0.179 6.93 2.34 8.76
11/6/2022 1:15:00 AM 14.64 58.352 0.179 6.91 1.28 8.73
11/6/2022 1:30:00 AM 14.63 58.334 0.179 6.9 2.29 8.73
11/6/2022 1:45:00 AM 14.62 58.316 0.179 6.89 0.91 8.74
11/6/2022 2:00:00 AM 14.61 58.298 0.179 6.88 0.93 8.74
11/6/2022 2:15:00 AM 14.59 58.262 0.179 6.87 2.17 8.75
11/6/2022 2:30:00 AM 14.58 58.244 0.179 6.87 2 8.75
11/6/2022 2:45:00 AM 14.57 58.226 0.179 6.85 1.79 8.74
11/6/2022 3:00:00 AM 14.55 58.19 0.179 6.84 2.39 8.75
11/6/2022 3:15:00 AM 14.54 58.172 0.179 6.83 0.33 8.74
11/6/2022 3:30:00 AM 14.48 58.064 0.179 6.8 3.98 8.73
11/6/2022 3:45:00 AM 14.47 58.046 0.179 6.79 2.4 8.77
11/6/2022 4:00:00 AM 14.46 58.028 0.179 6.78 2.34 8.76
11/6/2022 4:15:00 AM 14.46 58.028 0.179 6.78 8.95 8.73
11/6/2022 4:30:00 AM 14.47 58.046 0.179 6.78 5 8.76
11/6/2022 4:45:00 AM 14.47 58.046 0.179 6.77 2.71 8.77
11/6/2022 5:00:00 AM 14.47 58.046 0.179 6.77 2.48 8.8
11/6/2022 5:15:00 AM 14.48 58.064 0.179 6.76 2.97 8.81
11/6/2022 5:30:00 AM 14.48 58.064 0.18 6.76 2.27 8.82
11/6/2022 5:45:00 AM 14.48 58.064 0.18 6.75 0.93 8.8
11/6/2022 6:00:00 AM 14.48 58.064 0.18 6.75 0.76 8.81
11/6/2022 6:15:00 AM 14.48 58.064 0.18 6.75 2.58 8.81
11/6/2022 6:30:00 AM 14.49 58.082 0.18 6.76 2.96 8.82
11/6/2022 6:45:00 AM 14.48 58.064 0.18 6.76 0.8 8.81
11/6/2022 7:00:00 AM 14.49 58.082 0.18 6.75 2.33 8.84
11/6/2022 7:15:00 AM 14.49 58.082 0.18 6.74 1.18 8.86
11/6/2022 7:30:00 AM 14.51 58.118 0.18 6.66 1.15 8.9
11/6/2022 7:45:00 AM 14.53 58.154 0.18 6.68 2.31 8.97
11/6/2022 8:00:00 AM 14.55 58.19 0.18 6.73 0.63 9.04
11/6/2022 8:15:00 AM 14.58 58.244 0.18 6.74 1.17 9.12
11/6/2022 8:30:00 AM 14.64 58.352 0.179 6.76 0.75 9.28
11/6/2022 8:45:00 AM 14.69 58.442 0.179 6.77 2.08 9.48
11/6/2022 9:00:00 AM 14.74 58.532 0.179 6.79 0.44 9.74
11/6/2022 9:15:00 AM 14.81 58.658 0.179 6.81 0.61 9.91
11/6/2022 9:30:00 AM 14.87 58.766 0.178 6.84 1.74 10.06
11/6/2022 9:45:00 AM 14.93 58.874 0.178 6.87 1.08 10.18
11/6/2022 10:00:00 AM 14.99 58.982 0.178 6.89 0.66 10.37
11/6/2022 10:15:00 AM 15.09 59.162 0.178 6.92 1.9 10.5
11/6/2022 10:30:00 AM 15.19 59.342 0.177 6.95 1.94 10.67
11/6/2022 10:45:00 AM 15.28 59.504 0.177 7 1.14 10.82
11/6/2022 11:00:00 AM 15.36 59.648 0.177 7.03 1.52 10.96
11/6/2022 11:15:00 AM 15.45 59.81 0.176 7.08 1.82 11.09
11/6/2022 11:30:00 AM 15.59 60.062 0.176 7.13 1.44 11.19
11/6/2022 11:45:00 AM 15.69 60.242 0.176 7.17 2.55 11.31
11/6/2022 12:00:00 PM 15.82 60.476 0.176 7.23 1.88 11.41
11/6/2022 12:15:00 PM 15.92 60.656 0.175 7.28 0.48 11.48
11/6/2022 12:30:00 PM 16.01 60.818 0.175 7.33 1.94 11.49
11/6/2022 12:45:00 PM 16.13 61.034 0.175 7.38 1.85 11.54
11/6/2022 1:00:00 PM 16.2 61.16 0.175 7.43 1.59 11.56
11/6/2022 1:15:00 PM 16.29 61.322 0.175 7.48 0.84 11.56
11/6/2022 1:30:00 PM 16.36 61.448 0.175 7.53 1.53 11.52
11/6/2022 1:45:00 PM 16.4 61.52 0.175 7.57 2.14 11.43
11/6/2022 2:00:00 PM 16.44 61.592 0.175 7.61 1.66 11.29
11/6/2022 2:15:00 PM 16.47 61.646 0.175 7.65 0.92 11.08
11/6/2022 2:30:00 PM 16.52 61.736 0.175 7.69 1.86 10.95
11/6/2022 2:45:00 PM 16.58 61.844 0.175 7.72 2.16 10.89
11/6/2022 3:00:00 PM 16.63 61.934 0.174 7.76 2.11 10.91
11/6/2022 3:15:00 PM 16.69 62.042 0.174 7.8 0.96 10.95
11/6/2022 3:30:00 PM 16.71 62.078 0.174 7.82 1.8 10.94
11/6/2022 3:45:00 PM 16.71 62.078 0.174 7.85 2.07 10.83
11/6/2022 4:00:00 PM 16.71 62.078 0.174 7.87 1.74 10.69
11/6/2022 4:15:00 PM 16.72 62.096 0.175 7.89 1.48 10.51
11/6/2022 4:30:00 PM 16.71 62.078 0.175 7.9 1.82 10.33
11/6/2022 4:45:00 PM 16.69 62.042 0.175 7.9 1.38 10.13
11/6/2022 5:00:00 PM 16.67 62.006 0.176 7.9 1.43 9.94
11/6/2022 5:15:00 PM 16.63 61.934 0.176 7.88 2.85 9.75
11/6/2022 5:30:00 PM 16.61 61.898 0.177 7.86 2.48 9.56
11/6/2022 5:45:00 PM 16.58 61.844 0.177 7.85 1.36 9.35
11/6/2022 6:00:00 PM 16.54 61.772 0.178 7.82 2.05 9.19
11/6/2022 6:15:00 PM 16.51 61.718 0.178 7.78 3.64 9.04
11/6/2022 6:30:00 PM 16.47 61.646 0.178 7.74 2.36 9.01
11/6/2022 6:45:00 PM 16.44 61.592 0.179 7.7 1.84 8.93
11/6/2022 7:00:00 PM 16.4 61.52 0.179 7.67 3.05 8.87
11/6/2022 7:15:00 PM 16.36 61.448 0.179 7.61 4.75 8.8
11/6/2022 7:30:00 PM 16.32 61.376 0.179 7.56 2.35 8.76
11/6/2022 7:45:00 PM 16.29 61.322 0.179 7.52 1.74 8.68
11/6/2022 8:00:00 PM 16.27 61.286 0.18 7.48 1.71 8.61
11/6/2022 8:15:00 PM 16.25 61.25 0.18 7.43 2.1 8.55
11/6/2022 8:30:00 PM 16.22 61.196 0.18 7.38 1.59 8.53
11/6/2022 8:45:00 PM 16.17 61.106 0.181 7.34 2.1 8.48
11/6/2022 9:00:00 PM 16.13 61.034 0.18 7.3 2.31 8.5
11/6/2022 9:15:00 PM 16.09 60.962 0.181 7.26 1.98 8.48
11/6/2022 9:30:00 PM 16.04 60.872 0.181 7.22 1.99 8.44
11/6/2022 9:45:00 PM 16 60.8 0.181 7.18 2.34 8.41
11/6/2022 10:00:00 PM 15.96 60.728 0.181 7.16 4.52 8.45
11/6/2022 10:15:00 PM 15.93 60.674 0.181 7.13 1.85 8.41
11/6/2022 10:30:00 PM 15.9 60.62 0.18 7.1 1.97 8.4
11/6/2022 10:45:00 PM 15.87 60.566 0.181 7.08 2.5 8.41
11/6/2022 11:00:00 PM 15.84 60.512 0.18 7.04 0.84 8.39
11/6/2022 11:15:00 PM 15.8 60.44 0.18 7.02 0.58 8.4
11/6/2022 11:30:00 PM 15.77 60.386 0.18 7.01 1.79 8.4
11/6/2022 11:45:00 PM 15.74 60.332 0.18 6.98 1.08 8.43
11/7/2022 12:00:00 AM 15.71 60.278 0.18 6.96 0.77 8.38
11/7/2022 12:15:00 AM 15.68 60.224 0.18 6.95 1.23 8.43
11/7/2022 12:30:00 AM 15.64 60.152 0.18 6.94 0.88 8.41
11/7/2022 12:45:00 AM 15.6 60.08 0.18 6.92 2.05 8.46
11/7/2022 1:00:00 AM 15.56 60.008 0.18 6.91 2.25 8.44
11/7/2022 1:15:00 AM 15.52 59.936 0.18 6.9 1 8.45
11/7/2022 1:30:00 AM 15.48 59.864 0.18 6.88 1.13 8.45
11/7/2022 1:45:00 AM 15.44 59.792 0.18 6.87 2.04 8.48
11/7/2022 2:00:00 AM 15.4 59.72 0.18 6.86 1.61 8.5
11/7/2022 2:15:00 AM 15.36 59.648 0.18 6.85 1.96 8.48
11/7/2022 2:30:00 AM 15.32 59.576 0.18 6.85 2.25 8.49
11/7/2022 2:45:00 AM 15.28 59.504 0.18 6.84 2.23 8.51
11/7/2022 3:00:00 AM 15.23 59.414 0.18 6.83 4.44 8.49
11/7/2022 3:15:00 AM 15.19 59.342 0.18 6.81 0.89 8.49
11/7/2022 3:30:00 AM 15.15 59.27 0.18 6.82 3.08 8.56
11/7/2022 3:45:00 AM 15.12 59.216 0.18 6.81 1.11 8.52
11/7/2022 4:00:00 AM 15.09 59.162 0.18 6.8 1.3 8.58
11/7/2022 4:15:00 AM 15.07 59.126 0.18 6.79 1.48 8.58
11/7/2022 4:30:00 AM 15.06 59.108 0.18 6.79 2.4 8.6
11/7/2022 4:45:00 AM 15.05 59.09 0.18 6.78 2.66 8.58
11/7/2022 5:00:00 AM 15.03 59.054 0.18 6.78 1.02 8.61
11/7/2022 5:15:00 AM 15 59 0.18 6.77 0.44 8.62
11/7/2022 5:30:00 AM 14.97 58.946 0.18 6.77 0.6 8.59
11/7/2022 5:45:00 AM 14.93 58.874 0.18 6.76 1.82 8.63
11/7/2022 6:00:00 AM 14.9 58.82 0.18 6.76 0.56 8.58
11/7/2022 6:15:00 AM 14.85 58.73 0.18 6.76 1.99 8.59
11/7/2022 6:30:00 AM 14.83 58.694 0.18 6.77 2.04 8.66
11/7/2022 6:45:00 AM 14.8 58.64 0.18 6.75 2.38 8.64
11/7/2022 7:00:00 AM 14.77 58.586 0.18 6.75 1.97 8.68
11/7/2022 7:15:00 AM 14.74 58.532 0.18 6.75 0.87 8.7
11/7/2022 7:30:00 AM 14.71 58.478 0.18 6.75 2.13 8.73
11/7/2022 7:45:00 AM 14.68 58.424 0.18 6.75 2.5 8.77
11/7/2022 8:00:00 AM 14.65 58.37 0.18 6.76 2.04 8.87
11/7/2022 8:15:00 AM 14.63 58.334 0.18 6.77 0.7 8.98
11/7/2022 8:30:00 AM 14.61 58.298 0.18 6.77 2.03 9.07
11/7/2022 8:45:00 AM 14.59 58.262 0.179 6.77 2.2 9.21
11/7/2022 9:00:00 AM 14.57 58.226 0.179 6.77 0.82 9.34
11/7/2022 9:15:00 AM 14.58 58.244 0.179 6.78 2.28 9.5
11/7/2022 9:30:00 AM 14.6 58.28 0.179 6.8 1.93 9.6
11/7/2022 9:45:00 AM 14.64 58.352 0.179 6.78 2.28 9.69
11/7/2022 10:00:00 AM 14.7 58.46 0.179 6.82 1.75 9.94
11/7/2022 10:15:00 AM 14.79 58.622 0.178 6.85 1.71 10.2
11/7/2022 10:30:00 AM 14.91 58.838 0.178 6.87 1.35 10.4
11/7/2022 10:45:00 AM 15.02 59.036 0.178 6.91 0.45 10.55
11/7/2022 11:00:00 AM 15.18 59.324 0.178 6.95 1.71 10.7
11/7/2022 11:15:00 AM 15.34 59.612 0.177 6.99 2.47 10.83
11/7/2022 11:30:00 AM 15.55 59.99 0.177 7.03 2.1 11.03
11/7/2022 11:45:00 AM 15.71 60.278 0.177 7.07 2.37 11.09
11/7/2022 12:00:00 PM 15.85 60.53 0.176 7.13 1.76 11.24
11/7/2022 12:15:00 PM 16.02 60.836 0.176 7.19 2.03 11.26
11/7/2022 12:30:00 PM 16.2 61.16 0.176 7.23 1.5 11.29
11/7/2022 12:45:00 PM 16.46 61.628 0.176 7.28 1.44 11.39
11/7/2022 1:00:00 PM 16.65 61.97 0.175 7.34 1.49 11.41
11/7/2022 1:15:00 PM 16.75 62.15 0.175 7.4 2.17 11.46
11/7/2022 1:30:00 PM 16.81 62.258 0.175 7.46 1.49 11.47
11/7/2022 1:45:00 PM 16.81 62.258 0.175 7.5 1.71 11.4
11/7/2022 2:00:00 PM 16.83 62.294 0.175 7.55 1.88 11.37
11/7/2022 2:15:00 PM 16.83 62.294 0.175 7.6 1.6 11.29
11/7/2022 2:30:00 PM 16.87 62.366 0.175 7.64 2.17 11.22
11/7/2022 2:45:00 PM 16.87 62.366 0.175 7.67 0.73 11.14
11/7/2022 3:00:00 PM 16.83 62.294 0.175 7.71 1.79 11.05
11/7/2022 3:15:00 PM 16.74 62.132 0.176 7.74 2.23 10.91
11/7/2022 3:30:00 PM 16.66 61.988 0.176 7.76 1.98 10.75
11/7/2022 3:45:00 PM 16.57 61.826 0.176 7.78 2.21 10.59
11/7/2022 4:00:00 PM 16.48 61.664 0.176 7.79 0.89 10.42
11/7/2022 4:15:00 PM 16.38 61.484 0.177 7.8 1.73 10.3
11/7/2022 4:30:00 PM 16.28 61.304 0.177 7.8 1.12 10.17
11/7/2022 4:45:00 PM 16.19 61.142 0.178 7.81 2.84 10.03
11/7/2022 5:00:00 PM 16.08 60.944 0.178 7.79 3.9 9.88
11/7/2022 5:15:00 PM 15.96 60.728 0.178 7.77 1.78 9.71
11/7/2022 5:30:00 PM 15.83 60.494 0.179 7.75 2.12 9.59
11/7/2022 5:45:00 PM 15.73 60.314 0.179 7.73 1.7 9.45
11/7/2022 6:00:00 PM 15.59 60.062 0.18 7.69 1.59 9.3
11/7/2022 6:15:00 PM 15.47 59.846 0.18 7.64 130.1 9.22
11/7/2022 6:30:00 PM 15.34 59.612 0.18 7.61 2.2 9.12
11/7/2022 6:45:00 PM 15.2 59.36 0.18 7.53 1.75 9.04
11/7/2022 7:00:00 PM 15.09 59.162 0.18 7.47 1 8.99
11/7/2022 7:15:00 PM 14.97 58.946 0.18 7.41 1.89 8.98
11/7/2022 7:30:00 PM 14.86 58.748 0.181 7.36 1.14 8.95
11/7/2022 7:45:00 PM 14.75 58.55 0.181 7.31 1.45 8.91
11/7/2022 8:00:00 PM 14.65 58.37 0.181 7.12 2.67 8.89
11/7/2022 8:15:00 PM 14.54 58.172 0.18 7.16 1.24 8.89
11/7/2022 8:30:00 PM 14.43 57.974 0.18 7.16 2.94 8.89
11/7/2022 8:45:00 PM 14.32 57.776 0.18 7.13 1.28 8.87
11/7/2022 9:00:00 PM 14.22 57.596 0.181 7.1 1.71 8.9
11/7/2022 9:15:00 PM 14.11 57.398 0.181 7.07 3.17 8.85
11/7/2022 9:30:00 PM 14.02 57.236 0.18 7.05 4.05 8.9
11/7/2022 9:45:00 PM 13.91 57.038 0.18 7.03 2.07 8.89
11/7/2022 10:00:00 PM 13.83 56.894 0.18 7.01 0.91 8.96
11/7/2022 10:15:00 PM 13.74 56.732 0.18 6.99 1.31 8.91
11/7/2022 10:30:00 PM 13.63 56.534 0.18 6.97 1.78 8.99
11/7/2022 10:45:00 PM 13.55 56.39 0.18 6.94 1.83 9.01
11/7/2022 11:00:00 PM 13.47 56.246 0.18 6.92 1.82 9.01
11/7/2022 11:15:00 PM 13.37 56.066 0.18 6.91 1.68 9.05
11/7/2022 11:30:00 PM 13.26 55.868 0.18 6.89 2.25 9.09
11/7/2022 11:45:00 PM 13.16 55.688 0.18 6.87 2.59 9.11
11/8/2022 12:00:00 AM 13.08 55.544 0.18 6.86 1.52 9.13
11/8/2022 12:15:00 AM 13.01 55.418 0.18 6.84 3.14 9.16
11/8/2022 12:30:00 AM 12.92 55.256 0.18 6.83 2.08 9.18
11/8/2022 12:45:00 AM 12.84 55.112 0.18 6.82 2.04 9.19
11/8/2022 1:00:00 AM 12.76 54.968 0.18 6.81 2.51 9.22
11/8/2022 1:15:00 AM 12.69 54.842 0.18 6.8 1.61 9.25
11/8/2022 1:30:00 AM 12.63 54.734 0.18 6.8 1.82 9.27
11/8/2022 1:45:00 AM 12.55 54.59 0.18 6.79 3.18 9.29
11/8/2022 2:00:00 AM 12.49 54.482 0.18 6.79 1.67 9.3
11/8/2022 2:15:00 AM 12.42 54.356 0.18 6.79 2.53 9.34
11/8/2022 2:30:00 AM 12.35 54.23 0.18 6.77 2.89 9.36
11/8/2022 2:45:00 AM 12.29 54.122 0.18 6.76 1.65 9.39
11/8/2022 3:00:00 AM 12.23 54.014 0.18 6.76 2.55 9.41
11/8/2022 3:15:00 AM 12.17 53.906 0.18 6.77 2.03 9.42
11/8/2022 3:30:00 AM 12.11 53.798 0.18 6.75 3.62 9.44
11/8/2022 3:45:00 AM 12.05 53.69 0.18 6.74 16.25 9.46
11/8/2022 4:00:00 AM 11.99 53.582 0.179 6.74 68.81 9.49
11/8/2022 4:15:00 AM 11.92 53.456 0.18 6.72 0.65 9.54
11/8/2022 4:30:00 AM 11.87 53.366 0.179 6.72 0.83 9.56
11/8/2022 4:45:00 AM 11.81 53.258 0.18 6.72 0.69 9.58
11/8/2022 5:00:00 AM 11.75 53.15 0.179 6.71 0.28 9.59
11/8/2022 5:15:00 AM 11.68 53.024 0.18 6.71 0.39 9.62
11/8/2022 5:30:00 AM 11.61 52.898 0.179 6.71 0.73 9.64
11/8/2022 5:45:00 AM 11.54 52.772 0.179 6.7 1.63 9.67
11/8/2022 6:00:00 AM 11.48 52.664 0.179 6.69 2.01 9.69
11/8/2022 6:15:00 AM 11.41 52.538 0.18 6.7 1.9 9.73
11/8/2022 6:30:00 AM 11.35 52.43 0.18 6.69 0.98 9.72
11/8/2022 6:45:00 AM 11.29 52.322 0.18 6.69 1.42 9.78
11/8/2022 7:00:00 AM 11.24 52.232 0.179 6.69 0.43 9.78
11/8/2022 7:15:00 AM 11.18 52.124 0.18 6.68 1.14 9.85
11/8/2022 7:30:00 AM 11.13 52.034 0.179 6.68 0.56 9.91
11/8/2022 7:45:00 AM 11.08 51.944 0.179 6.68 0.27 9.99
11/8/2022 8:00:00 AM 11.02 51.836 0.179 6.68 0.27 10.11
11/8/2022 8:15:00 AM 10.97 51.746 0.179 6.68 0.29 10.24
11/8/2022 8:30:00 AM 10.94 51.692 0.179 6.69 0.36 10.36
11/8/2022 8:45:00 AM 10.9 51.62 0.179 6.69 -0.1 10.5
11/8/2022 9:00:00 AM 10.85 51.53 0.179 6.69 1.02 10.6
11/8/2022 9:15:00 AM 10.82 51.476 0.179 6.7 0.45 10.74
11/8/2022 9:30:00 AM 10.78 51.404 0.179 6.72 0.1 10.91
11/8/2022 9:45:00 AM 10.77 51.386 0.179 6.73 0.37 11.07
11/8/2022 10:00:00 AM 10.78 51.404 0.178 6.74 0 11.28
11/8/2022 10:15:00 AM 10.85 51.53 0.178 6.76 0.41 11.44
11/8/2022 10:30:00 AM 10.93 51.674 0.178 6.77 -0.08 11.61
11/8/2022 10:45:00 AM 11.03 51.854 0.177 6.79 3.79 11.78
11/8/2022 11:00:00 AM 11.13 52.034 0.177 6.83 4.31 11.93
11/8/2022 11:15:00 AM 11.29 52.322 0.177 6.88 0.3 12.03
11/8/2022 11:30:00 AM 11.47 52.646 0.176 6.88 0.05 12.15
11/8/2022 11:45:00 AM 11.63 52.934 0.176 6.93 0.16 12.25
11/8/2022 12:00:00 PM 11.74 53.132 0.175 6.97 1.27 12.33
11/8/2022 12:15:00 PM 11.9 53.42 0.175 7.01 0.18 12.36
11/8/2022 12:30:00 PM 12.1 53.78 0.175 7.04 -0.09 12.44
11/8/2022 12:45:00 PM 12.29 54.122 0.175 7.09 0.87 12.46
11/8/2022 1:00:00 PM 12.48 54.464 0.174 7.13 1.81 12.5
11/8/2022 1:15:00 PM 12.58 54.644 0.174 7.18 1.54 12.51
11/8/2022 1:30:00 PM 12.66 54.788 0.174 7.23 2.16 12.48
11/8/2022 1:45:00 PM 12.63 54.734 0.174 7.27 1.87 12.46
11/8/2022 2:00:00 PM 12.66 54.788 0.174 7.31 1.69 12.38
11/8/2022 2:15:00 PM 12.66 54.788 0.174 7.36 1.83 12.34
11/8/2022 2:30:00 PM 12.68 54.824 0.174 7.38 1.8 12.29
11/8/2022 2:45:00 PM 12.68 54.824 0.174 7.42 1.03 12.26
11/8/2022 3:00:00 PM 12.66 54.788 0.174 7.45 2.02 12.19
11/8/2022 3:15:00 PM 12.57 54.626 0.174 7.48 1.44 12.09
11/8/2022 3:30:00 PM 12.49 54.482 0.174 7.52 2.21 11.96
11/8/2022 3:45:00 PM 12.41 54.338 0.175 7.52 1.65 11.84
11/8/2022 4:00:00 PM 12.31 54.158 0.175 7.55 1.67 11.73
11/8/2022 4:15:00 PM 12.22 53.996 0.175 7.55 0.88 11.59
11/8/2022 4:30:00 PM 12.14 53.852 0.175 7.55 0.27 11.46
11/8/2022 4:45:00 PM 12.02 53.636 0.176 7.54 0.52 11.33
11/8/2022 5:00:00 PM 11.93 53.474 0.176 7.53 2.11 11.22
11/8/2022 5:15:00 PM 11.81 53.258 0.177 7.54 0.14 11.09
11/8/2022 5:30:00 PM 11.72 53.096 0.177 7.52 2.26 10.93
11/8/2022 5:45:00 PM 11.62 52.916 0.177 7.52 0.78 10.79
11/8/2022 6:00:00 PM 11.5 52.7 0.178 7.49 0.52 10.7
11/8/2022 6:15:00 PM 11.37 52.466 0.178 7.47 0.92 10.61
11/8/2022 6:30:00 PM 11.26 52.268 0.178 7.44 0.33 10.55
11/8/2022 6:45:00 PM 11.15 52.07 0.179 7.4 2.27 10.47
11/8/2022 7:00:00 PM 11.03 51.854 0.179 7.37 -0.27 10.43
11/8/2022 7:15:00 PM 10.93 51.674 0.179 7.34 1.15 10.38
11/8/2022 7:30:00 PM 10.84 51.512 0.179 7.31 0.01 10.36
11/8/2022 7:45:00 PM 10.75 51.35 0.179 7.28 0.36 10.32
11/8/2022 8:00:00 PM 10.66 51.188 0.18 7.25 2.66 10.3
11/8/2022 8:15:00 PM 10.55 50.99 0.179 7.22 0.94 10.29
11/8/2022 8:30:00 PM 10.49 50.882 0.18 7.18 0.34 10.26
11/8/2022 8:45:00 PM 10.4 50.72 0.18 7.17 0.38 10.27
11/8/2022 9:00:00 PM 10.31 50.558 0.18 7.13 1.01 10.27
11/8/2022 9:15:00 PM 10.23 50.414 0.18 7.09 -0.06 10.26
11/8/2022 9:30:00 PM 10.14 50.252 0.18 7.08 0.35 10.27
11/8/2022 9:45:00 PM 10.06 50.108 0.18 7.04 0.2 10.28
11/8/2022 10:00:00 PM 10 50 0.18 7.01 2.7 10.28
11/8/2022 10:15:00 PM 9.91 49.838 0.18 6.98 -0.33 10.29
11/8/2022 10:30:00 PM 9.84 49.712 0.18 6.97 0.17 10.3
11/8/2022 10:45:00 PM 9.76 49.568 0.18 6.95 0.15 10.3
11/8/2022 11:00:00 PM 9.68 49.424 0.18 6.92 0.41 10.32
11/8/2022 11:15:00 PM 9.6 49.28 0.18 6.91 0.01 10.35
11/8/2022 11:30:00 PM 9.51 49.118 0.18 6.89 1.77 10.38
11/8/2022 11:45:00 PM 9.45 49.01 0.18 6.87 -0.14 10.39
11/9/2022 12:00:00 AM 9.37 48.866 0.18 6.86 1.66 10.41
11/9/2022 12:15:00 AM 9.29 48.722 0.18 6.83 -0.08 10.44
11/9/2022 12:30:00 AM 9.21 48.578 0.18 6.81 0.59 10.45
11/9/2022 12:45:00 AM 9.11 48.398 0.179 6.79 -0.15 10.49
11/9/2022 1:00:00 AM 9.08 48.344 0.18 6.78 1.25 10.46
11/9/2022 1:15:00 AM 8.99 48.182 0.18 6.78 -0.36 10.52
11/9/2022 1:30:00 AM 8.92 48.056 0.18 6.75 -0.25 10.54
11/9/2022 1:45:00 AM 8.84 47.912 0.18 6.74 1.14 10.58
11/9/2022 2:00:00 AM 8.78 47.804 0.18 6.74 0.59 10.59
11/9/2022 2:15:00 AM 8.72 47.696 0.18 6.72 -0.16 10.6
11/9/2022 2:30:00 AM 8.65 47.57 0.18 6.71 -0.62 10.63
11/9/2022 2:45:00 AM 8.58 47.444 0.18 6.7 0.11 10.65
11/9/2022 3:00:00 AM 8.53 47.354 0.179 6.69 1 10.66
11/9/2022 3:15:00 AM 8.47 47.246 0.179 6.68 -0.54 10.69
11/9/2022 3:30:00 AM 8.41 47.138 0.179 6.66 0.07 10.71
11/9/2022 3:45:00 AM 8.34 47.012 0.179 6.65 -0.01 10.74
11/9/2022 4:00:00 AM 8.27 46.886 0.179 6.64 0.24 10.76
11/9/2022 4:15:00 AM 8.22 46.796 0.179 6.62 0.19 10.77
11/9/2022 4:30:00 AM 8.17 46.706 0.179 6.6 0.02 10.79
11/9/2022 4:45:00 AM 8.11 46.598 0.179 6.6 -0.33 10.82
11/9/2022 5:00:00 AM 8.09 46.562 0.179 6.59 0.14 10.83
11/9/2022 5:15:00 AM 8 46.4 0.179 6.57 -0.05 10.85
11/9/2022 5:30:00 AM 7.93 46.274 0.179 6.58 0.31 10.89
11/9/2022 5:45:00 AM 7.88 46.184 0.179 6.56 1.39 10.91
11/9/2022 6:00:00 AM 7.82 46.076 0.179 6.56 -0.4 10.9
11/9/2022 6:15:00 AM 7.75 45.95 0.179 6.56 0.14 10.94
11/9/2022 6:30:00 AM 7.72 45.896 0.179 6.55 0.23 10.97
11/9/2022 6:45:00 AM 7.71 45.878 0.179 6.55 1.64 10.96
11/9/2022 7:00:00 AM 7.64 45.752 0.179 6.54 0.03 10.99
11/9/2022 7:15:00 AM 7.57 45.626 0.179 6.54 -0.29 11.06
11/9/2022 7:30:00 AM 7.5 45.5 0.179 6.54 -0.49 11.13
11/9/2022 7:45:00 AM 7.44 45.392 0.179 6.53 -0.56 11.22
11/9/2022 8:00:00 AM 7.39 45.302 0.179 6.54 -0.67 11.36
11/9/2022 8:15:00 AM 7.36 45.248 0.179 6.54 -0.18 11.46
11/9/2022 8:30:00 AM 7.33 45.194 0.179 6.53 -0.28 11.57
11/9/2022 8:45:00 AM 7.31 45.158 0.179 6.48 -0.31 11.69
11/9/2022 9:00:00 AM 7.31 45.158 0.179 6.49 -0.26 11.8
11/9/2022 9:15:00 AM 7.31 45.158 0.179 6.45 -0.12 11.93
11/9/2022 9:30:00 AM 7.32 45.176 0.179 6.45 -0.09 12.07
11/9/2022 9:45:00 AM 7.35 45.23 0.178 6.44 0.01 12.16
11/9/2022 10:00:00 AM 7.43 45.374 0.178 6.43 -0.55 12.31
11/9/2022 10:15:00 AM 7.54 45.572 0.178 6.44 -0.62 12.45
11/9/2022 10:30:00 AM 7.68 45.824 0.178 6.45 -0.28 12.6
11/9/2022 10:45:00 AM 7.82 46.076 0.177 6.46 -0.53 12.74
11/9/2022 11:00:00 AM 8 46.4 0.177 6.47 -0.32 12.83
11/9/2022 11:15:00 AM 8.19 46.742 0.176 6.48 -0.38 12.94
11/9/2022 11:30:00 AM 8.45 47.21 0.176 6.5 -0.02 13
11/9/2022 11:45:00 AM 8.64 47.552 0.176 6.54 -0.49 13.06
11/9/2022 12:00:00 PM 8.8 47.84 0.175 6.57 -0.61 13.12
11/9/2022 12:15:00 PM 8.96 48.128 0.175 6.61 -0.3 13.19
11/9/2022 12:30:00 PM 9.23 48.614 0.175 6.64 -0.48 13.17
11/9/2022 12:45:00 PM 9.45 49.01 0.174 6.69 -0.17 13.21
11/9/2022 1:00:00 PM 9.69 49.442 0.174 6.73 -0.37 13.24
11/9/2022 1:15:00 PM 9.85 49.73 0.174 6.78 0 13.22
11/9/2022 1:30:00 PM 10 50 0.174 6.82 -0.07 13.16
11/9/2022 1:45:00 PM 10.03 50.054 0.174 6.88 -0.07 13.16
11/9/2022 2:00:00 PM 10.09 50.162 0.174 6.93 -0.26 13.11
11/9/2022 2:15:00 PM 10.12 50.216 0.174 6.99 -0.2 13.03
11/9/2022 2:30:00 PM 10.18 50.324 0.174 7.02 -0.09 12.98
11/9/2022 2:45:00 PM 10.23 50.414 0.174 7.05 0.05 12.94
11/9/2022 3:00:00 PM 10.23 50.414 0.174 7.1 -0.02 12.82
11/9/2022 3:15:00 PM 10.19 50.342 0.174 7.13 -0.02 12.72
11/9/2022 3:30:00 PM 10.14 50.252 0.175 7.16 0.07 12.63
11/9/2022 3:45:00 PM 10.1 50.18 0.175 7.19 -0.54 12.52
11/9/2022 4:00:00 PM 10.03 50.054 0.175 7.22 -0.52 12.4
11/9/2022 4:15:00 PM 9.97 49.946 0.175 7.22 -0.03 12.3
11/9/2022 4:30:00 PM 9.89 49.802 0.175 7.23 0.43 12.2
11/9/2022 4:45:00 PM 9.82 49.676 0.175 7.22 0.54 12.06
11/9/2022 5:00:00 PM 9.72 49.496 0.176 7.23 -0.51 11.95
11/9/2022 5:15:00 PM 9.65 49.37 0.176 7.23 -0.31 11.83
11/9/2022 5:30:00 PM 9.53 49.154 0.176 7.22 -0.3 11.69
11/9/2022 5:45:00 PM 9.44 48.992 0.177 7.21 -0.11 11.56
11/9/2022 6:00:00 PM 9.33 48.794 0.177 7.19 -0.17 11.45
11/9/2022 6:15:00 PM 9.25 48.65 0.177 7.17 2.75 11.34
11/9/2022 6:30:00 PM 9.15 48.47 0.178 7.15 0.79 11.26
11/9/2022 6:45:00 PM 9.06 48.308 0.178 7.14 5.73 11.2
11/9/2022 7:00:00 PM 8.97 48.146 0.178 7.11 0.82 11.13
11/9/2022 7:15:00 PM 8.88 47.984 0.178 7.09 -0.19 11.11
11/9/2022 7:30:00 PM 8.8 47.84 0.179 7.05 -0.03 11.07
11/9/2022 7:45:00 PM 8.73 47.714 0.179 7.03 -0.47 11.04
11/9/2022 8:00:00 PM 8.66 47.588 0.179 7 -0.18 10.99
11/9/2022 8:15:00 PM 8.6 47.48 0.179 6.97 2.89 10.99
11/9/2022 8:30:00 PM 8.52 47.336 0.179 6.95 0.28 10.97
11/9/2022 8:45:00 PM 8.46 47.228 0.179 6.92 -0.45 10.95
11/9/2022 9:00:00 PM 8.39 47.102 0.179 6.9 0.13 10.96
11/9/2022 9:15:00 PM 8.33 46.994 0.179 6.87 -0.4 10.94
11/9/2022 9:30:00 PM 8.28 46.904 0.179 6.84 0 10.94
11/9/2022 9:45:00 PM 8.21 46.778 0.179 6.83 -0.37 10.92
11/9/2022 10:00:00 PM 8.16 46.688 0.179 6.8 0.32 10.94
11/9/2022 10:15:00 PM 8.1 46.58 0.179 6.78 0.25 10.93
11/9/2022 10:30:00 PM 8.05 46.49 0.179 6.75 -0.26 10.95
11/9/2022 10:45:00 PM 8.03 46.454 0.179 6.74 0.78 10.9
11/9/2022 11:00:00 PM 7.98 46.364 0.18 6.71 -0.1 10.9
11/9/2022 11:15:00 PM 7.93 46.274 0.18 6.7 -0.15 10.92
11/9/2022 11:30:00 PM 7.87 46.166 0.181 6.68 -0.12 10.91
11/9/2022 11:45:00 PM 7.82 46.076 0.181 6.65 -0.38 10.91
11/10/2022 12:00:00 AM 7.76 45.968 0.182 6.63 -0.11 10.91
11/10/2022 12:15:00 AM 7.73 45.914 0.182 6.6 -0.44 10.93
11/10/2022 12:30:00 AM 7.69 45.842 0.182 6.58 -0.01 10.94
11/10/2022 12:45:00 AM 7.65 45.77 0.181 6.58 -0.26 10.96
11/10/2022 1:00:00 AM 7.59 45.662 0.181 6.58 0.38 10.97
11/10/2022 1:15:00 AM 7.53 45.554 0.18 6.57 -0.67 11
11/10/2022 1:30:00 AM 7.49 45.482 0.18 6.56 -0.05 11.04
11/10/2022 1:45:00 AM 7.46 45.428 0.18 6.56 -0.58 11.05
11/10/2022 2:00:00 AM 7.42 45.356 0.18 6.53 -0.04 11.06
11/10/2022 2:15:00 AM 7.38 45.284 0.179 6.53 -0.14 11.08
11/10/2022 2:30:00 AM 7.34 45.212 0.179 6.51 0 11.1
11/10/2022 2:45:00 AM 7.3 45.14 0.179 6.48 -0.36 11.11
11/10/2022 3:00:00 AM 7.26 45.068 0.179 6.47 -0.53 11.12
11/10/2022 3:15:00 AM 7.24 45.032 0.179 6.47 -0.76 11.14
11/10/2022 3:30:00 AM 7.21 44.978 0.179 6.45 -0.78 11.14
11/10/2022 3:45:00 AM 7.17 44.906 0.179 6.46 4.4 11.14
11/10/2022 4:00:00 AM 7.14 44.852 0.179 6.45 -0.14 11.16
11/10/2022 4:15:00 AM 7.11 44.798 0.179 6.44 0.01 11.16
11/10/2022 4:30:00 AM 7.07 44.726 0.179 6.45 0.49 11.18
11/10/2022 4:45:00 AM 7.04 44.672 0.179 6.46 -0.44 11.2
11/10/2022 5:00:00 AM 7.03 44.654 0.179 6.44 -0.01 11.19
11/10/2022 5:15:00 AM 6.99 44.582 0.179 6.46 0.55 11.2
11/10/2022 5:30:00 AM 6.96 44.528 0.179 6.44 0.02 11.23
11/10/2022 5:45:00 AM 6.93 44.474 0.179 6.43 -0.11 11.23
11/10/2022 6:00:00 AM 6.91 44.438 0.179 6.44 -0.23 11.22
11/10/2022 6:15:00 AM 6.89 44.402 0.179 6.44 -0.54 11.25
11/10/2022 6:30:00 AM 6.86 44.348 0.179 6.44 -0.34 11.25
11/10/2022 6:45:00 AM 6.82 44.276 0.179 6.43 -0.41 11.27
11/10/2022 7:00:00 AM 6.8 44.24 0.179 6.39 -0.65 11.28
11/10/2022 7:15:00 AM 6.77 44.186 0.179 6.39 -0.46 11.32
11/10/2022 7:30:00 AM 6.74 44.132 0.179 6.39 -0.27 11.39
11/10/2022 7:45:00 AM 6.73 44.114 0.179 6.38 0.09 11.49
11/10/2022 8:00:00 AM 6.72 44.096 0.179 6.37 -0.87 11.57
11/10/2022 8:15:00 AM 6.72 44.096 0.178 6.37 -0.64 11.71
11/10/2022 8:30:00 AM